PWSweather.com
Personal Weather Stations
Station Observations
ESTGRALPAZ
Santa Fe, Santa FeAR 3000

Santa FeSanta FeAR 3000

Lat: -31.6280555556, Lon: -60.6908333333

Elevation: 69

Station Type: WH1081

http://www.estaciongralpaz.com.ar

High Low Average
Temperature 97.9°F36.6°C 63.3°F17.4°C 81.2°F27.3°C
Dew Point 63.7°F17.6°C 38.2°F3.4°C 49.8°F9.9°C
Winds 13.0 mph 20.9 kmh Calm Calm 4.0 mph WSW6.4 kmh WSW
Wind Gusts 19.7 mph31.7 kmh -- 9.0 mph14.5 kmh
Humidity 57% 13% 37%
Pressure 29.82 in1009.8 mb 29.70 in1005.8 mb -
Precipitation 0.00 in0.0 mm - -
Hour Temp Dew Point Humidity Winds Wind Gusts Pressure Precip Precip Rate Daily Precip Total
12:00 AM 69.4°F20.8°C 50.0°F10.0°C 50% 0.7 mph N1.1 kmh N 3.1 mph5.0 kmh 29.81 in1009.5 mb 0.00 in0.0 mm 0.00 in0.0 mm 0.00 in0.0 mm
12:01 AM 69.4°F20.8°C 50.0°F10.0°C 50% Calm Calm 3.1 mph5.0 kmh 29.81 in1009.5 mb 0.00 in0.0 mm 0.00 in0.0 mm 0.00 in0.0 mm
12:02 AM 69.4°F20.8°C 50.0°F10.0°C 50% 1.6 mph N2.6 kmh N 3.1 mph5.0 kmh 29.81 in1009.5 mb 0.00 in0.0 mm 0.00 in0.0 mm 0.00 in0.0 mm
12:03 AM 69.4°F20.8°C 50.0°F10.0°C 50% 0.7 mph N1.1 kmh N 3.1 mph5.0 kmh 29.81 in1009.5 mb 0.00 in0.0 mm 0.00 in0.0 mm 0.00 in0.0 mm
12:04 AM 69.4°F20.8°C 50.0°F10.0°C 50% 0.7 mph N1.1 kmh N 3.1 mph5.0 kmh 29.81 in1009.5 mb 0.00 in0.0 mm 0.00 in0.0 mm 0.00 in0.0 mm
12:05 AM 69.4°F20.8°C 50.0°F10.0°C 50% Calm Calm 3.1 mph5.0 kmh 29.81 in1009.5 mb 0.00 in0.0 mm 0.00 in0.0 mm 0.00 in0.0 mm
12:06 AM 69.4°F20.8°C 50.0°F10.0°C 50% Calm Calm 3.1 mph5.0 kmh 29.81 in1009.5 mb 0.00 in0.0 mm 0.00 in0.0 mm 0.00 in0.0 mm
12:07 AM 69.3°F20.7°C 49.8°F9.9°C 50% Calm Calm 3.1 mph5.0 kmh 29.81 in1009.5 mb 0.00 in0.0 mm 0.00 in0.0 mm 0.00 in0.0 mm
12:08 AM 69.3°F20.7°C 49.8°F9.9°C 50% Calm Calm 2.2 mph3.5 kmh 29.80 in1009.1 mb 0.00 in0.0 mm 0.00 in0.0 mm 0.00 in0.0 mm
12:09 AM 69.3°F20.7°C 49.8°F9.9°C 50% Calm Calm 2.2 mph3.5 kmh 29.81 in1009.5 mb 0.00 in0.0 mm 0.00 in0.0 mm 0.00 in0.0 mm
12:10 AM 69.3°F20.7°C 49.8°F9.9°C 50% Calm Calm 2.2 mph3.5 kmh 29.80 in1009.1 mb 0.00 in0.0 mm 0.00 in0.0 mm 0.00 in0.0 mm
12:11 AM 69.1°F20.6°C 49.7°F9.8°C 50% Calm Calm 2.2 mph3.5 kmh 29.81 in1009.5 mb 0.00 in0.0 mm 0.00 in0.0 mm 0.00 in0.0 mm
12:12 AM 69.1°F20.6°C 49.7°F9.8°C 50% Calm Calm 2.2 mph3.5 kmh 29.80 in1009.1 mb 0.00 in0.0 mm 0.00 in0.0 mm 0.00 in0.0 mm
12:13 AM 69.1°F20.6°C 49.7°F9.8°C 50% Calm Calm 2.2 mph3.5 kmh 29.80 in1009.1 mb 0.00 in0.0 mm 0.00 in0.0 mm 0.00 in0.0 mm
12:14 AM 69.1°F20.6°C 49.7°F9.8°C 50% 0.7 mph NW1.1 kmh NW 2.2 mph3.5 kmh 29.80 in1009.1 mb 0.00 in0.0 mm 0.00 in0.0 mm 0.00 in0.0 mm
12:15 AM 69.1°F20.6°C 49.7°F9.8°C 50% 2.2 mph NNW3.5 kmh NNW 3.8 mph6.1 kmh 29.80 in1009.1 mb 0.00 in0.0 mm 0.00 in0.0 mm 0.00 in0.0 mm
12:16 AM 69.1°F20.6°C 49.7°F9.8°C 50% 2.2 mph N3.5 kmh N 3.8 mph6.1 kmh 29.80 in1009.1 mb 0.00 in0.0 mm 0.00 in0.0 mm 0.00 in0.0 mm
12:17 AM 69.1°F20.6°C 49.7°F9.8°C 50% 0.7 mph N1.1 kmh N 3.8 mph6.1 kmh 29.80 in1009.1 mb 0.00 in0.0 mm 0.00 in0.0 mm 0.00 in0.0 mm
12:18 AM 69.3°F20.7°C 49.8°F9.9°C 50% 1.6 mph N2.6 kmh N 3.8 mph6.1 kmh 29.81 in1009.5 mb 0.00 in0.0 mm 0.00 in0.0 mm 0.00 in0.0 mm
12:19 AM 69.3°F20.7°C 49.3°F9.6°C 49% 2.2 mph N3.5 kmh N 3.8 mph6.1 kmh 29.80 in1009.1 mb 0.00 in0.0 mm 0.00 in0.0 mm 0.00 in0.0 mm
12:20 AM 69.3°F20.7°C 49.3°F9.6°C 49% 1.6 mph N2.6 kmh N 3.8 mph6.1 kmh 29.80 in1009.1 mb 0.00 in0.0 mm 0.00 in0.0 mm 0.00 in0.0 mm
12:21 AM 69.3°F20.7°C 49.3°F9.6°C 49% 2.2 mph N3.5 kmh N 3.8 mph6.1 kmh 29.80 in1009.1 mb 0.00 in0.0 mm 0.00 in0.0 mm 0.00 in0.0 mm
12:22 AM 69.3°F20.7°C 49.3°F9.6°C 49% 1.6 mph N2.6 kmh N 3.8 mph6.1 kmh 29.80 in1009.1 mb 0.00 in0.0 mm 0.00 in0.0 mm 0.00 in0.0 mm
12:23 AM 69.4°F20.8°C 49.5°F9.7°C 49% 1.6 mph N2.6 kmh N 3.8 mph6.1 kmh 29.80 in1009.1 mb 0.00 in0.0 mm 0.00 in0.0 mm 0.00 in0.0 mm
12:24 AM 69.4°F20.8°C 48.9°F9.4°C 48% 1.6 mph NNE2.6 kmh NNE 3.8 mph6.1 kmh 29.80 in1009.1 mb 0.00 in0.0 mm 0.00 in0.0 mm 0.00 in0.0 mm
12:25 AM 69.4°F20.8°C 48.9°F9.4°C 48% 3.1 mph NNE5.0 kmh NNE 5.4 mph8.7 kmh 29.80 in1009.1 mb 0.00 in0.0 mm 0.00 in0.0 mm 0.00 in0.0 mm
12:26 AM 69.4°F20.8°C 48.9°F9.4°C 48% 3.1 mph NNE5.0 kmh NNE 5.4 mph8.7 kmh 29.80 in1009.1 mb 0.00 in0.0 mm 0.00 in0.0 mm 0.00 in0.0 mm
12:27 AM 69.4°F20.8°C 48.9°F9.4°C 48% 2.2 mph NNE3.5 kmh NNE 5.4 mph8.7 kmh 29.80 in1009.1 mb 0.00 in0.0 mm 0.00 in0.0 mm 0.00 in0.0 mm
12:28 AM 69.4°F20.8°C 48.9°F9.4°C 48% 2.2 mph N3.5 kmh N 5.4 mph8.7 kmh 29.80 in1009.1 mb 0.00 in0.0 mm 0.00 in0.0 mm 0.00 in0.0 mm
12:29 AM 69.4°F20.8°C 48.9°F9.4°C 48% 3.1 mph N5.0 kmh N 5.4 mph8.7 kmh 29.80 in1009.1 mb 0.00 in0.0 mm 0.00 in0.0 mm 0.00 in0.0 mm
12:30 AM 69.4°F20.8°C 48.9°F9.4°C 48% 3.1 mph N5.0 kmh N 5.4 mph8.7 kmh 29.80 in1009.1 mb 0.00 in0.0 mm 0.00 in0.0 mm 0.00 in0.0 mm
12:31 AM 69.4°F20.8°C 48.4°F9.1°C 47% 0.7 mph N1.1 kmh N 5.4 mph8.7 kmh 29.80 in1009.1 mb 0.00 in0.0 mm 0.00 in0.0 mm 0.00 in0.0 mm
12:32 AM 69.4°F20.8°C 48.9°F9.4°C 48% Calm Calm 5.4 mph8.7 kmh 29.80 in1009.1 mb 0.00 in0.0 mm 0.00 in0.0 mm 0.00 in0.0 mm
12:33 AM 69.4°F20.8°C 48.9°F9.4°C 48% 1.6 mph N2.6 kmh N 5.4 mph8.7 kmh 29.80 in1009.1 mb 0.00 in0.0 mm 0.00 in0.0 mm 0.00 in0.0 mm
12:34 AM 69.4°F20.8°C 48.9°F9.4°C 48% 2.2 mph N3.5 kmh N 5.4 mph8.7 kmh 29.80 in1009.1 mb 0.00 in0.0 mm 0.00 in0.0 mm 0.00 in0.0 mm
12:35 AM 69.4°F20.8°C 48.9°F9.4°C 48% 1.6 mph NNW2.6 kmh NNW 5.4 mph8.7 kmh 29.79 in1008.8 mb 0.00 in0.0 mm 0.00 in0.0 mm 0.00 in0.0 mm
12:36 AM 69.3°F20.7°C 48.8°F9.3°C 48% 0.7 mph NNW1.1 kmh NNW 5.4 mph8.7 kmh 29.80 in1009.1 mb 0.00 in0.0 mm 0.00 in0.0 mm 0.00 in0.0 mm
12:37 AM 69.3°F20.7°C 48.8°F9.3°C 48% 1.6 mph NNW2.6 kmh NNW 5.4 mph8.7 kmh 29.80 in1009.1 mb 0.00 in0.0 mm 0.00 in0.0 mm 0.00 in0.0 mm
12:38 AM 69.3°F20.7°C 48.8°F9.3°C 48% 1.6 mph NNW2.6 kmh NNW 5.4 mph8.7 kmh 29.80 in1009.1 mb 0.00 in0.0 mm 0.00 in0.0 mm 0.00 in0.0 mm
12:39 AM 69.3°F20.7°C 48.8°F9.3°C 48% 2.2 mph NNW3.5 kmh NNW 5.4 mph8.7 kmh 29.79 in1008.8 mb 0.00 in0.0 mm 0.00 in0.0 mm 0.00 in0.0 mm
12:40 AM 69.3°F20.7°C 48.8°F9.3°C 48% 1.6 mph N2.6 kmh N 3.8 mph6.1 kmh 29.79 in1008.8 mb 0.00 in0.0 mm 0.00 in0.0 mm 0.00 in0.0 mm
12:41 AM 69.1°F20.6°C 48.6°F9.2°C 48% 2.2 mph NNW3.5 kmh NNW 3.8 mph6.1 kmh 29.79 in1008.8 mb 0.00 in0.0 mm 0.00 in0.0 mm 0.00 in0.0 mm
12:42 AM 69.1°F20.6°C 48.0°F8.9°C 47% 1.6 mph NNW2.6 kmh NNW 3.8 mph6.1 kmh 29.79 in1008.8 mb 0.00 in0.0 mm 0.00 in0.0 mm 0.00 in0.0 mm
12:43 AM 69.1°F20.6°C 48.0°F8.9°C 47% 2.2 mph NNW3.5 kmh NNW 3.8 mph6.1 kmh 29.79 in1008.8 mb 0.00 in0.0 mm 0.00 in0.0 mm 0.00 in0.0 mm
12:44 AM 69.1°F20.6°C 48.0°F8.9°C 47% 2.2 mph NNW3.5 kmh NNW 4.5 mph7.2 kmh 29.79 in1008.8 mb 0.00 in0.0 mm 0.00 in0.0 mm 0.00 in0.0 mm
12:45 AM 69.1°F20.6°C 48.0°F8.9°C 47% 3.1 mph NW5.0 kmh NW 4.5 mph7.2 kmh 29.79 in1008.8 mb 0.00 in0.0 mm 0.00 in0.0 mm 0.00 in0.0 mm
12:46 AM 69.1°F20.6°C 48.0°F8.9°C 47% 3.1 mph NNW5.0 kmh NNW 4.5 mph7.2 kmh 29.79 in1008.8 mb 0.00 in0.0 mm 0.00 in0.0 mm 0.00 in0.0 mm
12:47 AM 69.1°F20.6°C 48.0°F8.9°C 47% 3.8 mph NNW6.1 kmh NNW 8.3 mph13.4 kmh 29.79 in1008.8 mb 0.00 in0.0 mm 0.00 in0.0 mm 0.00 in0.0 mm
12:48 AM 69.1°F20.6°C 48.0°F8.9°C 47% 3.1 mph NNW5.0 kmh NNW 8.3 mph13.4 kmh 29.79 in1008.8 mb 0.00 in0.0 mm 0.00 in0.0 mm 0.00 in0.0 mm
12:49 AM 69.1°F20.6°C 48.0°F8.9°C 47% 3.1 mph NNW5.0 kmh NNW 8.3 mph13.4 kmh 29.79 in1008.8 mb 0.00 in0.0 mm 0.00 in0.0 mm 0.00 in0.0 mm
12:50 AM 69.1°F20.6°C 48.0°F8.9°C 47% 3.1 mph NNW5.0 kmh NNW 8.3 mph13.4 kmh 29.79 in1008.8 mb 0.00 in0.0 mm 0.00 in0.0 mm 0.00 in0.0 mm
12:51 AM 69.1°F20.6°C 48.0°F8.9°C 47% 3.1 mph NNW5.0 kmh NNW 8.3 mph13.4 kmh 29.79 in1008.8 mb 0.00 in0.0 mm 0.00 in0.0 mm 0.00 in0.0 mm
12:52 AM 69.1°F20.6°C 47.5°F8.6°C 46% 3.8 mph NNW6.1 kmh NNW 8.3 mph13.4 kmh 29.79 in1008.8 mb 0.00 in0.0 mm 0.00 in0.0 mm 0.00 in0.0 mm
12:53 AM 69.1°F20.6°C 47.5°F8.6°C 46% 3.8 mph NNW6.1 kmh NNW 8.3 mph13.4 kmh 29.78 in1008.5 mb 0.00 in0.0 mm 0.00 in0.0 mm 0.00 in0.0 mm
12:54 AM 69.3°F20.7°C 47.6°F8.7°C 46% 2.2 mph NNW3.5 kmh NNW 8.3 mph13.4 kmh 29.78 in1008.5 mb 0.00 in0.0 mm 0.00 in0.0 mm 0.00 in0.0 mm
12:55 AM 69.3°F20.7°C 47.6°F8.7°C 46% 2.2 mph NNW3.5 kmh NNW 8.3 mph13.4 kmh 29.78 in1008.5 mb 0.00 in0.0 mm 0.00 in0.0 mm 0.00 in0.0 mm
12:56 AM 69.3°F20.7°C 47.6°F8.7°C 46% 2.2 mph NNW3.5 kmh NNW 8.3 mph13.4 kmh 29.78 in1008.5 mb 0.00 in0.0 mm 0.00 in0.0 mm 0.00 in0.0 mm
12:57 AM 69.1°F20.6°C 47.5°F8.6°C 46% 2.2 mph NNW3.5 kmh NNW 6.0 mph9.7 kmh 29.78 in1008.5 mb 0.00 in0.0 mm 0.00 in0.0 mm 0.00 in0.0 mm
12:58 AM 69.1°F20.6°C 47.5°F8.6°C 46% 1.6 mph NNW2.6 kmh NNW 6.0 mph9.7 kmh 29.78 in1008.5 mb 0.00 in0.0 mm 0.00 in0.0 mm 0.00 in0.0 mm
12:59 AM 69.1°F20.6°C 48.0°F8.9°C 47% 0.7 mph NNW1.1 kmh NNW 5.4 mph8.7 kmh 29.79 in1008.8 mb 0.00 in0.0 mm 0.00 in0.0 mm 0.00 in0.0 mm
01:00 AM 69.1°F20.6°C 48.0°F8.9°C 47% 2.2 mph NW3.5 kmh NW 5.4 mph8.7 kmh 29.79 in1008.8 mb 0.00 in0.0 mm 0.00 in0.0 mm 0.00 in0.0 mm
01:01 AM 68.9°F20.5°C 47.9°F8.8°C 47% 1.6 mph NW2.6 kmh NW 5.4 mph8.7 kmh 29.79 in1008.8 mb 0.00 in0.0 mm 0.00 in0.0 mm 0.00 in0.0 mm
01:02 AM 68.9°F20.5°C 47.9°F8.8°C 47% 2.2 mph NNW3.5 kmh NNW 4.5 mph7.2 kmh 29.78 in1008.5 mb 0.00 in0.0 mm 0.00 in0.0 mm 0.00 in0.0 mm
01:03 AM 68.9°F20.5°C 47.9°F8.8°C 47% 2.2 mph NNW3.5 kmh NNW 4.5 mph7.2 kmh 29.78 in1008.5 mb 0.00 in0.0 mm 0.00 in0.0 mm 0.00 in0.0 mm
01:04 AM 68.7°F20.4°C 47.7°F8.7°C 47% 0.7 mph NNW1.1 kmh NNW 4.5 mph7.2 kmh 29.78 in1008.5 mb 0.00 in0.0 mm 0.00 in0.0 mm 0.00 in0.0 mm
01:05 AM 68.7°F20.4°C 47.7°F8.7°C 47% 1.6 mph NNW2.6 kmh NNW 3.8 mph6.1 kmh 29.78 in1008.5 mb 0.00 in0.0 mm 0.00 in0.0 mm 0.00 in0.0 mm
01:06 AM 68.7°F20.4°C 47.7°F8.7°C 47% 2.2 mph NNW3.5 kmh NNW 3.8 mph6.1 kmh 29.78 in1008.5 mb 0.00 in0.0 mm 0.00 in0.0 mm 0.00 in0.0 mm
01:07 AM 68.5°F20.3°C 47.5°F8.6°C 47% 1.6 mph NNW2.6 kmh NNW 3.8 mph6.1 kmh 29.78 in1008.5 mb 0.00 in0.0 mm 0.00 in0.0 mm 0.00 in0.0 mm
01:08 AM 68.5°F20.3°C 48.1°F8.9°C 48% 1.6 mph NNW2.6 kmh NNW 3.8 mph6.1 kmh 29.78 in1008.5 mb 0.00 in0.0 mm 0.00 in0.0 mm 0.00 in0.0 mm
01:09 AM 68.5°F20.3°C 48.1°F8.9°C 48% 2.2 mph NNW3.5 kmh NNW 4.5 mph7.2 kmh 29.78 in1008.5 mb 0.00 in0.0 mm 0.00 in0.0 mm 0.00 in0.0 mm
01:10 AM 68.4°F20.2°C 47.9°F8.8°C 48% 3.1 mph NNW5.0 kmh NNW 4.5 mph7.2 kmh 29.78 in1008.5 mb 0.00 in0.0 mm 0.00 in0.0 mm 0.00 in0.0 mm
01:11 AM 68.4°F20.2°C 47.9°F8.8°C 48% 2.2 mph N3.5 kmh N 4.5 mph7.2 kmh 29.78 in1008.5 mb 0.00 in0.0 mm 0.00 in0.0 mm 0.00 in0.0 mm
01:12 AM 68.4°F20.2°C 47.9°F8.8°C 48% 3.1 mph NNW5.0 kmh NNW 5.4 mph8.7 kmh 29.78 in1008.5 mb 0.00 in0.0 mm 0.00 in0.0 mm 0.00 in0.0 mm
01:13 AM 68.4°F20.2°C 47.4°F8.6°C 47% 2.2 mph NNW3.5 kmh NNW 5.4 mph8.7 kmh 29.78 in1008.5 mb 0.00 in0.0 mm 0.00 in0.0 mm 0.00 in0.0 mm
01:14 AM 68.4°F20.2°C 47.4°F8.6°C 47% 2.2 mph NNW3.5 kmh NNW 5.4 mph8.7 kmh 29.78 in1008.5 mb 0.00 in0.0 mm 0.00 in0.0 mm 0.00 in0.0 mm
01:15 AM 68.4°F20.2°C 47.4°F8.6°C 47% 1.6 mph NNW2.6 kmh NNW 5.4 mph8.7 kmh 29.78 in1008.5 mb 0.00 in0.0 mm 0.00 in0.0 mm 0.00 in0.0 mm
01:16 AM 68.5°F20.3°C 47.5°F8.6°C 47% 3.1 mph NNW5.0 kmh NNW 5.4 mph8.7 kmh 29.77 in1008.1 mb 0.00 in0.0 mm 0.00 in0.0 mm 0.00 in0.0 mm
01:17 AM 68.5°F20.3°C 47.5°F8.6°C 47% 3.1 mph NNW5.0 kmh NNW 5.4 mph8.7 kmh 29.78 in1008.5 mb 0.00 in0.0 mm 0.00 in0.0 mm 0.00 in0.0 mm
01:18 AM 68.5°F20.3°C 47.5°F8.6°C 47% 2.2 mph N3.5 kmh N 5.4 mph8.7 kmh 29.78 in1008.5 mb 0.00 in0.0 mm 0.00 in0.0 mm 0.00 in0.0 mm
01:19 AM 68.5°F20.3°C 47.5°F8.6°C 47% 3.1 mph NNW5.0 kmh NNW 5.4 mph8.7 kmh 29.78 in1008.5 mb 0.00 in0.0 mm 0.00 in0.0 mm 0.00 in0.0 mm
01:20 AM 68.5°F20.3°C 47.5°F8.6°C 47% 3.1 mph NNW5.0 kmh NNW 5.4 mph8.7 kmh 29.78 in1008.5 mb 0.00 in0.0 mm 0.00 in0.0 mm 0.00 in0.0 mm
01:21 AM 68.7°F20.4°C 47.1°F8.4°C 46% 3.8 mph N6.1 kmh N 5.4 mph8.7 kmh 29.78 in1008.5 mb 0.00 in0.0 mm 0.00 in0.0 mm 0.00 in0.0 mm
01:22 AM 68.7°F20.4°C 47.1°F8.4°C 46% 4.5 mph N7.2 kmh N 7.6 mph12.2 kmh 29.78 in1008.5 mb 0.00 in0.0 mm 0.00 in0.0 mm 0.00 in0.0 mm
01:23 AM 68.7°F20.4°C 47.1°F8.4°C 46% 4.5 mph N7.2 kmh N 7.6 mph12.2 kmh 29.78 in1008.5 mb 0.00 in0.0 mm 0.00 in0.0 mm 0.00 in0.0 mm
01:24 AM 68.7°F20.4°C 47.1°F8.4°C 46% 2.2 mph N3.5 kmh N 7.6 mph12.2 kmh 29.78 in1008.5 mb 0.00 in0.0 mm 0.00 in0.0 mm 0.00 in0.0 mm
01:25 AM 68.7°F20.4°C 47.1°F8.4°C 46% 2.2 mph N3.5 kmh N 7.6 mph12.2 kmh 29.78 in1008.5 mb 0.00 in0.0 mm 0.00 in0.0 mm 0.00 in0.0 mm
01:26 AM 68.7°F20.4°C 47.1°F8.4°C 46% 3.8 mph N6.1 kmh N 7.6 mph12.2 kmh 29.78 in1008.5 mb 0.00 in0.0 mm 0.00 in0.0 mm 0.00 in0.0 mm
01:27 AM 68.7°F20.4°C 47.1°F8.4°C 46% 3.8 mph N6.1 kmh N 7.6 mph12.2 kmh 29.77 in1008.1 mb 0.00 in0.0 mm 0.00 in0.0 mm 0.00 in0.0 mm
01:28 AM 68.7°F20.4°C 47.1°F8.4°C 46% 3.1 mph N5.0 kmh N 7.6 mph12.2 kmh 29.78 in1008.5 mb 0.00 in0.0 mm 0.00 in0.0 mm 0.00 in0.0 mm
01:29 AM 68.7°F20.4°C 47.1°F8.4°C 46% 3.1 mph N5.0 kmh N 7.6 mph12.2 kmh 29.77 in1008.1 mb 0.00 in0.0 mm 0.00 in0.0 mm 0.00 in0.0 mm
01:30 AM 68.7°F20.4°C 47.1°F8.4°C 46% 3.8 mph N6.1 kmh N 7.6 mph12.2 kmh 29.77 in1008.1 mb 0.00 in0.0 mm 0.00 in0.0 mm 0.00 in0.0 mm
01:31 AM 68.7°F20.4°C 47.1°F8.4°C 46% 3.1 mph N5.0 kmh N 7.6 mph12.2 kmh 29.77 in1008.1 mb 0.00 in0.0 mm 0.00 in0.0 mm 0.00 in0.0 mm
01:32 AM 68.7°F20.4°C 47.1°F8.4°C 46% 2.2 mph N3.5 kmh N 7.6 mph12.2 kmh 29.77 in1008.1 mb 0.00 in0.0 mm 0.00 in0.0 mm 0.00 in0.0 mm
01:33 AM 68.5°F20.3°C 47.0°F8.3°C 46% 3.8 mph N6.1 kmh N 7.6 mph12.2 kmh 29.78 in1008.5 mb 0.00 in0.0 mm 0.00 in0.0 mm 0.00 in0.0 mm
01:34 AM 68.5°F20.3°C 47.0°F8.3°C 46% 4.5 mph N7.2 kmh N 6.0 mph9.7 kmh 29.77 in1008.1 mb 0.00 in0.0 mm 0.00 in0.0 mm 0.00 in0.0 mm
01:35 AM 68.5°F20.3°C 47.0°F8.3°C 46% 3.1 mph NNW5.0 kmh NNW 6.0 mph9.7 kmh 29.77 in1008.1 mb 0.00 in0.0 mm 0.00 in0.0 mm 0.00 in0.0 mm
01:36 AM 68.5°F20.3°C 47.0°F8.3°C 46% 3.8 mph NNW6.1 kmh NNW 6.0 mph9.7 kmh 29.77 in1008.1 mb 0.00 in0.0 mm 0.00 in0.0 mm 0.00 in0.0 mm
01:37 AM 68.5°F20.3°C 47.0°F8.3°C 46% 3.8 mph NNW6.1 kmh NNW 6.0 mph9.7 kmh 29.77 in1008.1 mb 0.00 in0.0 mm 0.00 in0.0 mm 0.00 in0.0 mm
01:38 AM 68.5°F20.3°C 47.0°F8.3°C 46% 3.1 mph NNW5.0 kmh NNW 6.0 mph9.7 kmh 29.76 in1007.8 mb 0.00 in0.0 mm 0.00 in0.0 mm 0.00 in0.0 mm
01:39 AM 68.5°F20.3°C 47.0°F8.3°C 46% 5.4 mph NNW8.7 kmh NNW 8.3 mph13.4 kmh 29.76 in1007.8 mb 0.00 in0.0 mm 0.00 in0.0 mm 0.00 in0.0 mm
01:40 AM 68.5°F20.3°C 47.0°F8.3°C 46% 4.5 mph NNW7.2 kmh NNW 8.3 mph13.4 kmh 29.76 in1007.8 mb 0.00 in0.0 mm 0.00 in0.0 mm 0.00 in0.0 mm
01:41 AM 68.5°F20.3°C 47.0°F8.3°C 46% 3.8 mph NNW6.1 kmh NNW 8.3 mph13.4 kmh 29.76 in1007.8 mb 0.00 in0.0 mm 0.00 in0.0 mm 0.00 in0.0 mm
01:42 AM 68.5°F20.3°C 47.0°F8.3°C 46% 5.4 mph NNW8.7 kmh NNW 8.3 mph13.4 kmh 29.76 in1007.8 mb 0.00 in0.0 mm 0.00 in0.0 mm 0.00 in0.0 mm
01:43 AM 68.5°F20.3°C 47.0°F8.3°C 46% 2.2 mph NNW3.5 kmh NNW 8.3 mph13.4 kmh 29.76 in1007.8 mb 0.00 in0.0 mm 0.00 in0.0 mm 0.00 in0.0 mm
01:44 AM 68.5°F20.3°C 47.0°F8.3°C 46% 2.2 mph NNW3.5 kmh NNW 8.3 mph13.4 kmh 29.76 in1007.8 mb 0.00 in0.0 mm 0.00 in0.0 mm 0.00 in0.0 mm
01:45 AM 68.5°F20.3°C 47.0°F8.3°C 46% 3.8 mph NNW6.1 kmh NNW 8.3 mph13.4 kmh 29.76 in1007.8 mb 0.00 in0.0 mm 0.00 in0.0 mm 0.00 in0.0 mm
01:46 AM 68.5°F20.3°C 47.0°F8.3°C 46% 3.1 mph NNW5.0 kmh NNW 8.3 mph13.4 kmh 29.76 in1007.8 mb 0.00 in0.0 mm 0.00 in0.0 mm 0.00 in0.0 mm
01:47 AM 68.5°F20.3°C 47.0°F8.3°C 46% 3.1 mph N5.0 kmh N 8.3 mph13.4 kmh 29.76 in1007.8 mb 0.00 in0.0 mm 0.00 in0.0 mm 0.00 in0.0 mm
01:48 AM 68.5°F20.3°C 47.0°F8.3°C 46% 4.5 mph N7.2 kmh N 8.3 mph13.4 kmh 29.76 in1007.8 mb 0.00 in0.0 mm 0.00 in0.0 mm 0.00 in0.0 mm
01:49 AM 68.5°F20.3°C 47.0°F8.3°C 46% 5.4 mph N8.7 kmh N 8.3 mph13.4 kmh 29.76 in1007.8 mb 0.00 in0.0 mm 0.00 in0.0 mm 0.00 in0.0 mm
01:50 AM 68.5°F20.3°C 46.4°F8.0°C 45% 4.5 mph N7.2 kmh N 7.6 mph12.2 kmh 29.76 in1007.8 mb 0.00 in0.0 mm 0.00 in0.0 mm 0.00 in0.0 mm
01:51 AM 68.7°F20.4°C 46.5°F8.1°C 45% 3.1 mph N5.0 kmh N 8.3 mph13.4 kmh 29.75 in1007.5 mb 0.00 in0.0 mm 0.00 in0.0 mm 0.00 in0.0 mm
01:52 AM 68.7°F20.4°C 46.5°F8.1°C 45% 3.1 mph N5.0 kmh N 8.3 mph13.4 kmh 29.76 in1007.8 mb 0.00 in0.0 mm 0.00 in0.0 mm 0.00 in0.0 mm
01:53 AM 68.7°F20.4°C 46.5°F8.1°C 45% 3.1 mph N5.0 kmh N 8.3 mph13.4 kmh 29.76 in1007.8 mb 0.00 in0.0 mm 0.00 in0.0 mm 0.00 in0.0 mm
01:54 AM 68.7°F20.4°C 46.5°F8.1°C 45% 4.5 mph N7.2 kmh N 8.3 mph13.4 kmh 29.76 in1007.8 mb 0.00 in0.0 mm 0.00 in0.0 mm 0.00 in0.0 mm
01:55 AM 68.7°F20.4°C 46.5°F8.1°C 45% 3.1 mph NNW5.0 kmh NNW 8.3 mph13.4 kmh 29.75 in1007.5 mb 0.00 in0.0 mm 0.00 in0.0 mm 0.00 in0.0 mm
01:56 AM 68.7°F20.4°C 46.5°F8.1°C 45% 3.8 mph NNW6.1 kmh NNW 8.3 mph13.4 kmh 29.76 in1007.8 mb 0.00 in0.0 mm 0.00 in0.0 mm 0.00 in0.0 mm
01:57 AM 68.5°F20.3°C 46.4°F8.0°C 45% 3.1 mph NNW5.0 kmh NNW 8.3 mph13.4 kmh 29.75 in1007.5 mb 0.00 in0.0 mm 0.00 in0.0 mm 0.00 in0.0 mm
01:58 AM 68.5°F20.3°C 46.4°F8.0°C 45% 3.8 mph NNW6.1 kmh NNW 8.3 mph13.4 kmh 29.76 in1007.8 mb 0.00 in0.0 mm 0.00 in0.0 mm 0.00 in0.0 mm
01:59 AM 68.5°F20.3°C 46.4°F8.0°C 45% 3.1 mph NNW5.0 kmh NNW 8.3 mph13.4 kmh 29.75 in1007.5 mb 0.00 in0.0 mm 0.00 in0.0 mm 0.00 in0.0 mm
02:00 AM 68.5°F20.3°C 46.4°F8.0°C 45% 2.2 mph NNW3.5 kmh NNW 8.3 mph13.4 kmh 29.75 in1007.5 mb 0.00 in0.0 mm 0.00 in0.0 mm 0.00 in0.0 mm
02:01 AM 68.5°F20.3°C 46.4°F8.0°C 45% 4.5 mph NNW7.2 kmh NNW 6.0 mph9.7 kmh 29.76 in1007.8 mb 0.00 in0.0 mm 0.00 in0.0 mm 0.00 in0.0 mm
02:02 AM 68.5°F20.3°C 46.4°F8.0°C 45% 3.8 mph NNW6.1 kmh NNW 6.0 mph9.7 kmh 29.76 in1007.8 mb 0.00 in0.0 mm 0.00 in0.0 mm 0.00 in0.0 mm
02:03 AM 68.5°F20.3°C 46.4°F8.0°C 45% 4.5 mph NNW7.2 kmh NNW 6.0 mph9.7 kmh 29.76 in1007.8 mb 0.00 in0.0 mm 0.00 in0.0 mm 0.00 in0.0 mm
02:04 AM 68.5°F20.3°C 46.4°F8.0°C 45% 3.1 mph N5.0 kmh N 6.0 mph9.7 kmh 29.76 in1007.8 mb 0.00 in0.0 mm 0.00 in0.0 mm 0.00 in0.0 mm
02:05 AM 68.5°F20.3°C 46.4°F8.0°C 45% 2.2 mph N3.5 kmh N 6.0 mph9.7 kmh 29.75 in1007.5 mb 0.00 in0.0 mm 0.00 in0.0 mm 0.00 in0.0 mm
02:06 AM 68.5°F20.3°C 46.4°F8.0°C 45% 1.6 mph N2.6 kmh N 6.0 mph9.7 kmh 29.76 in1007.8 mb 0.00 in0.0 mm 0.00 in0.0 mm 0.00 in0.0 mm
02:07 AM 68.5°F20.3°C 46.4°F8.0°C 45% 3.1 mph N5.0 kmh N 6.0 mph9.7 kmh 29.76 in1007.8 mb 0.00 in0.0 mm 0.00 in0.0 mm 0.00 in0.0 mm
02:08 AM 68.4°F20.2°C 46.2°F7.9°C 45% 2.2 mph N3.5 kmh N 6.0 mph9.7 kmh 29.76 in1007.8 mb 0.00 in0.0 mm 0.00 in0.0 mm 0.00 in0.0 mm
02:09 AM 68.4°F20.2°C 46.2°F7.9°C 45% 1.6 mph NNW2.6 kmh NNW 6.0 mph9.7 kmh 29.75 in1007.5 mb 0.00 in0.0 mm 0.00 in0.0 mm 0.00 in0.0 mm
02:10 AM 68.4°F20.2°C 46.2°F7.9°C 45% Calm Calm 6.0 mph9.7 kmh 29.76 in1007.8 mb 0.00 in0.0 mm 0.00 in0.0 mm 0.00 in0.0 mm
02:11 AM 68.4°F20.2°C 46.2°F7.9°C 45% 3.8 mph NNW6.1 kmh NNW 6.0 mph9.7 kmh 29.76 in1007.8 mb 0.00 in0.0 mm 0.00 in0.0 mm 0.00 in0.0 mm
02:12 AM 68.4°F20.2°C 46.2°F7.9°C 45% 2.2 mph NNW3.5 kmh NNW 6.0 mph9.7 kmh 29.76 in1007.8 mb 0.00 in0.0 mm 0.00 in0.0 mm 0.00 in0.0 mm
02:13 AM 68.4°F20.2°C 46.2°F7.9°C 45% 3.1 mph NNW5.0 kmh NNW 6.0 mph9.7 kmh 29.76 in1007.8 mb 0.00 in0.0 mm 0.00 in0.0 mm 0.00 in0.0 mm
02:14 AM 68.2°F20.1°C 46.1°F7.8°C 45% 3.1 mph NW5.0 kmh NW 5.4 mph8.7 kmh 29.76 in1007.8 mb 0.00 in0.0 mm 0.00 in0.0 mm 0.00 in0.0 mm
02:15 AM 68.2°F20.1°C 46.1°F7.8°C 45% 2.2 mph NW3.5 kmh NW 5.4 mph8.7 kmh 29.76 in1007.8 mb 0.00 in0.0 mm 0.00 in0.0 mm 0.00 in0.0 mm
02:16 AM 68.2°F20.1°C 46.1°F7.8°C 45% 2.2 mph NW3.5 kmh NW 5.4 mph8.7 kmh 29.76 in1007.8 mb 0.00 in0.0 mm 0.00 in0.0 mm 0.00 in0.0 mm
02:17 AM 68.2°F20.1°C 46.1°F7.8°C 45% 2.2 mph NW3.5 kmh NW 5.4 mph8.7 kmh 29.76 in1007.8 mb 0.00 in0.0 mm 0.00 in0.0 mm 0.00 in0.0 mm
02:18 AM 68.0°F20.0°C 45.9°F7.7°C 45% 4.5 mph NW7.2 kmh NW 6.9 mph11.1 kmh 29.76 in1007.8 mb 0.00 in0.0 mm 0.00 in0.0 mm 0.00 in0.0 mm
02:19 AM 67.8°F19.9°C 46.9°F8.3°C 47% 4.5 mph NW7.2 kmh NW 7.6 mph12.2 kmh 29.75 in1007.5 mb 0.00 in0.0 mm 0.00 in0.0 mm 0.00 in0.0 mm
02:20 AM 67.8°F19.9°C 47.4°F8.6°C 48% 3.1 mph NW5.0 kmh NW 7.6 mph12.2 kmh 29.76 in1007.8 mb 0.00 in0.0 mm 0.00 in0.0 mm 0.00 in0.0 mm
02:21 AM 67.6°F19.8°C 47.3°F8.5°C 48% 3.8 mph NW6.1 kmh NW 7.6 mph12.2 kmh 29.76 in1007.8 mb 0.00 in0.0 mm 0.00 in0.0 mm 0.00 in0.0 mm
02:22 AM 67.3°F19.6°C 46.9°F8.3°C 48% 2.2 mph NW3.5 kmh NW 7.6 mph12.2 kmh 29.76 in1007.8 mb 0.00 in0.0 mm 0.00 in0.0 mm 0.00 in0.0 mm
02:23 AM 67.3°F19.6°C 47.5°F8.6°C 49% 3.1 mph NW5.0 kmh NW 7.6 mph12.2 kmh 29.76 in1007.8 mb 0.00 in0.0 mm 0.00 in0.0 mm 0.00 in0.0 mm
02:24 AM 66.9°F19.4°C 47.2°F8.4°C 49% 3.8 mph NW6.1 kmh NW 7.6 mph12.2 kmh 29.75 in1007.5 mb 0.00 in0.0 mm 0.00 in0.0 mm 0.00 in0.0 mm
02:25 AM 66.9°F19.4°C 47.7°F8.7°C 50% 3.8 mph NW6.1 kmh NW 7.6 mph12.2 kmh 29.76 in1007.8 mb 0.00 in0.0 mm 0.00 in0.0 mm 0.00 in0.0 mm
02:26 AM 66.7°F19.3°C 47.5°F8.6°C 50% 4.5 mph NW7.2 kmh NW 7.6 mph12.2 kmh 29.76 in1007.8 mb 0.00 in0.0 mm 0.00 in0.0 mm 0.00 in0.0 mm
02:27 AM 66.6°F19.2°C 47.4°F8.6°C 50% 3.1 mph NW5.0 kmh NW 7.6 mph12.2 kmh 29.76 in1007.8 mb 0.00 in0.0 mm 0.00 in0.0 mm 0.00 in0.0 mm
02:28 AM 66.6°F19.2°C 47.4°F8.6°C 50% 5.4 mph NW8.7 kmh NW 7.6 mph12.2 kmh 29.76 in1007.8 mb 0.00 in0.0 mm 0.00 in0.0 mm 0.00 in0.0 mm
02:29 AM 66.4°F19.1°C 47.7°F8.7°C 51% 2.2 mph NW3.5 kmh NW 7.6 mph12.2 kmh 29.76 in1007.8 mb 0.00 in0.0 mm 0.00 in0.0 mm 0.00 in0.0 mm
02:30 AM 66.4°F19.1°C 47.7°F8.7°C 51% 3.1 mph NW5.0 kmh NW 6.9 mph11.1 kmh 29.76 in1007.8 mb 0.00 in0.0 mm 0.00 in0.0 mm 0.00 in0.0 mm
02:31 AM 66.4°F19.1°C 47.7°F8.7°C 51% 3.8 mph NW6.1 kmh NW 6.9 mph11.1 kmh 29.76 in1007.8 mb 0.00 in0.0 mm 0.00 in0.0 mm 0.00 in0.0 mm
02:32 AM 66.2°F19.0°C 47.6°F8.7°C 51% 6.9 mph NW11.1 kmh NW 8.3 mph13.4 kmh 29.76 in1007.8 mb 0.00 in0.0 mm 0.00 in0.0 mm 0.00 in0.0 mm
02:33 AM 66.2°F19.0°C 47.6°F8.7°C 51% 3.8 mph NW6.1 kmh NW 8.3 mph13.4 kmh 29.76 in1007.8 mb 0.00 in0.0 mm 0.00 in0.0 mm 0.00 in0.0 mm
02:34 AM 66.2°F19.0°C 47.6°F8.7°C 51% 4.5 mph NW7.2 kmh NW 9.8 mph15.8 kmh 29.75 in1007.5 mb 0.00 in0.0 mm 0.00 in0.0 mm 0.00 in0.0 mm
02:35 AM 66.2°F19.0°C 47.6°F8.7°C 51% 3.8 mph NW6.1 kmh NW 9.8 mph15.8 kmh 29.76 in1007.8 mb 0.00 in0.0 mm 0.00 in0.0 mm 0.00 in0.0 mm
02:36 AM 66.2°F19.0°C 47.6°F8.7°C 51% 3.1 mph NW5.0 kmh NW 9.8 mph15.8 kmh 29.75 in1007.5 mb 0.00 in0.0 mm 0.00 in0.0 mm 0.00 in0.0 mm
02:37 AM 66.0°F18.9°C 47.9°F8.8°C 52% 2.2 mph NW3.5 kmh NW 9.8 mph15.8 kmh 29.76 in1007.8 mb 0.00 in0.0 mm 0.00 in0.0 mm 0.00 in0.0 mm
02:38 AM 66.0°F18.9°C 47.9°F8.8°C 52% 3.1 mph NNW5.0 kmh NNW 9.8 mph15.8 kmh 29.76 in1007.8 mb 0.00 in0.0 mm 0.00 in0.0 mm 0.00 in0.0 mm
02:39 AM 65.8°F18.8°C 47.7°F8.7°C 52% 2.2 mph NW3.5 kmh NW 9.8 mph15.8 kmh 29.75 in1007.5 mb 0.00 in0.0 mm 0.00 in0.0 mm 0.00 in0.0 mm
02:40 AM 65.8°F18.8°C 47.7°F8.7°C 52% 3.8 mph NW6.1 kmh NW 9.8 mph15.8 kmh 29.75 in1007.5 mb 0.00 in0.0 mm 0.00 in0.0 mm 0.00 in0.0 mm
02:41 AM 65.8°F18.8°C 47.7°F8.7°C 52% 3.1 mph NNW5.0 kmh NNW 9.8 mph15.8 kmh 29.76 in1007.8 mb 0.00 in0.0 mm 0.00 in0.0 mm 0.00 in0.0 mm
02:42 AM 65.8°F18.8°C 47.7°F8.7°C 52% 3.1 mph NW5.0 kmh NW 9.8 mph15.8 kmh 29.76 in1007.8 mb 0.00 in0.0 mm 0.00 in0.0 mm 0.00 in0.0 mm
02:43 AM 65.7°F18.7°C 47.6°F8.7°C 52% 2.2 mph NW3.5 kmh NW 9.8 mph15.8 kmh 29.75 in1007.5 mb 0.00 in0.0 mm 0.00 in0.0 mm 0.00 in0.0 mm
02:44 AM 65.7°F18.7°C 47.6°F8.7°C 52% 2.2 mph NW3.5 kmh NW 6.9 mph11.1 kmh 29.76 in1007.8 mb 0.00 in0.0 mm 0.00 in0.0 mm 0.00 in0.0 mm
02:45 AM 65.7°F18.7°C 47.6°F8.7°C 52% 3.8 mph NW6.1 kmh NW 5.4 mph8.7 kmh 29.75 in1007.5 mb 0.00 in0.0 mm 0.00 in0.0 mm 0.00 in0.0 mm
02:46 AM 65.7°F18.7°C 47.6°F8.7°C 52% 3.1 mph NW5.0 kmh NW 5.4 mph8.7 kmh 29.75 in1007.5 mb 0.00 in0.0 mm 0.00 in0.0 mm 0.00 in0.0 mm
02:47 AM 65.5°F18.6°C 47.4°F8.6°C 52% 2.2 mph NW3.5 kmh NW 5.4 mph8.7 kmh 29.75 in1007.5 mb 0.00 in0.0 mm 0.00 in0.0 mm 0.00 in0.0 mm
02:48 AM 65.5°F18.6°C 47.4°F8.6°C 52% 3.1 mph NW5.0 kmh NW 6.0 mph9.7 kmh 29.76 in1007.8 mb 0.00 in0.0 mm 0.00 in0.0 mm 0.00 in0.0 mm
02:49 AM 65.5°F18.6°C 47.4°F8.6°C 52% 2.2 mph NW3.5 kmh NW 6.0 mph9.7 kmh 29.75 in1007.5 mb 0.00 in0.0 mm 0.00 in0.0 mm 0.00 in0.0 mm
02:50 AM 65.5°F18.6°C 47.4°F8.6°C 52% 2.2 mph NW3.5 kmh NW 6.0 mph9.7 kmh 29.75 in1007.5 mb 0.00 in0.0 mm 0.00 in0.0 mm 0.00 in0.0 mm
02:51 AM 65.5°F18.6°C 47.4°F8.6°C 52% 3.1 mph NW5.0 kmh NW 6.0 mph9.7 kmh 29.75 in1007.5 mb 0.00 in0.0 mm 0.00 in0.0 mm 0.00 in0.0 mm
02:52 AM 65.5°F18.6°C 47.4°F8.6°C 52% 3.8 mph NW6.1 kmh NW 6.0 mph9.7 kmh 29.75 in1007.5 mb 0.00 in0.0 mm 0.00 in0.0 mm 0.00 in0.0 mm
02:53 AM 65.5°F18.6°C 47.4°F8.6°C 52% 1.6 mph NW2.6 kmh NW 6.0 mph9.7 kmh 29.75 in1007.5 mb 0.00 in0.0 mm 0.00 in0.0 mm 0.00 in0.0 mm
02:54 AM 65.5°F18.6°C 47.4°F8.6°C 52% 2.2 mph NW3.5 kmh NW 6.0 mph9.7 kmh 29.75 in1007.5 mb 0.00 in0.0 mm 0.00 in0.0 mm 0.00 in0.0 mm
02:55 AM 65.5°F18.6°C 47.4°F8.6°C 52% 5.4 mph NW8.7 kmh NW 7.6 mph12.2 kmh 29.75 in1007.5 mb 0.00 in0.0 mm 0.00 in0.0 mm 0.00 in0.0 mm
02:56 AM 65.5°F18.6°C 47.4°F8.6°C 52% 3.8 mph NW6.1 kmh NW 7.6 mph12.2 kmh 29.75 in1007.5 mb 0.00 in0.0 mm 0.00 in0.0 mm 0.00 in0.0 mm
02:57 AM 65.5°F18.6°C 46.9°F8.3°C 51% 3.8 mph NW6.1 kmh NW 7.6 mph12.2 kmh 29.75 in1007.5 mb 0.00 in0.0 mm 0.00 in0.0 mm 0.00 in0.0 mm
02:58 AM 65.5°F18.6°C 46.9°F8.3°C 51% 3.8 mph NW6.1 kmh NW 7.6 mph12.2 kmh 29.76 in1007.8 mb 0.00 in0.0 mm 0.00 in0.0 mm 0.00 in0.0 mm
02:59 AM 65.5°F18.6°C 46.9°F8.3°C 51% 3.8 mph NW6.1 kmh NW 7.6 mph12.2 kmh 29.75 in1007.5 mb 0.00 in0.0 mm 0.00 in0.0 mm 0.00 in0.0 mm
03:00 AM 65.5°F18.6°C 46.9°F8.3°C 51% 2.2 mph NW3.5 kmh NW 7.6 mph12.2 kmh 29.75 in1007.5 mb 0.00 in0.0 mm 0.00 in0.0 mm 0.00 in0.0 mm
03:01 AM 65.5°F18.6°C 46.9°F8.3°C 51% 3.1 mph NW5.0 kmh NW 7.6 mph12.2 kmh 29.75 in1007.5 mb 0.00 in0.0 mm 0.00 in0.0 mm 0.00 in0.0 mm
03:02 AM 65.5°F18.6°C 46.9°F8.3°C 51% 3.1 mph NW5.0 kmh NW 7.6 mph12.2 kmh 29.75 in1007.5 mb 0.00 in0.0 mm 0.00 in0.0 mm 0.00 in0.0 mm
03:03 AM 65.5°F18.6°C 46.9°F8.3°C 51% 2.2 mph NW3.5 kmh NW 7.6 mph12.2 kmh 29.76 in1007.8 mb 0.00 in0.0 mm 0.00 in0.0 mm 0.00 in0.0 mm
03:04 AM 65.5°F18.6°C 46.9°F8.3°C 51% 3.1 mph NW5.0 kmh NW 7.6 mph12.2 kmh 29.76 in1007.8 mb 0.00 in0.0 mm 0.00 in0.0 mm 0.00 in0.0 mm
03:05 AM 65.5°F18.6°C 46.9°F8.3°C 51% 3.1 mph NW5.0 kmh NW 7.6 mph12.2 kmh 29.75 in1007.5 mb 0.00 in0.0 mm 0.00 in0.0 mm 0.00 in0.0 mm
03:06 AM 65.5°F18.6°C 46.9°F8.3°C 51% 1.6 mph NW2.6 kmh NW 7.6 mph12.2 kmh 29.76 in1007.8 mb 0.00 in0.0 mm 0.00 in0.0 mm 0.00 in0.0 mm
03:07 AM 65.5°F18.6°C 46.9°F8.3°C 51% 1.6 mph NW2.6 kmh NW 7.6 mph12.2 kmh 29.75 in1007.5 mb 0.00 in0.0 mm 0.00 in0.0 mm 0.00 in0.0 mm
03:08 AM 65.5°F18.6°C 46.9°F8.3°C 51% 3.8 mph NW6.1 kmh NW 6.0 mph9.7 kmh 29.75 in1007.5 mb 0.00 in0.0 mm 0.00 in0.0 mm 0.00 in0.0 mm
03:09 AM 65.5°F18.6°C 46.9°F8.3°C 51% 3.8 mph NW6.1 kmh NW 6.0 mph9.7 kmh 29.75 in1007.5 mb 0.00 in0.0 mm 0.00 in0.0 mm 0.00 in0.0 mm
03:10 AM 65.5°F18.6°C 46.9°F8.3°C 51% 2.2 mph NW3.5 kmh NW 6.0 mph9.7 kmh 29.76 in1007.8 mb 0.00 in0.0 mm 0.00 in0.0 mm 0.00 in0.0 mm
03:11 AM 65.5°F18.6°C 46.9°F8.3°C 51% 3.1 mph NW5.0 kmh NW 6.0 mph9.7 kmh 29.75 in1007.5 mb 0.00 in0.0 mm 0.00 in0.0 mm 0.00 in0.0 mm
03:12 AM 65.5°F18.6°C 46.9°F8.3°C 51% 1.6 mph NW2.6 kmh NW 6.0 mph9.7 kmh 29.75 in1007.5 mb 0.00 in0.0 mm 0.00 in0.0 mm 0.00 in0.0 mm
03:13 AM 65.5°F18.6°C 46.9°F8.3°C 51% 2.2 mph NW3.5 kmh NW 6.0 mph9.7 kmh 29.75 in1007.5 mb 0.00 in0.0 mm 0.00 in0.0 mm 0.00 in0.0 mm
03:14 AM 65.5°F18.6°C 46.9°F8.3°C 51% 3.8 mph NW6.1 kmh NW 6.9 mph11.1 kmh 29.76 in1007.8 mb 0.00 in0.0 mm 0.00 in0.0 mm 0.00 in0.0 mm
03:15 AM 65.5°F18.6°C 46.9°F8.3°C 51% 6.9 mph NW11.1 kmh NW 7.6 mph12.2 kmh 29.75 in1007.5 mb 0.00 in0.0 mm 0.00 in0.0 mm 0.00 in0.0 mm
03:16 AM 65.5°F18.6°C 46.4°F8.0°C 50% 3.1 mph NW5.0 kmh NW 7.6 mph12.2 kmh 29.75 in1007.5 mb 0.00 in0.0 mm 0.00 in0.0 mm 0.00 in0.0 mm
03:17 AM 65.5°F18.6°C 46.4°F8.0°C 50% 3.8 mph NW6.1 kmh NW 7.6 mph12.2 kmh 29.76 in1007.8 mb 0.00 in0.0 mm 0.00 in0.0 mm 0.00 in0.0 mm
03:18 AM 65.5°F18.6°C 46.4°F8.0°C 50% 3.8 mph NW6.1 kmh NW 7.6 mph12.2 kmh 29.76 in1007.8 mb 0.00 in0.0 mm 0.00 in0.0 mm 0.00 in0.0 mm
03:19 AM 65.7°F18.7°C 46.5°F8.1°C 50% 3.8 mph NW6.1 kmh NW 7.6 mph12.2 kmh 29.76 in1007.8 mb 0.00 in0.0 mm 0.00 in0.0 mm 0.00 in0.0 mm
03:20 AM 65.7°F18.7°C 46.5°F8.1°C 50% 4.5 mph NW7.2 kmh NW 7.6 mph12.2 kmh 29.75 in1007.5 mb 0.00 in0.0 mm 0.00 in0.0 mm 0.00 in0.0 mm
03:21 AM 65.7°F18.7°C 46.5°F8.1°C 50% 2.2 mph NW3.5 kmh NW 7.6 mph12.2 kmh 29.76 in1007.8 mb 0.00 in0.0 mm 0.00 in0.0 mm 0.00 in0.0 mm
03:22 AM 65.5°F18.6°C 46.4°F8.0°C 50% 6.0 mph NW9.7 kmh NW 8.3 mph13.4 kmh 29.75 in1007.5 mb 0.00 in0.0 mm 0.00 in0.0 mm 0.00 in0.0 mm
03:23 AM 65.5°F18.6°C 46.4°F8.0°C 50% 4.5 mph NW7.2 kmh NW 8.3 mph13.4 kmh 29.75 in1007.5 mb 0.00 in0.0 mm 0.00 in0.0 mm 0.00 in0.0 mm
03:24 AM 65.5°F18.6°C 46.4°F8.0°C 50% 3.8 mph NW6.1 kmh NW 8.3 mph13.4 kmh 29.76 in1007.8 mb 0.00 in0.0 mm 0.00 in0.0 mm 0.00 in0.0 mm
03:25 AM 65.5°F18.6°C 46.4°F8.0°C 50% 7.6 mph NW12.2 kmh NW 9.2 mph14.8 kmh 29.75 in1007.5 mb 0.00 in0.0 mm 0.00 in0.0 mm 0.00 in0.0 mm
03:26 AM 65.5°F18.6°C 46.4°F8.0°C 50% 3.8 mph NW6.1 kmh NW 9.2 mph14.8 kmh 29.76 in1007.8 mb 0.00 in0.0 mm 0.00 in0.0 mm 0.00 in0.0 mm
03:27 AM 65.5°F18.6°C 46.4°F8.0°C 50% 3.8 mph NW6.1 kmh NW 9.2 mph14.8 kmh 29.76 in1007.8 mb 0.00 in0.0 mm 0.00 in0.0 mm 0.00 in0.0 mm
03:28 AM 65.5°F18.6°C 46.4°F8.0°C 50% 3.8 mph NW6.1 kmh NW 9.2 mph14.8 kmh 29.75 in1007.5 mb 0.00 in0.0 mm 0.00 in0.0 mm 0.00 in0.0 mm
03:29 AM 65.5°F18.6°C 46.4°F8.0°C 50% 3.8 mph NW6.1 kmh NW 9.2 mph14.8 kmh 29.76 in1007.8 mb 0.00 in0.0 mm 0.00 in0.0 mm 0.00 in0.0 mm
03:30 AM 65.5°F18.6°C 46.4°F8.0°C 50% 2.2 mph NW3.5 kmh NW 9.2 mph14.8 kmh 29.75 in1007.5 mb 0.00 in0.0 mm 0.00 in0.0 mm 0.00 in0.0 mm
03:31 AM 65.3°F18.5°C 46.2°F7.9°C 50% 2.2 mph NW3.5 kmh NW 9.2 mph14.8 kmh 29.76 in1007.8 mb 0.00 in0.0 mm 0.00 in0.0 mm 0.00 in0.0 mm
03:32 AM 65.3°F18.5°C 46.2°F7.9°C 50% 2.2 mph NW3.5 kmh NW 9.2 mph14.8 kmh 29.76 in1007.8 mb 0.00 in0.0 mm 0.00 in0.0 mm 0.00 in0.0 mm
03:33 AM 65.3°F18.5°C 46.2°F7.9°C 50% 3.1 mph NW5.0 kmh NW 9.2 mph14.8 kmh 29.76 in1007.8 mb 0.00 in0.0 mm 0.00 in0.0 mm 0.00 in0.0 mm
03:34 AM 65.3°F18.5°C 46.2°F7.9°C 50% 3.8 mph NW6.1 kmh NW 9.2 mph14.8 kmh 29.76 in1007.8 mb 0.00 in0.0 mm 0.00 in0.0 mm 0.00 in0.0 mm
03:35 AM 65.3°F18.5°C 46.2°F7.9°C 50% 2.2 mph NW3.5 kmh NW 8.3 mph13.4 kmh 29.76 in1007.8 mb 0.00 in0.0 mm 0.00 in0.0 mm 0.00 in0.0 mm
03:36 AM 65.3°F18.5°C 46.7°F8.2°C 51% 5.4 mph NW8.7 kmh NW 8.3 mph13.4 kmh 29.75 in1007.5 mb 0.00 in0.0 mm 0.00 in0.0 mm 0.00 in0.0 mm
03:37 AM 65.3°F18.5°C 46.7°F8.2°C 51% 1.6 mph NW2.6 kmh NW 8.3 mph13.4 kmh 29.76 in1007.8 mb 0.00 in0.0 mm 0.00 in0.0 mm 0.00 in0.0 mm
03:38 AM 65.1°F18.4°C 46.6°F8.1°C 51% 0.7 mph NW1.1 kmh NW 8.3 mph13.4 kmh 29.76 in1007.8 mb 0.00 in0.0 mm 0.00 in0.0 mm 0.00 in0.0 mm
03:39 AM 65.1°F18.4°C 46.6°F8.1°C 51% 3.1 mph NW5.0 kmh NW 8.3 mph13.4 kmh 29.76 in1007.8 mb 0.00 in0.0 mm 0.00 in0.0 mm 0.00 in0.0 mm
03:40 AM 65.1°F18.4°C 46.6°F8.1°C 51% 1.6 mph NW2.6 kmh NW 8.3 mph13.4 kmh 29.75 in1007.5 mb 0.00 in0.0 mm 0.00 in0.0 mm 0.00 in0.0 mm
03:41 AM 65.1°F18.4°C 47.1°F8.4°C 52% 2.2 mph NW3.5 kmh NW 6.9 mph11.1 kmh 29.76 in1007.8 mb 0.00 in0.0 mm 0.00 in0.0 mm 0.00 in0.0 mm
03:42 AM 65.1°F18.4°C 47.1°F8.4°C 52% 3.8 mph NW6.1 kmh NW 6.9 mph11.1 kmh 29.76 in1007.8 mb 0.00 in0.0 mm 0.00 in0.0 mm 0.00 in0.0 mm
03:43 AM 64.9°F18.3°C 46.9°F8.3°C 52% 2.2 mph NW3.5 kmh NW 6.9 mph11.1 kmh 29.76 in1007.8 mb 0.00 in0.0 mm 0.00 in0.0 mm 0.00 in0.0 mm
03:44 AM 64.9°F18.3°C 46.9°F8.3°C 52% 2.2 mph NW3.5 kmh NW 6.9 mph11.1 kmh 29.76 in1007.8 mb 0.00 in0.0 mm 0.00 in0.0 mm 0.00 in0.0 mm
03:45 AM 64.9°F18.3°C 46.9°F8.3°C 52% 3.1 mph NW5.0 kmh NW 6.9 mph11.1 kmh 29.76 in1007.8 mb 0.00 in0.0 mm 0.00 in0.0 mm 0.00 in0.0 mm
03:46 AM 64.9°F18.3°C 46.9°F8.3°C 52% 2.2 mph NW3.5 kmh NW 6.9 mph11.1 kmh 29.75 in1007.5 mb 0.00 in0.0 mm 0.00 in0.0 mm 0.00 in0.0 mm
03:47 AM 64.9°F18.3°C 47.4°F8.6°C 53% 3.1 mph NW5.0 kmh NW 5.4 mph8.7 kmh 29.76 in1007.8 mb 0.00 in0.0 mm 0.00 in0.0 mm 0.00 in0.0 mm
03:48 AM 64.9°F18.3°C 47.4°F8.6°C 53% 3.8 mph NW6.1 kmh NW 5.4 mph8.7 kmh 29.76 in1007.8 mb 0.00 in0.0 mm 0.00 in0.0 mm 0.00 in0.0 mm
03:49 AM 64.9°F18.3°C 47.4°F8.6°C 53% 3.1 mph NW5.0 kmh NW 6.0 mph9.7 kmh 29.75 in1007.5 mb 0.00 in0.0 mm 0.00 in0.0 mm 0.00 in0.0 mm
03:50 AM 64.9°F18.3°C 47.4°F8.6°C 53% 3.8 mph NW6.1 kmh NW 6.0 mph9.7 kmh 29.75 in1007.5 mb 0.00 in0.0 mm 0.00 in0.0 mm 0.00 in0.0 mm
03:51 AM 64.8°F18.2°C 47.2°F8.4°C 53% 2.2 mph NW3.5 kmh NW 6.0 mph9.7 kmh 29.76 in1007.8 mb 0.00 in0.0 mm 0.00 in0.0 mm 0.00 in0.0 mm
03:52 AM 64.8°F18.2°C 47.2°F8.4°C 53% 3.1 mph NW5.0 kmh NW 6.0 mph9.7 kmh 29.76 in1007.8 mb 0.00 in0.0 mm 0.00 in0.0 mm 0.00 in0.0 mm
03:53 AM 64.8°F18.2°C 47.2°F8.4°C 53% 3.8 mph NNW6.1 kmh NNW 6.0 mph9.7 kmh 29.76 in1007.8 mb 0.00 in0.0 mm 0.00 in0.0 mm 0.00 in0.0 mm
03:54 AM 64.8°F18.2°C 47.2°F8.4°C 53% 3.1 mph NW5.0 kmh NW 6.0 mph9.7 kmh 29.75 in1007.5 mb 0.00 in0.0 mm 0.00 in0.0 mm 0.00 in0.0 mm
03:55 AM 64.8°F18.2°C 47.2°F8.4°C 53% 3.8 mph NNW6.1 kmh NNW 6.0 mph9.7 kmh 29.76 in1007.8 mb 0.00 in0.0 mm 0.00 in0.0 mm 0.00 in0.0 mm
03:56 AM 64.8°F18.2°C 47.2°F8.4°C 53% 5.4 mph NNW8.7 kmh NNW 7.6 mph12.2 kmh 29.76 in1007.8 mb 0.00 in0.0 mm 0.00 in0.0 mm 0.00 in0.0 mm
03:57 AM 64.8°F18.2°C 47.2°F8.4°C 53% 3.1 mph NNW5.0 kmh NNW 7.6 mph12.2 kmh 29.76 in1007.8 mb 0.00 in0.0 mm 0.00 in0.0 mm 0.00 in0.0 mm
03:58 AM 64.8°F18.2°C 47.7°F8.7°C 54% 3.8 mph NNW6.1 kmh NNW 7.6 mph12.2 kmh 29.77 in1008.1 mb 0.00 in0.0 mm 0.00 in0.0 mm 0.00 in0.0 mm
03:59 AM 64.8°F18.2°C 47.7°F8.7°C 54% 3.8 mph NW6.1 kmh NW 7.6 mph12.2 kmh 29.76 in1007.8 mb 0.00 in0.0 mm 0.00 in0.0 mm 0.00 in0.0 mm
04:00 AM 64.8°F18.2°C 47.7°F8.7°C 54% 6.0 mph NW9.7 kmh NW 8.3 mph13.4 kmh 29.76 in1007.8 mb 0.00 in0.0 mm 0.00 in0.0 mm 0.00 in0.0 mm
04:01 AM 64.8°F18.2°C 47.7°F8.7°C 54% 6.0 mph NW9.7 kmh NW 11.4 mph18.3 kmh 29.76 in1007.8 mb 0.00 in0.0 mm 0.00 in0.0 mm 0.00 in0.0 mm
04:02 AM 64.8°F18.2°C 47.7°F8.7°C 54% 3.8 mph NW6.1 kmh NW 11.4 mph18.3 kmh 29.76 in1007.8 mb 0.00 in0.0 mm 0.00 in0.0 mm 0.00 in0.0 mm
04:03 AM 64.8°F18.2°C 47.7°F8.7°C 54% 5.4 mph NW8.7 kmh NW 11.4 mph18.3 kmh 29.76 in1007.8 mb 0.00 in0.0 mm 0.00 in0.0 mm 0.00 in0.0 mm
04:04 AM 64.8°F18.2°C 47.7°F8.7°C 54% 2.2 mph NW3.5 kmh NW 11.4 mph18.3 kmh 29.76 in1007.8 mb 0.00 in0.0 mm 0.00 in0.0 mm 0.00 in0.0 mm
04:05 AM 64.8°F18.2°C 47.7°F8.7°C 54% 3.8 mph NW6.1 kmh NW 11.4 mph18.3 kmh 29.76 in1007.8 mb 0.00 in0.0 mm 0.00 in0.0 mm 0.00 in0.0 mm
04:06 AM 64.8°F18.2°C 47.7°F8.7°C 54% 3.8 mph NW6.1 kmh NW 11.4 mph18.3 kmh 29.76 in1007.8 mb 0.00 in0.0 mm 0.00 in0.0 mm 0.00 in0.0 mm
04:07 AM 64.8°F18.2°C 47.7°F8.7°C 54% 5.4 mph NW8.7 kmh NW 11.4 mph18.3 kmh 29.76 in1007.8 mb 0.00 in0.0 mm 0.00 in0.0 mm 0.00 in0.0 mm
04:08 AM 64.6°F18.1°C 47.6°F8.7°C 54% 3.1 mph NW5.0 kmh NW 11.4 mph18.3 kmh 29.76 in1007.8 mb 0.00 in0.0 mm 0.00 in0.0 mm 0.00 in0.0 mm
04:09 AM 64.8°F18.2°C 48.2°F9.0°C 55% 2.2 mph NW3.5 kmh NW 11.4 mph18.3 kmh 29.76 in1007.8 mb 0.00 in0.0 mm 0.00 in0.0 mm 0.00 in0.0 mm
04:10 AM 64.6°F18.1°C 47.6°F8.7°C 54% 3.8 mph NW6.1 kmh NW 11.4 mph18.3 kmh 29.76 in1007.8 mb 0.00 in0.0 mm 0.00 in0.0 mm 0.00 in0.0 mm
04:11 AM 64.6°F18.1°C 48.1°F8.9°C 55% 4.5 mph NW7.2 kmh NW 8.3 mph13.4 kmh 29.77 in1008.1 mb 0.00 in0.0 mm 0.00 in0.0 mm 0.00 in0.0 mm
04:12 AM 64.6°F18.1°C 48.1°F8.9°C 55% 4.5 mph NW7.2 kmh NW 9.8 mph15.8 kmh 29.76 in1007.8 mb 0.00 in0.0 mm 0.00 in0.0 mm 0.00 in0.0 mm
04:13 AM 64.6°F18.1°C 48.1°F8.9°C 55% 5.4 mph NW8.7 kmh NW 9.8 mph15.8 kmh 29.76 in1007.8 mb 0.00 in0.0 mm 0.00 in0.0 mm 0.00 in0.0 mm
04:14 AM 64.6°F18.1°C 48.1°F8.9°C 55% 3.8 mph NW6.1 kmh NW 9.8 mph15.8 kmh 29.76 in1007.8 mb 0.00 in0.0 mm 0.00 in0.0 mm 0.00 in0.0 mm
04:15 AM 64.6°F18.1°C 48.1°F8.9°C 55% 5.4 mph NW8.7 kmh NW 9.8 mph15.8 kmh 29.76 in1007.8 mb 0.00 in0.0 mm 0.00 in0.0 mm 0.00 in0.0 mm
04:16 AM 64.6°F18.1°C 48.1°F8.9°C 55% 3.8 mph NW6.1 kmh NW 9.8 mph15.8 kmh 29.77 in1008.1 mb 0.00 in0.0 mm 0.00 in0.0 mm 0.00 in0.0 mm
04:17 AM 64.6°F18.1°C 48.1°F8.9°C 55% 3.8 mph NW6.1 kmh NW 9.8 mph15.8 kmh 29.76 in1007.8 mb 0.00 in0.0 mm 0.00 in0.0 mm 0.00 in0.0 mm
04:18 AM 64.8°F18.2°C 48.2°F9.0°C 55% 6.0 mph NW9.7 kmh NW 9.8 mph15.8 kmh 29.76 in1007.8 mb 0.00 in0.0 mm 0.00 in0.0 mm 0.00 in0.0 mm
04:19 AM 64.6°F18.1°C 48.1°F8.9°C 55% 5.4 mph NW8.7 kmh NW 9.8 mph15.8 kmh 29.76 in1007.8 mb 0.00 in0.0 mm 0.00 in0.0 mm 0.00 in0.0 mm
04:20 AM 64.6°F18.1°C 48.1°F8.9°C 55% 2.2 mph NW3.5 kmh NW 9.8 mph15.8 kmh 29.76 in1007.8 mb 0.00 in0.0 mm 0.00 in0.0 mm 0.00 in0.0 mm
04:21 AM 64.6°F18.1°C 48.1°F8.9°C 55% 1.6 mph NW2.6 kmh NW 9.8 mph15.8 kmh 29.76 in1007.8 mb 0.00 in0.0 mm 0.00 in0.0 mm 0.00 in0.0 mm
04:22 AM 64.6°F18.1°C 48.1°F8.9°C 55% 5.4 mph NW8.7 kmh NW 9.8 mph15.8 kmh 29.76 in1007.8 mb 0.00 in0.0 mm 0.00 in0.0 mm 0.00 in0.0 mm
04:23 AM 64.6°F18.1°C 48.1°F8.9°C 55% 2.2 mph NW3.5 kmh NW 8.3 mph13.4 kmh 29.76 in1007.8 mb 0.00 in0.0 mm 0.00 in0.0 mm 0.00 in0.0 mm
04:24 AM 64.6°F18.1°C 48.1°F8.9°C 55% 3.8 mph NW6.1 kmh NW 8.3 mph13.4 kmh 29.76 in1007.8 mb 0.00 in0.0 mm 0.00 in0.0 mm 0.00 in0.0 mm
04:25 AM 64.6°F18.1°C 48.1°F8.9°C 55% 1.6 mph NW2.6 kmh NW 8.3 mph13.4 kmh 29.76 in1007.8 mb 0.00 in0.0 mm 0.00 in0.0 mm 0.00 in0.0 mm
04:26 AM 64.6°F18.1°C 48.1°F8.9°C 55% 3.1 mph NW5.0 kmh NW 8.3 mph13.4 kmh 29.76 in1007.8 mb 0.00 in0.0 mm 0.00 in0.0 mm 0.00 in0.0 mm
04:27 AM 64.6°F18.1°C 48.1°F8.9°C 55% 3.8 mph NW6.1 kmh NW 8.3 mph13.4 kmh 29.76 in1007.8 mb 0.00 in0.0 mm 0.00 in0.0 mm 0.00 in0.0 mm
04:28 AM 64.6°F18.1°C 48.1°F8.9°C 55% 2.2 mph NW3.5 kmh NW 6.9 mph11.1 kmh 29.76 in1007.8 mb 0.00 in0.0 mm 0.00 in0.0 mm 0.00 in0.0 mm
04:29 AM 64.8°F18.2°C 48.2°F9.0°C 55% 2.2 mph NW3.5 kmh NW 6.9 mph11.1 kmh 29.76 in1007.8 mb 0.00 in0.0 mm 0.00 in0.0 mm 0.00 in0.0 mm
04:30 AM 64.8°F18.2°C 48.2°F9.0°C 55% 3.1 mph NW5.0 kmh NW 6.9 mph11.1 kmh 29.77 in1008.1 mb 0.00 in0.0 mm 0.00 in0.0 mm 0.00 in0.0 mm
04:31 AM 64.8°F18.2°C 48.2°F9.0°C 55% 4.5 mph NW7.2 kmh NW 7.6 mph12.2 kmh 29.77 in1008.1 mb 0.00 in0.0 mm 0.00 in0.0 mm 0.00 in0.0 mm
04:32 AM 64.8°F18.2°C 47.7°F8.7°C 54% 4.5 mph NW7.2 kmh NW 7.6 mph12.2 kmh 29.76 in1007.8 mb 0.00 in0.0 mm 0.00 in0.0 mm 0.00 in0.0 mm
04:33 AM 64.8°F18.2°C 47.7°F8.7°C 54% 6.0 mph NW9.7 kmh NW 9.2 mph14.8 kmh 29.77 in1008.1 mb 0.00 in0.0 mm 0.00 in0.0 mm 0.00 in0.0 mm
04:34 AM 64.8°F18.2°C 47.7°F8.7°C 54% 4.5 mph NW7.2 kmh NW 9.2 mph14.8 kmh 29.76 in1007.8 mb 0.00 in0.0 mm 0.00 in0.0 mm 0.00 in0.0 mm
04:35 AM 64.8°F18.2°C 47.7°F8.7°C 54% 5.4 mph NW8.7 kmh NW 9.2 mph14.8 kmh 29.76 in1007.8 mb 0.00 in0.0 mm 0.00 in0.0 mm 0.00 in0.0 mm
04:36 AM 64.8°F18.2°C 47.7°F8.7°C 54% 3.8 mph NW6.1 kmh NW 9.2 mph14.8 kmh 29.76 in1007.8 mb 0.00 in0.0 mm 0.00 in0.0 mm 0.00 in0.0 mm
04:37 AM 64.8°F18.2°C 47.7°F8.7°C 54% 4.5 mph NW7.2 kmh NW 9.2 mph14.8 kmh 29.76 in1007.8 mb 0.00 in0.0 mm 0.00 in0.0 mm 0.00 in0.0 mm
04:38 AM 64.9°F18.3°C 47.9°F8.8°C 54% 3.8 mph NW6.1 kmh NW 9.2 mph14.8 kmh 29.77 in1008.1 mb 0.00 in0.0 mm 0.00 in0.0 mm 0.00 in0.0 mm
04:39 AM 64.9°F18.3°C 47.9°F8.8°C 54% 5.4 mph WNW8.7 kmh WNW 9.8 mph15.8 kmh 29.76 in1007.8 mb 0.00 in0.0 mm 0.00 in0.0 mm 0.00 in0.0 mm
04:40 AM 64.9°F18.3°C 47.9°F8.8°C 54% 5.4 mph NW8.7 kmh NW 9.8 mph15.8 kmh 29.76 in1007.8 mb 0.00 in0.0 mm 0.00 in0.0 mm 0.00 in0.0 mm
04:41 AM 64.9°F18.3°C 47.9°F8.8°C 54% 4.5 mph NW7.2 kmh NW 9.8 mph15.8 kmh 29.76 in1007.8 mb 0.00 in0.0 mm 0.00 in0.0 mm 0.00 in0.0 mm
04:42 AM 64.9°F18.3°C 47.9°F8.8°C 54% 3.1 mph NW5.0 kmh NW 9.8 mph15.8 kmh 29.77 in1008.1 mb 0.00 in0.0 mm 0.00 in0.0 mm 0.00 in0.0 mm
04:43 AM 64.9°F18.3°C 47.9°F8.8°C 54% 2.2 mph NW3.5 kmh NW 9.8 mph15.8 kmh 29.76 in1007.8 mb 0.00 in0.0 mm 0.00 in0.0 mm 0.00 in0.0 mm
04:44 AM 64.8°F18.2°C 47.7°F8.7°C 54% 3.8 mph NW6.1 kmh NW 9.8 mph15.8 kmh 29.76 in1007.8 mb 0.00 in0.0 mm 0.00 in0.0 mm 0.00 in0.0 mm
04:45 AM 64.8°F18.2°C 47.7°F8.7°C 54% 3.1 mph NW5.0 kmh NW 9.8 mph15.8 kmh 29.77 in1008.1 mb 0.00 in0.0 mm 0.00 in0.0 mm 0.00 in0.0 mm
04:46 AM 64.8°F18.2°C 48.2°F9.0°C 55% 4.5 mph NW7.2 kmh NW 9.8 mph15.8 kmh 29.76 in1007.8 mb 0.00 in0.0 mm 0.00 in0.0 mm 0.00 in0.0 mm
04:47 AM 64.8°F18.2°C 48.2°F9.0°C 55% 3.8 mph NW6.1 kmh NW 9.8 mph15.8 kmh 29.77 in1008.1 mb 0.00 in0.0 mm 0.00 in0.0 mm 0.00 in0.0 mm
04:48 AM 64.8°F18.2°C 48.2°F9.0°C 55% 3.8 mph NW6.1 kmh NW 9.8 mph15.8 kmh 29.77 in1008.1 mb 0.00 in0.0 mm 0.00 in0.0 mm 0.00 in0.0 mm
04:49 AM 64.8°F18.2°C 48.2°F9.0°C 55% 2.2 mph NNW3.5 kmh NNW 9.8 mph15.8 kmh 29.76 in1007.8 mb 0.00 in0.0 mm 0.00 in0.0 mm 0.00 in0.0 mm
04:50 AM 64.8°F18.2°C 48.2°F9.0°C 55% 4.5 mph NW7.2 kmh NW 9.8 mph15.8 kmh 29.76 in1007.8 mb 0.00 in0.0 mm 0.00 in0.0 mm 0.00 in0.0 mm
04:51 AM 64.6°F18.1°C 48.1°F8.9°C 55% 4.5 mph NW7.2 kmh NW 6.9 mph11.1 kmh 29.77 in1008.1 mb 0.00 in0.0 mm 0.00 in0.0 mm 0.00 in0.0 mm
04:52 AM 64.6°F18.1°C 48.1°F8.9°C 55% 3.1 mph NW5.0 kmh NW 6.9 mph11.1 kmh 29.76 in1007.8 mb 0.00 in0.0 mm 0.00 in0.0 mm 0.00 in0.0 mm
04:53 AM 64.6°F18.1°C 48.1°F8.9°C 55% 5.4 mph NW8.7 kmh NW 6.9 mph11.1 kmh 29.77 in1008.1 mb 0.00 in0.0 mm 0.00 in0.0 mm 0.00 in0.0 mm
04:54 AM 64.6°F18.1°C 48.1°F8.9°C 55% 6.0 mph NW9.7 kmh NW 9.2 mph14.8 kmh 29.76 in1007.8 mb 0.00 in0.0 mm 0.00 in0.0 mm 0.00 in0.0 mm
04:55 AM 64.6°F18.1°C 48.1°F8.9°C 55% 2.2 mph NW3.5 kmh NW 9.2 mph14.8 kmh 29.77 in1008.1 mb 0.00 in0.0 mm 0.00 in0.0 mm 0.00 in0.0 mm
04:56 AM 64.6°F18.1°C 48.1°F8.9°C 55% 4.5 mph NW7.2 kmh NW 9.2 mph14.8 kmh 29.76 in1007.8 mb 0.00 in0.0 mm 0.00 in0.0 mm 0.00 in0.0 mm
04:57 AM 64.4°F18.0°C 47.9°F8.8°C 55% 3.1 mph NW5.0 kmh NW 9.2 mph14.8 kmh 29.76 in1007.8 mb 0.00 in0.0 mm 0.00 in0.0 mm 0.00 in0.0 mm
04:58 AM 64.4°F18.0°C 47.9°F8.8°C 55% 2.2 mph NW3.5 kmh NW 9.2 mph14.8 kmh 29.76 in1007.8 mb 0.00 in0.0 mm 0.00 in0.0 mm 0.00 in0.0 mm
04:59 AM 64.4°F18.0°C 47.9°F8.8°C 55% 2.2 mph NW3.5 kmh NW 9.2 mph14.8 kmh 29.76 in1007.8 mb 0.00 in0.0 mm 0.00 in0.0 mm 0.00 in0.0 mm
05:00 AM 64.4°F18.0°C 47.9°F8.8°C 55% 5.4 mph NW8.7 kmh NW 9.2 mph14.8 kmh 29.77 in1008.1 mb 0.00 in0.0 mm 0.00 in0.0 mm 0.00 in0.0 mm
05:01 AM 64.4°F18.0°C 47.9°F8.8°C 55% 6.0 mph NW9.7 kmh NW 9.2 mph14.8 kmh 29.76 in1007.8 mb 0.00 in0.0 mm 0.00 in0.0 mm 0.00 in0.0 mm
05:02 AM 64.4°F18.0°C 47.9°F8.8°C 55% 5.4 mph NW8.7 kmh NW 9.2 mph14.8 kmh 29.76 in1007.8 mb 0.00 in0.0 mm 0.00 in0.0 mm 0.00 in0.0 mm
05:03 AM 64.4°F18.0°C 47.9°F8.8°C 55% 5.4 mph NW8.7 kmh NW 9.2 mph14.8 kmh 29.76 in1007.8 mb 0.00 in0.0 mm 0.00 in0.0 mm 0.00 in0.0 mm
05:04 AM 64.4°F18.0°C 47.9°F8.8°C 55% 3.8 mph NW6.1 kmh NW 9.2 mph14.8 kmh 29.76 in1007.8 mb 0.00 in0.0 mm 0.00 in0.0 mm 0.00 in0.0 mm
05:05 AM 64.4°F18.0°C 47.9°F8.8°C 55% 3.8 mph NW6.1 kmh NW 9.2 mph14.8 kmh 29.76 in1007.8 mb 0.00 in0.0 mm 0.00 in0.0 mm 0.00 in0.0 mm
05:06 AM 64.4°F18.0°C 47.9°F8.8°C 55% 3.1 mph NW5.0 kmh NW 9.2 mph14.8 kmh 29.77 in1008.1 mb 0.00 in0.0 mm 0.00 in0.0 mm 0.00 in0.0 mm
05:07 AM 64.4°F18.0°C 47.9°F8.8°C 55% 2.2 mph NW3.5 kmh NW 9.2 mph14.8 kmh 29.76 in1007.8 mb 0.00 in0.0 mm 0.00 in0.0 mm 0.00 in0.0 mm
05:08 AM 64.4°F18.0°C 47.9°F8.8°C 55% 5.4 mph NW8.7 kmh NW 9.2 mph14.8 kmh 29.76 in1007.8 mb 0.00 in0.0 mm 0.00 in0.0 mm 0.00 in0.0 mm
05:09 AM 64.4°F18.0°C 47.9°F8.8°C 55% 3.8 mph NW6.1 kmh NW 9.2 mph14.8 kmh 29.77 in1008.1 mb 0.00 in0.0 mm 0.00 in0.0 mm 0.00 in0.0 mm
05:10 AM 64.4°F18.0°C 47.9°F8.8°C 55% 3.8 mph NW6.1 kmh NW 9.2 mph14.8 kmh 29.77 in1008.1 mb 0.00 in0.0 mm 0.00 in0.0 mm 0.00 in0.0 mm
05:11 AM 64.4°F18.0°C 47.9°F8.8°C 55% 3.8 mph NW6.1 kmh NW 9.2 mph14.8 kmh 29.76 in1007.8 mb 0.00 in0.0 mm 0.00 in0.0 mm 0.00 in0.0 mm
05:12 AM 64.4°F18.0°C 47.9°F8.8°C 55% 3.8 mph NW6.1 kmh NW 9.2 mph14.8 kmh 29.77 in1008.1 mb 0.00 in0.0 mm 0.00 in0.0 mm 0.00 in0.0 mm
05:13 AM 64.4°F18.0°C 47.9°F8.8°C 55% 6.0 mph NW9.7 kmh NW 9.2 mph14.8 kmh 29.76 in1007.8 mb 0.00 in0.0 mm 0.00 in0.0 mm 0.00 in0.0 mm
05:14 AM 64.4°F18.0°C 47.9°F8.8°C 55% 3.1 mph NW5.0 kmh NW 9.2 mph14.8 kmh 29.77 in1008.1 mb 0.00 in0.0 mm 0.00 in0.0 mm 0.00 in0.0 mm
05:15 AM 64.4°F18.0°C 47.9°F8.8°C 55% 3.8 mph NW6.1 kmh NW 8.3 mph13.4 kmh 29.77 in1008.1 mb 0.00 in0.0 mm 0.00 in0.0 mm 0.00 in0.0 mm
05:16 AM 64.4°F18.0°C 47.9°F8.8°C 55% 5.4 mph NW8.7 kmh NW 8.3 mph13.4 kmh 29.76 in1007.8 mb 0.00 in0.0 mm 0.00 in0.0 mm 0.00 in0.0 mm
05:17 AM 64.4°F18.0°C 47.9°F8.8°C 55% 4.5 mph NW7.2 kmh NW 8.3 mph13.4 kmh 29.76 in1007.8 mb 0.00 in0.0 mm 0.00 in0.0 mm 0.00 in0.0 mm
05:18 AM 64.4°F18.0°C 47.9°F8.8°C 55% 3.1 mph NW5.0 kmh NW 8.3 mph13.4 kmh 29.75 in1007.5 mb 0.00 in0.0 mm 0.00 in0.0 mm 0.00 in0.0 mm
05:19 AM 64.2°F17.9°C 47.2°F8.4°C 54% 3.1 mph NW5.0 kmh NW 8.3 mph13.4 kmh 29.76 in1007.8 mb 0.00 in0.0 mm 0.00 in0.0 mm 0.00 in0.0 mm
05:20 AM 64.2°F17.9°C 47.2°F8.4°C 54% 2.2 mph NW3.5 kmh NW 8.3 mph13.4 kmh 29.76 in1007.8 mb 0.00 in0.0 mm 0.00 in0.0 mm 0.00 in0.0 mm
05:21 AM 64.2°F17.9°C 47.2°F8.4°C 54% 1.6 mph NW2.6 kmh NW 8.3 mph13.4 kmh 29.76 in1007.8 mb 0.00 in0.0 mm 0.00 in0.0 mm 0.00 in0.0 mm
05:22 AM 64.2°F17.9°C 47.2°F8.4°C 54% 2.2 mph NW3.5 kmh NW 8.3 mph13.4 kmh 29.76 in1007.8 mb 0.00 in0.0 mm 0.00 in0.0 mm 0.00 in0.0 mm
05:23 AM 64.2°F17.9°C 47.2°F8.4°C 54% 3.1 mph NW5.0 kmh NW 8.3 mph13.4 kmh 29.77 in1008.1 mb 0.00 in0.0 mm 0.00 in0.0 mm 0.00 in0.0 mm
05:24 AM 64.2°F17.9°C 47.2°F8.4°C 54% 4.5 mph NW7.2 kmh NW 8.3 mph13.4 kmh 29.76 in1007.8 mb 0.00 in0.0 mm 0.00 in0.0 mm 0.00 in0.0 mm
05:25 AM 64.2°F17.9°C 47.2°F8.4°C 54% 3.1 mph NW5.0 kmh NW 7.6 mph12.2 kmh 29.77 in1008.1 mb 0.00 in0.0 mm 0.00 in0.0 mm 0.00 in0.0 mm
05:26 AM 64.2°F17.9°C 47.2°F8.4°C 54% 3.1 mph NW5.0 kmh NW 7.6 mph12.2 kmh 29.77 in1008.1 mb 0.00 in0.0 mm 0.00 in0.0 mm 0.00 in0.0 mm
05:27 AM 64.2°F17.9°C 47.2°F8.4°C 54% 2.2 mph NW3.5 kmh NW 6.9 mph11.1 kmh 29.76 in1007.8 mb 0.00 in0.0 mm 0.00 in0.0 mm 0.00 in0.0 mm
05:28 AM 64.2°F17.9°C 47.2°F8.4°C 54% 2.2 mph NW3.5 kmh NW 6.9 mph11.1 kmh 29.76 in1007.8 mb 0.00 in0.0 mm 0.00 in0.0 mm 0.00 in0.0 mm
05:29 AM 64.2°F17.9°C 47.2°F8.4°C 54% 4.5 mph NW7.2 kmh NW 6.9 mph11.1 kmh 29.77 in1008.1 mb 0.00 in0.0 mm 0.00 in0.0 mm 0.00 in0.0 mm
05:30 AM 64.0°F17.8°C 47.1°F8.4°C 54% 2.2 mph NW3.5 kmh NW 6.9 mph11.1 kmh 29.76 in1007.8 mb 0.00 in0.0 mm 0.00 in0.0 mm 0.00 in0.0 mm
05:31 AM 64.0°F17.8°C 47.6°F8.7°C 55% 1.6 mph NW2.6 kmh NW 6.9 mph11.1 kmh 29.77 in1008.1 mb 0.00 in0.0 mm 0.00 in0.0 mm 0.00 in0.0 mm
05:32 AM 64.0°F17.8°C 47.6°F8.7°C 55% 3.1 mph NW5.0 kmh NW 6.9 mph11.1 kmh 29.77 in1008.1 mb 0.00 in0.0 mm 0.00 in0.0 mm 0.00 in0.0 mm
05:33 AM 63.9°F17.7°C 47.4°F8.6°C 55% 3.1 mph NW5.0 kmh NW 6.9 mph11.1 kmh 29.77 in1008.1 mb 0.00 in0.0 mm 0.00 in0.0 mm 0.00 in0.0 mm
05:34 AM 63.9°F17.7°C 47.4°F8.6°C 55% 1.6 mph NW2.6 kmh NW 6.9 mph11.1 kmh 29.77 in1008.1 mb 0.00 in0.0 mm 0.00 in0.0 mm 0.00 in0.0 mm
05:35 AM 63.9°F17.7°C 47.4°F8.6°C 55% 0.7 mph NW1.1 kmh NW 6.0 mph9.7 kmh 29.76 in1007.8 mb 0.00 in0.0 mm 0.00 in0.0 mm 0.00 in0.0 mm
05:36 AM 63.9°F17.7°C 47.4°F8.6°C 55% 1.6 mph NW2.6 kmh NW 6.0 mph9.7 kmh 29.77 in1008.1 mb 0.00 in0.0 mm 0.00 in0.0 mm 0.00 in0.0 mm
05:37 AM 63.9°F17.7°C 47.4°F8.6°C 55% 2.2 mph NW3.5 kmh NW 6.0 mph9.7 kmh 29.77 in1008.1 mb 0.00 in0.0 mm 0.00 in0.0 mm 0.00 in0.0 mm
05:38 AM 63.7°F17.6°C 47.2°F8.4°C 55% 2.2 mph WNW3.5 kmh WNW 6.0 mph9.7 kmh 29.77 in1008.1 mb 0.00 in0.0 mm 0.00 in0.0 mm 0.00 in0.0 mm
05:39 AM 63.7°F17.6°C 47.2°F8.4°C 55% 4.5 mph WNW7.2 kmh WNW 7.6 mph12.2 kmh 29.77 in1008.1 mb 0.00 in0.0 mm 0.00 in0.0 mm 0.00 in0.0 mm
05:40 AM 63.7°F17.6°C 47.2°F8.4°C 55% 5.4 mph WNW8.7 kmh WNW 7.6 mph12.2 kmh 29.77 in1008.1 mb 0.00 in0.0 mm 0.00 in0.0 mm 0.00 in0.0 mm
05:41 AM 63.7°F17.6°C 47.2°F8.4°C 55% 3.1 mph W5.0 kmh W 7.6 mph12.2 kmh 29.77 in1008.1 mb 0.00 in0.0 mm 0.00 in0.0 mm 0.00 in0.0 mm
05:42 AM 63.7°F17.6°C 47.2°F8.4°C 55% 2.2 mph W3.5 kmh W 7.6 mph12.2 kmh 29.78 in1008.5 mb 0.00 in0.0 mm 0.00 in0.0 mm 0.00 in0.0 mm
05:43 AM 63.5°F17.5°C 47.1°F8.4°C 55% 0.7 mph W1.1 kmh W 7.6 mph12.2 kmh 29.78 in1008.5 mb 0.00 in0.0 mm 0.00 in0.0 mm 0.00 in0.0 mm
05:44 AM 63.5°F17.5°C 47.1°F8.4°C 55% 3.1 mph W5.0 kmh W 7.6 mph12.2 kmh 29.77 in1008.1 mb 0.00 in0.0 mm 0.00 in0.0 mm 0.00 in0.0 mm
05:45 AM 63.5°F17.5°C 47.1°F8.4°C 55% 2.2 mph W3.5 kmh W 7.6 mph12.2 kmh 29.77 in1008.1 mb 0.00 in0.0 mm 0.00 in0.0 mm 0.00 in0.0 mm
05:46 AM 63.5°F17.5°C 47.1°F8.4°C 55% 2.2 mph W3.5 kmh W 7.6 mph12.2 kmh 29.77 in1008.1 mb 0.00 in0.0 mm 0.00 in0.0 mm 0.00 in0.0 mm
05:47 AM 63.3°F17.4°C 46.9°F8.3°C 55% 3.1 mph W5.0 kmh W 7.6 mph12.2 kmh 29.78 in1008.5 mb 0.00 in0.0 mm 0.00 in0.0 mm 0.00 in0.0 mm
05:48 AM 63.3°F17.4°C 46.9°F8.3°C 55% 3.1 mph W5.0 kmh W 7.6 mph12.2 kmh 29.77 in1008.1 mb 0.00 in0.0 mm 0.00 in0.0 mm 0.00 in0.0 mm
05:49 AM 63.3°F17.4°C 46.9°F8.3°C 55% 3.1 mph W5.0 kmh W 7.6 mph12.2 kmh 29.77 in1008.1 mb 0.00 in0.0 mm 0.00 in0.0 mm 0.00 in0.0 mm
05:50 AM 63.3°F17.4°C 46.9°F8.3°C 55% 3.1 mph W5.0 kmh W 6.9 mph11.1 kmh 29.77 in1008.1 mb 0.00 in0.0 mm 0.00 in0.0 mm 0.00 in0.0 mm
05:51 AM 63.3°F17.4°C 46.9°F8.3°C 55% 3.1 mph W5.0 kmh W 9.2 mph14.8 kmh 29.78 in1008.5 mb 0.00 in0.0 mm 0.00 in0.0 mm 0.00 in0.0 mm
05:52 AM 63.3°F17.4°C 46.9°F8.3°C 55% 3.1 mph W5.0 kmh W 9.2 mph14.8 kmh 29.77 in1008.1 mb 0.00 in0.0 mm 0.00 in0.0 mm 0.00 in0.0 mm
05:53 AM 63.5°F17.5°C 47.1°F8.4°C 55% 1.6 mph W2.6 kmh W 9.2 mph14.8 kmh 29.77 in1008.1 mb 0.00 in0.0 mm 0.00 in0.0 mm 0.00 in0.0 mm
05:54 AM 63.5°F17.5°C 47.1°F8.4°C 55% 1.6 mph W2.6 kmh W 9.2 mph14.8 kmh 29.78 in1008.5 mb 0.00 in0.0 mm 0.00 in0.0 mm 0.00 in0.0 mm
05:55 AM 63.5°F17.5°C 47.1°F8.4°C 55% 3.1 mph W5.0 kmh W 9.2 mph14.8 kmh 29.78 in1008.5 mb 0.00 in0.0 mm 0.00 in0.0 mm 0.00 in0.0 mm
05:56 AM 63.5°F17.5°C 47.1°F8.4°C 55% 2.2 mph W3.5 kmh W 9.2 mph14.8 kmh 29.78 in1008.5 mb 0.00 in0.0 mm 0.00 in0.0 mm 0.00 in0.0 mm
05:57 AM 63.5°F17.5°C 47.1°F8.4°C 55% 3.1 mph WNW5.0 kmh WNW 9.2 mph14.8 kmh 29.78 in1008.5 mb 0.00 in0.0 mm 0.00 in0.0 mm 0.00 in0.0 mm
05:58 AM 63.5°F17.5°C 47.1°F8.4°C 55% 3.1 mph WNW5.0 kmh WNW 9.2 mph14.8 kmh 29.77 in1008.1 mb 0.00 in0.0 mm 0.00 in0.0 mm 0.00 in0.0 mm
05:59 AM 63.5°F17.5°C 47.1°F8.4°C 55% 2.2 mph W3.5 kmh W 9.2 mph14.8 kmh 29.78 in1008.5 mb 0.00 in0.0 mm 0.00 in0.0 mm 0.00 in0.0 mm
06:00 AM 63.5°F17.5°C 47.1°F8.4°C 55% 1.6 mph W2.6 kmh W 9.2 mph14.8 kmh 29.78 in1008.5 mb 0.00 in0.0 mm 0.00 in0.0 mm 0.00 in0.0 mm
06:01 AM 63.5°F17.5°C 47.1°F8.4°C 55% 3.8 mph WNW6.1 kmh WNW 6.0 mph9.7 kmh 29.78 in1008.5 mb 0.00 in0.0 mm 0.00 in0.0 mm 0.00 in0.0 mm
06:02 AM 63.5°F17.5°C 47.1°F8.4°C 55% 4.5 mph WNW7.2 kmh WNW 6.9 mph11.1 kmh 29.78 in1008.5 mb 0.00 in0.0 mm 0.00 in0.0 mm 0.00 in0.0 mm
06:03 AM 63.3°F17.4°C 46.9°F8.3°C 55% 2.2 mph WNW3.5 kmh WNW 6.9 mph11.1 kmh 29.78 in1008.5 mb 0.00 in0.0 mm 0.00 in0.0 mm 0.00 in0.0 mm
06:04 AM 63.3°F17.4°C 46.9°F8.3°C 55% 3.1 mph WNW5.0 kmh WNW 6.9 mph11.1 kmh 29.78 in1008.5 mb 0.00 in0.0 mm 0.00 in0.0 mm 0.00 in0.0 mm
06:05 AM 63.3°F17.4°C 46.9°F8.3°C 55% 1.6 mph WNW2.6 kmh WNW 6.9 mph11.1 kmh 29.78 in1008.5 mb 0.00 in0.0 mm 0.00 in0.0 mm 0.00 in0.0 mm
06:06 AM 63.3°F17.4°C 47.4°F8.6°C 56% 2.2 mph WNW3.5 kmh WNW 6.9 mph11.1 kmh 29.78 in1008.5 mb 0.00 in0.0 mm 0.00 in0.0 mm 0.00 in0.0 mm
06:07 AM 63.3°F17.4°C 47.4°F8.6°C 56% 2.2 mph WNW3.5 kmh WNW 6.9 mph11.1 kmh 29.78 in1008.5 mb 0.00 in0.0 mm 0.00 in0.0 mm 0.00 in0.0 mm
06:08 AM 63.3°F17.4°C 47.4°F8.6°C 56% 2.2 mph WNW3.5 kmh WNW 6.9 mph11.1 kmh 29.78 in1008.5 mb 0.00 in0.0 mm 0.00 in0.0 mm 0.00 in0.0 mm
06:09 AM 63.5°F17.5°C 47.5°F8.6°C 56% 2.2 mph NW3.5 kmh NW 6.9 mph11.1 kmh 29.78 in1008.5 mb 0.00 in0.0 mm 0.00 in0.0 mm 0.00 in0.0 mm
06:10 AM 63.5°F17.5°C 47.5°F8.6°C 56% 3.1 mph NW5.0 kmh NW 6.9 mph11.1 kmh 29.78 in1008.5 mb 0.00 in0.0 mm 0.00 in0.0 mm 0.00 in0.0 mm
06:11 AM 63.7°F17.6°C 47.7°F8.7°C 56% 2.2 mph NW3.5 kmh NW 6.9 mph11.1 kmh 29.78 in1008.5 mb 0.00 in0.0 mm 0.00 in0.0 mm 0.00 in0.0 mm
06:12 AM 63.9°F17.7°C 47.9°F8.8°C 56% 3.1 mph NW5.0 kmh NW 6.9 mph11.1 kmh 29.78 in1008.5 mb 0.00 in0.0 mm 0.00 in0.0 mm 0.00 in0.0 mm
06:13 AM 63.9°F17.7°C 47.4°F8.6°C 55% 3.8 mph NW6.1 kmh NW 6.9 mph11.1 kmh 29.78 in1008.5 mb 0.00 in0.0 mm 0.00 in0.0 mm 0.00 in0.0 mm
06:14 AM 64.0°F17.8°C 47.6°F8.7°C 55% 3.8 mph NW6.1 kmh NW 6.9 mph11.1 kmh 29.78 in1008.5 mb 0.00 in0.0 mm 0.00 in0.0 mm 0.00 in0.0 mm
06:15 AM 64.2°F17.9°C 47.7°F8.7°C 55% 3.1 mph NW5.0 kmh NW 6.9 mph11.1 kmh 29.78 in1008.5 mb 0.00 in0.0 mm 0.00 in0.0 mm 0.00 in0.0 mm
06:16 AM 64.2°F17.9°C 47.7°F8.7°C 55% 3.8 mph NW6.1 kmh NW 6.9 mph11.1 kmh 29.78 in1008.5 mb 0.00 in0.0 mm 0.00 in0.0 mm 0.00 in0.0 mm
06:17 AM 64.2°F17.9°C 47.7°F8.7°C 55% 3.8 mph NW6.1 kmh NW 6.0 mph9.7 kmh 29.78 in1008.5 mb 0.00 in0.0 mm 0.00 in0.0 mm 0.00 in0.0 mm
06:18 AM 64.2°F17.9°C 47.7°F8.7°C 55% 3.8 mph NW6.1 kmh NW 6.0 mph9.7 kmh 29.78 in1008.5 mb 0.00 in0.0 mm 0.00 in0.0 mm 0.00 in0.0 mm
06:19 AM 64.2°F17.9°C 47.7°F8.7°C 55% 5.4 mph NW8.7 kmh NW 9.2 mph14.8 kmh 29.78 in1008.5 mb 0.00 in0.0 mm 0.00 in0.0 mm 0.00 in0.0 mm
06:20 AM 64.2°F17.9°C 47.7°F8.7°C 55% 5.4 mph NW8.7 kmh NW 9.2 mph14.8 kmh 29.78 in1008.5 mb 0.00 in0.0 mm 0.00 in0.0 mm 0.00 in0.0 mm
06:21 AM 64.2°F17.9°C 47.7°F8.7°C 55% 6.0 mph NW9.7 kmh NW 10.7 mph17.2 kmh 29.78 in1008.5 mb 0.00 in0.0 mm 0.00 in0.0 mm 0.00 in0.0 mm
06:22 AM 64.2°F17.9°C 47.7°F8.7°C 55% 5.4 mph NW8.7 kmh NW 10.7 mph17.2 kmh 29.78 in1008.5 mb 0.00 in0.0 mm 0.00 in0.0 mm 0.00 in0.0 mm
06:23 AM 64.2°F17.9°C 47.7°F8.7°C 55% 3.8 mph NW6.1 kmh NW 10.7 mph17.2 kmh 29.78 in1008.5 mb 0.00 in0.0 mm 0.00 in0.0 mm 0.00 in0.0 mm
06:24 AM 64.4°F18.0°C 47.9°F8.8°C 55% 3.1 mph NW5.0 kmh NW 10.7 mph17.2 kmh 29.78 in1008.5 mb 0.00 in0.0 mm 0.00 in0.0 mm 0.00 in0.0 mm
06:25 AM 64.4°F18.0°C 47.9°F8.8°C 55% 4.5 mph NW7.2 kmh NW 10.7 mph17.2 kmh 29.78 in1008.5 mb 0.00 in0.0 mm 0.00 in0.0 mm 0.00 in0.0 mm
06:26 AM 64.8°F18.2°C 48.2°F9.0°C 55% 2.2 mph NW3.5 kmh NW 10.7 mph17.2 kmh 29.78 in1008.5 mb 0.00 in0.0 mm 0.00 in0.0 mm 0.00 in0.0 mm
06:27 AM 64.9°F18.3°C 48.4°F9.1°C 55% 3.8 mph NW6.1 kmh NW 10.7 mph17.2 kmh 29.78 in1008.5 mb 0.00 in0.0 mm 0.00 in0.0 mm 0.00 in0.0 mm
06:28 AM 65.1°F18.4°C 48.6°F9.2°C 55% 4.5 mph NW7.2 kmh NW 10.7 mph17.2 kmh 29.79 in1008.8 mb 0.00 in0.0 mm 0.00 in0.0 mm 0.00 in0.0 mm
06:29 AM 65.1°F18.4°C 48.6°F9.2°C 55% 3.1 mph NW5.0 kmh NW 10.7 mph17.2 kmh 29.78 in1008.5 mb 0.00 in0.0 mm 0.00 in0.0 mm 0.00 in0.0 mm
06:30 AM 65.3°F18.5°C 48.7°F9.3°C 55% 3.1 mph NW5.0 kmh NW 10.7 mph17.2 kmh 29.78 in1008.5 mb 0.00 in0.0 mm 0.00 in0.0 mm 0.00 in0.0 mm
06:31 AM 65.5°F18.6°C 48.9°F9.4°C 55% 6.9 mph NW11.1 kmh NW 10.7 mph17.2 kmh 29.78 in1008.5 mb 0.00 in0.0 mm 0.00 in0.0 mm 0.00 in0.0 mm
06:32 AM 65.7°F18.7°C 49.1°F9.5°C 55% 7.6 mph NW12.2 kmh NW 11.4 mph18.3 kmh 29.78 in1008.5 mb 0.00 in0.0 mm 0.00 in0.0 mm 0.00 in0.0 mm
06:33 AM 65.7°F18.7°C 49.1°F9.5°C 55% 3.8 mph NW6.1 kmh NW 11.4 mph18.3 kmh 29.78 in1008.5 mb 0.00 in0.0 mm 0.00 in0.0 mm 0.00 in0.0 mm
06:34 AM 65.7°F18.7°C 49.1°F9.5°C 55% 2.2 mph NW3.5 kmh NW 11.4 mph18.3 kmh 29.78 in1008.5 mb 0.00 in0.0 mm 0.00 in0.0 mm 0.00 in0.0 mm
06:35 AM 65.8°F18.8°C 48.7°F9.3°C 54% 5.4 mph NW8.7 kmh NW 11.4 mph18.3 kmh 29.78 in1008.5 mb 0.00 in0.0 mm 0.00 in0.0 mm 0.00 in0.0 mm
06:36 AM 65.8°F18.8°C 48.7°F9.3°C 54% 5.4 mph NW8.7 kmh NW 11.4 mph18.3 kmh 29.78 in1008.5 mb 0.00 in0.0 mm 0.00 in0.0 mm 0.00 in0.0 mm
06:37 AM 66.0°F18.9°C 48.9°F9.4°C 54% 3.8 mph NW6.1 kmh NW 11.4 mph18.3 kmh 29.78 in1008.5 mb 0.00 in0.0 mm 0.00 in0.0 mm 0.00 in0.0 mm
06:38 AM 66.0°F18.9°C 48.9°F9.4°C 54% 5.4 mph NW8.7 kmh NW 11.4 mph18.3 kmh 29.78 in1008.5 mb 0.00 in0.0 mm 0.00 in0.0 mm 0.00 in0.0 mm
06:39 AM 66.2°F19.0°C 48.1°F8.9°C 52% 5.4 mph NW8.7 kmh NW 11.4 mph18.3 kmh 29.78 in1008.5 mb 0.00 in0.0 mm 0.00 in0.0 mm 0.00 in0.0 mm
06:40 AM 66.2°F19.0°C 48.1°F8.9°C 52% 3.8 mph NW6.1 kmh NW 11.4 mph18.3 kmh 29.78 in1008.5 mb 0.00 in0.0 mm 0.00 in0.0 mm 0.00 in0.0 mm
06:41 AM 66.2°F19.0°C 48.1°F8.9°C 52% 3.1 mph NW5.0 kmh NW 11.4 mph18.3 kmh 29.78 in1008.5 mb 0.00 in0.0 mm 0.00 in0.0 mm 0.00 in0.0 mm
06:42 AM 66.4°F19.1°C 48.2°F9.0°C 52% 3.1 mph NW5.0 kmh NW 11.4 mph18.3 kmh 29.78 in1008.5 mb 0.00 in0.0 mm 0.00 in0.0 mm 0.00 in0.0 mm
06:43 AM 66.4°F19.1°C 48.2°F9.0°C 52% 1.6 mph NW2.6 kmh NW 9.8 mph15.8 kmh 29.78 in1008.5 mb 0.00 in0.0 mm 0.00 in0.0 mm 0.00 in0.0 mm
06:44 AM 66.7°F19.3°C 48.6°F9.2°C 52% 4.5 mph NW7.2 kmh NW 12.1 mph19.5 kmh 29.78 in1008.5 mb 0.00 in0.0 mm 0.00 in0.0 mm 0.00 in0.0 mm
06:45 AM 66.9°F19.4°C 48.7°F9.3°C 52% 4.5 mph NNW7.2 kmh NNW 12.1 mph19.5 kmh 29.78 in1008.5 mb 0.00 in0.0 mm 0.00 in0.0 mm 0.00 in0.0 mm
06:46 AM 66.9°F19.4°C 48.2°F9.0°C 51% 6.9 mph NNW11.1 kmh NNW 12.1 mph19.5 kmh 29.78 in1008.5 mb 0.00 in0.0 mm 0.00 in0.0 mm 0.00 in0.0 mm
06:47 AM 67.1°F19.5°C 48.4°F9.1°C 51% 6.0 mph NNW9.7 kmh NNW 12.1 mph19.5 kmh 29.78 in1008.5 mb 0.00 in0.0 mm 0.00 in0.0 mm 0.00 in0.0 mm
06:48 AM 67.1°F19.5°C 48.4°F9.1°C 51% 6.9 mph NNW11.1 kmh NNW 12.1 mph19.5 kmh 29.78 in1008.5 mb 0.00 in0.0 mm 0.00 in0.0 mm 0.00 in0.0 mm
06:49 AM 67.1°F19.5°C 48.4°F9.1°C 51% 6.9 mph NW11.1 kmh NW 12.1 mph19.5 kmh 29.78 in1008.5 mb 0.00 in0.0 mm 0.00 in0.0 mm 0.00 in0.0 mm
06:50 AM 66.9°F19.4°C 48.2°F9.0°C 51% 5.4 mph NW8.7 kmh NW 12.1 mph19.5 kmh 29.79 in1008.8 mb 0.00 in0.0 mm 0.00 in0.0 mm 0.00 in0.0 mm
06:51 AM 67.1°F19.5°C 48.4°F9.1°C 51% 5.4 mph NW8.7 kmh NW 12.1 mph19.5 kmh 29.78 in1008.5 mb 0.00 in0.0 mm 0.00 in0.0 mm 0.00 in0.0 mm
06:52 AM 67.1°F19.5°C 48.4°F9.1°C 51% 4.5 mph NW7.2 kmh NW 12.1 mph19.5 kmh 29.79 in1008.8 mb 0.00 in0.0 mm 0.00 in0.0 mm 0.00 in0.0 mm
06:53 AM 67.1°F19.5°C 48.4°F9.1°C 51% 4.5 mph NW7.2 kmh NW 12.1 mph19.5 kmh 29.78 in1008.5 mb 0.00 in0.0 mm 0.00 in0.0 mm 0.00 in0.0 mm
06:54 AM 67.3°F19.6°C 48.6°F9.2°C 51% 3.8 mph NW6.1 kmh NW 12.1 mph19.5 kmh 29.79 in1008.8 mb 0.00 in0.0 mm 0.00 in0.0 mm 0.00 in0.0 mm
06:55 AM 67.5°F19.7°C 48.2°F9.0°C 50% 3.8 mph NW6.1 kmh NW 12.1 mph19.5 kmh 29.79 in1008.8 mb 0.00 in0.0 mm 0.00 in0.0 mm 0.00 in0.0 mm
06:56 AM 67.5°F19.7°C 48.2°F9.0°C 50% 4.5 mph NW7.2 kmh NW 12.1 mph19.5 kmh 29.78 in1008.5 mb 0.00 in0.0 mm 0.00 in0.0 mm 0.00 in0.0 mm
06:57 AM 67.8°F19.9°C 48.5°F9.2°C 50% 6.0 mph NW9.7 kmh NW 12.1 mph19.5 kmh 29.79 in1008.8 mb 0.00 in0.0 mm 0.00 in0.0 mm 0.00 in0.0 mm
06:58 AM 67.8°F19.9°C 48.5°F9.2°C 50% 3.8 mph NW6.1 kmh NW 12.1 mph19.5 kmh 29.79 in1008.8 mb 0.00 in0.0 mm 0.00 in0.0 mm 0.00 in0.0 mm
06:59 AM 68.0°F20.0°C 48.1°F8.9°C 49% 4.5 mph NW7.2 kmh NW 9.2 mph14.8 kmh 29.79 in1008.8 mb 0.00 in0.0 mm 0.00 in0.0 mm 0.00 in0.0 mm
07:00 AM 68.2°F20.1°C 48.3°F9.1°C 49% 6.0 mph NW9.7 kmh NW 9.2 mph14.8 kmh 29.79 in1008.8 mb 0.00 in0.0 mm 0.00 in0.0 mm 0.00 in0.0 mm
07:01 AM 68.2°F20.1°C 48.3°F9.1°C 49% 3.8 mph NW6.1 kmh NW 9.2 mph14.8 kmh 29.78 in1008.5 mb 0.00 in0.0 mm 0.00 in0.0 mm 0.00 in0.0 mm
07:02 AM 68.2°F20.1°C 48.3°F9.1°C 49% 5.4 mph NW8.7 kmh NW 10.7 mph17.2 kmh 29.79 in1008.8 mb 0.00 in0.0 mm 0.00 in0.0 mm 0.00 in0.0 mm
07:03 AM 68.4°F20.2°C 48.5°F9.2°C 49% 5.4 mph NW8.7 kmh NW 10.7 mph17.2 kmh 29.79 in1008.8 mb 0.00 in0.0 mm 0.00 in0.0 mm 0.00 in0.0 mm
07:04 AM 68.4°F20.2°C 47.9°F8.8°C 48% 6.0 mph NW9.7 kmh NW 10.7 mph17.2 kmh 29.79 in1008.8 mb 0.00 in0.0 mm 0.00 in0.0 mm 0.00 in0.0 mm
07:05 AM 68.5°F20.3°C 48.1°F8.9°C 48% 4.5 mph NW7.2 kmh NW 10.7 mph17.2 kmh 29.78 in1008.5 mb 0.00 in0.0 mm 0.00 in0.0 mm 0.00 in0.0 mm
07:06 AM 68.5°F20.3°C 48.1°F8.9°C 48% 5.4 mph NW8.7 kmh NW 10.7 mph17.2 kmh 29.79 in1008.8 mb 0.00 in0.0 mm 0.00 in0.0 mm 0.00 in0.0 mm
07:07 AM 68.5°F20.3°C 48.1°F8.9°C 48% 4.5 mph NW7.2 kmh NW 10.7 mph17.2 kmh 29.79 in1008.8 mb 0.00 in0.0 mm 0.00 in0.0 mm 0.00 in0.0 mm
07:08 AM 68.7°F20.4°C 48.3°F9.1°C 48% 2.2 mph NW3.5 kmh NW 10.7 mph17.2 kmh 29.79 in1008.8 mb 0.00 in0.0 mm 0.00 in0.0 mm 0.00 in0.0 mm
07:09 AM 68.7°F20.4°C 48.3°F9.1°C 48% 4.5 mph NW7.2 kmh NW 10.7 mph17.2 kmh 29.79 in1008.8 mb 0.00 in0.0 mm 0.00 in0.0 mm 0.00 in0.0 mm
07:10 AM 68.9°F20.5°C 48.4°F9.1°C 48% 6.0 mph NW9.7 kmh NW 10.7 mph17.2 kmh 29.79 in1008.8 mb 0.00 in0.0 mm 0.00 in0.0 mm 0.00 in0.0 mm
07:11 AM 69.1°F20.6°C 48.6°F9.2°C 48% 3.8 mph NW6.1 kmh NW 10.7 mph17.2 kmh 29.79 in1008.8 mb 0.00 in0.0 mm 0.00 in0.0 mm 0.00 in0.0 mm
07:12 AM 69.3°F20.7°C 48.8°F9.3°C 48% 7.6 mph NW12.2 kmh NW 11.4 mph18.3 kmh 29.79 in1008.8 mb 0.00 in0.0 mm 0.00 in0.0 mm 0.00 in0.0 mm
07:13 AM 69.3°F20.7°C 48.2°F9.0°C 47% 3.8 mph NW6.1 kmh NW 11.4 mph18.3 kmh 29.79 in1008.8 mb 0.00 in0.0 mm 0.00 in0.0 mm 0.00 in0.0 mm
07:14 AM 69.4°F20.8°C 48.4°F9.1°C 47% 2.2 mph NW3.5 kmh NW 11.4 mph18.3 kmh 29.79 in1008.8 mb 0.00 in0.0 mm 0.00 in0.0 mm 0.00 in0.0 mm
07:15 AM 69.6°F20.9°C 48.5°F9.2°C 47% 4.5 mph NW7.2 kmh NW 11.4 mph18.3 kmh 29.79 in1008.8 mb 0.00 in0.0 mm 0.00 in0.0 mm 0.00 in0.0 mm
07:16 AM 69.6°F20.9°C 48.5°F9.2°C 47% 5.4 mph NW8.7 kmh NW 11.4 mph18.3 kmh 29.79 in1008.8 mb 0.00 in0.0 mm 0.00 in0.0 mm 0.00 in0.0 mm
07:17 AM 69.6°F20.9°C 48.5°F9.2°C 47% 3.8 mph NW6.1 kmh NW 11.4 mph18.3 kmh 29.80 in1009.1 mb 0.00 in0.0 mm 0.00 in0.0 mm 0.00 in0.0 mm
07:18 AM 69.8°F21.0°C 48.1°F8.9°C 46% 2.2 mph NW3.5 kmh NW 11.4 mph18.3 kmh 29.79 in1008.8 mb 0.00 in0.0 mm 0.00 in0.0 mm 0.00 in0.0 mm
07:19 AM 70.0°F21.1°C 48.3°F9.1°C 46% 3.1 mph NW5.0 kmh NW 11.4 mph18.3 kmh 29.80 in1009.1 mb 0.00 in0.0 mm 0.00 in0.0 mm 0.00 in0.0 mm
07:20 AM 70.2°F21.2°C 48.4°F9.1°C 46% 3.8 mph NW6.1 kmh NW 11.4 mph18.3 kmh 29.79 in1008.8 mb 0.00 in0.0 mm 0.00 in0.0 mm 0.00 in0.0 mm
07:21 AM 70.3°F21.3°C 48.6°F9.2°C 46% 5.4 mph NW8.7 kmh NW 11.4 mph18.3 kmh 29.80 in1009.1 mb 0.00 in0.0 mm 0.00 in0.0 mm 0.00 in0.0 mm
07:22 AM 70.5°F21.4°C 48.8°F9.3°C 46% 3.1 mph NW5.0 kmh NW 11.4 mph18.3 kmh 29.80 in1009.1 mb 0.00 in0.0 mm 0.00 in0.0 mm 0.00 in0.0 mm
07:23 AM 70.7°F21.5°C 48.9°F9.4°C 46% 3.8 mph NW6.1 kmh NW 10.7 mph17.2 kmh 29.79 in1008.8 mb 0.00 in0.0 mm 0.00 in0.0 mm 0.00 in0.0 mm
07:24 AM 70.7°F21.5°C 48.3°F9.1°C 45% 4.5 mph NW7.2 kmh NW 10.7 mph17.2 kmh 29.79 in1008.8 mb 0.00 in0.0 mm 0.00 in0.0 mm 0.00 in0.0 mm
07:25 AM 70.7°F21.5°C 48.3°F9.1°C 45% 3.1 mph NW5.0 kmh NW 10.7 mph17.2 kmh 29.80 in1009.1 mb 0.00 in0.0 mm 0.00 in0.0 mm 0.00 in0.0 mm
07:26 AM 70.9°F21.6°C 48.5°F9.2°C 45% 3.1 mph NW5.0 kmh NW 8.3 mph13.4 kmh 29.79 in1008.8 mb 0.00 in0.0 mm 0.00 in0.0 mm 0.00 in0.0 mm
07:27 AM 71.1°F21.7°C 49.3°F9.6°C 46% 2.2 mph NW3.5 kmh NW 8.3 mph13.4 kmh 29.79 in1008.8 mb 0.00 in0.0 mm 0.00 in0.0 mm 0.00 in0.0 mm
07:28 AM 71.2°F21.8°C 49.4°F9.7°C 46% 2.2 mph NW3.5 kmh NW 8.3 mph13.4 kmh 29.79 in1008.8 mb 0.00 in0.0 mm 0.00 in0.0 mm 0.00 in0.0 mm
07:29 AM 71.4°F21.9°C 49.6°F9.8°C 46% 4.5 mph NW7.2 kmh NW 8.3 mph13.4 kmh 29.80 in1009.1 mb 0.00 in0.0 mm 0.00 in0.0 mm 0.00 in0.0 mm
07:30 AM 71.6°F22.0°C 48.6°F9.2°C 44% 3.1 mph NW5.0 kmh NW 8.3 mph13.4 kmh 29.80 in1009.1 mb 0.00 in0.0 mm 0.00 in0.0 mm 0.00 in0.0 mm
07:31 AM 71.6°F22.0°C 48.6°F9.2°C 44% 3.1 mph WNW5.0 kmh WNW 8.3 mph13.4 kmh 29.80 in1009.1 mb 0.00 in0.0 mm 0.00 in0.0 mm 0.00 in0.0 mm
07:32 AM 71.6°F22.0°C 48.6°F9.2°C 44% 5.4 mph WNW8.7 kmh WNW 8.3 mph13.4 kmh 29.79 in1008.8 mb 0.00 in0.0 mm 0.00 in0.0 mm 0.00 in0.0 mm
07:33 AM 71.6°F22.0°C 48.6°F9.2°C 44% 2.2 mph WNW3.5 kmh WNW 8.3 mph13.4 kmh 29.80 in1009.1 mb 0.00 in0.0 mm 0.00 in0.0 mm 0.00 in0.0 mm
07:34 AM 71.6°F22.0°C 48.6°F9.2°C 44% 6.0 mph WNW9.7 kmh WNW 9.2 mph14.8 kmh 29.80 in1009.1 mb 0.00 in0.0 mm 0.00 in0.0 mm 0.00 in0.0 mm
07:35 AM 71.6°F22.0°C 47.9°F8.8°C 43% 5.4 mph NW8.7 kmh NW 9.8 mph15.8 kmh 29.80 in1009.1 mb 0.00 in0.0 mm 0.00 in0.0 mm 0.00 in0.0 mm
07:36 AM 71.6°F22.0°C 47.9°F8.8°C 43% 4.5 mph NW7.2 kmh NW 9.8 mph15.8 kmh 29.80 in1009.1 mb 0.00 in0.0 mm 0.00 in0.0 mm 0.00 in0.0 mm
07:37 AM 71.4°F21.9°C 48.4°F9.1°C 44% 3.1 mph NW5.0 kmh NW 9.8 mph15.8 kmh 29.80 in1009.1 mb 0.00 in0.0 mm 0.00 in0.0 mm 0.00 in0.0 mm
07:38 AM 71.4°F21.9°C 48.4°F9.1°C 44% 5.4 mph NW8.7 kmh NW 9.8 mph15.8 kmh 29.80 in1009.1 mb 0.00 in0.0 mm 0.00 in0.0 mm 0.00 in0.0 mm
07:39 AM 71.4°F21.9°C 48.4°F9.1°C 44% 4.5 mph NW7.2 kmh NW 9.8 mph15.8 kmh 29.80 in1009.1 mb 0.00 in0.0 mm 0.00 in0.0 mm 0.00 in0.0 mm
07:40 AM 71.6°F22.0°C 47.9°F8.8°C 43% 6.9 mph WNW11.1 kmh WNW 9.8 mph15.8 kmh 29.80 in1009.1 mb 0.00 in0.0 mm 0.00 in0.0 mm 0.00 in0.0 mm
07:41 AM 71.4°F21.9°C 47.8°F8.8°C 43% 7.6 mph NW12.2 kmh NW 11.4 mph18.3 kmh 29.80 in1009.1 mb 0.00 in0.0 mm 0.00 in0.0 mm 0.00 in0.0 mm
07:42 AM 71.4°F21.9°C 47.8°F8.8°C 43% 4.5 mph NW7.2 kmh NW 11.4 mph18.3 kmh 29.80 in1009.1 mb 0.00 in0.0 mm 0.00 in0.0 mm 0.00 in0.0 mm
07:43 AM 71.2°F21.8°C 47.6°F8.7°C 43% 6.0 mph NW9.7 kmh NW 11.4 mph18.3 kmh 29.80 in1009.1 mb 0.00 in0.0 mm 0.00 in0.0 mm 0.00 in0.0 mm
07:44 AM 71.2°F21.8°C 47.6°F8.7°C 43% 4.5 mph NW7.2 kmh NW 11.4 mph18.3 kmh 29.80 in1009.1 mb 0.00 in0.0 mm 0.00 in0.0 mm 0.00 in0.0 mm
07:45 AM 71.2°F21.8°C 47.6°F8.7°C 43% 5.4 mph NW8.7 kmh NW 11.4 mph18.3 kmh 29.80 in1009.1 mb 0.00 in0.0 mm 0.00 in0.0 mm 0.00 in0.0 mm
07:46 AM 71.2°F21.8°C 47.6°F8.7°C 43% 9.8 mph NW15.8 kmh NW 13.6 mph21.9 kmh 29.80 in1009.1 mb 0.00 in0.0 mm 0.00 in0.0 mm 0.00 in0.0 mm
07:47 AM 71.1°F21.7°C 47.5°F8.6°C 43% 5.4 mph NW8.7 kmh NW 13.6 mph21.9 kmh 29.80 in1009.1 mb 0.00 in0.0 mm 0.00 in0.0 mm 0.00 in0.0 mm
07:48 AM 71.1°F21.7°C 47.5°F8.6°C 43% 6.9 mph NW11.1 kmh NW 13.6 mph21.9 kmh 29.80 in1009.1 mb 0.00 in0.0 mm 0.00 in0.0 mm 0.00 in0.0 mm
07:49 AM 71.1°F21.7°C 47.5°F8.6°C 43% 6.0 mph NW9.7 kmh NW 13.6 mph21.9 kmh 29.80 in1009.1 mb 0.00 in0.0 mm 0.00 in0.0 mm 0.00 in0.0 mm
07:50 AM 71.1°F21.7°C 47.5°F8.6°C 43% 5.4 mph NW8.7 kmh NW 13.6 mph21.9 kmh 29.81 in1009.5 mb 0.00 in0.0 mm 0.00 in0.0 mm 0.00 in0.0 mm
07:51 AM 71.2°F21.8°C 48.2°F9.0°C 44% 6.9 mph NW11.1 kmh NW 13.6 mph21.9 kmh 29.80 in1009.1 mb 0.00 in0.0 mm 0.00 in0.0 mm 0.00 in0.0 mm
07:52 AM 71.4°F21.9°C 48.4°F9.1°C 44% 3.8 mph NW6.1 kmh NW 13.6 mph21.9 kmh 29.80 in1009.1 mb 0.00 in0.0 mm 0.00 in0.0 mm 0.00 in0.0 mm
07:53 AM 71.4°F21.9°C 48.4°F9.1°C 44% 5.4 mph NW8.7 kmh NW 13.6 mph21.9 kmh 29.81 in1009.5 mb 0.00 in0.0 mm 0.00 in0.0 mm 0.00 in0.0 mm
07:54 AM 71.6°F22.0°C 47.9°F8.8°C 43% 6.0 mph NW9.7 kmh NW 13.6 mph21.9 kmh 29.80 in1009.1 mb 0.00 in0.0 mm 0.00 in0.0 mm 0.00 in0.0 mm
07:55 AM 71.6°F22.0°C 47.9°F8.8°C 43% 3.8 mph NW6.1 kmh NW 13.6 mph21.9 kmh 29.81 in1009.5 mb 0.00 in0.0 mm 0.00 in0.0 mm 0.00 in0.0 mm
07:56 AM 71.6°F22.0°C 47.9°F8.8°C 43% 6.0 mph NW9.7 kmh NW 12.1 mph19.5 kmh 29.81 in1009.5 mb 0.00 in0.0 mm 0.00 in0.0 mm 0.00 in0.0 mm
07:57 AM 71.8°F22.1°C 48.1°F8.9°C 43% 3.8 mph NW6.1 kmh NW 12.1 mph19.5 kmh 29.80 in1009.1 mb 0.00 in0.0 mm 0.00 in0.0 mm 0.00 in0.0 mm
07:58 AM 71.8°F22.1°C 48.1°F8.9°C 43% 6.9 mph WNW11.1 kmh WNW 12.1 mph19.5 kmh 29.81 in1009.5 mb 0.00 in0.0 mm 0.00 in0.0 mm 0.00 in0.0 mm
07:59 AM 72.0°F22.2°C 48.3°F9.1°C 43% 3.8 mph WNW6.1 kmh WNW 12.1 mph19.5 kmh 29.80 in1009.1 mb 0.00 in0.0 mm 0.00 in0.0 mm 0.00 in0.0 mm
08:00 AM 72.1°F22.3°C 48.4°F9.1°C 43% 5.4 mph WNW8.7 kmh WNW 12.1 mph19.5 kmh 29.81 in1009.5 mb 0.00 in0.0 mm 0.00 in0.0 mm 0.00 in0.0 mm
08:01 AM 72.1°F22.3°C 48.4°F9.1°C 43% 3.8 mph WNW6.1 kmh WNW 12.1 mph19.5 kmh 29.81 in1009.5 mb 0.00 in0.0 mm 0.00 in0.0 mm 0.00 in0.0 mm
08:02 AM 72.3°F22.4°C 48.6°F9.2°C 43% 4.5 mph WNW7.2 kmh WNW 12.1 mph19.5 kmh 29.81 in1009.5 mb 0.00 in0.0 mm 0.00 in0.0 mm 0.00 in0.0 mm
08:03 AM 72.5°F22.5°C 48.8°F9.3°C 43% 5.4 mph WNW8.7 kmh WNW 12.1 mph19.5 kmh 29.81 in1009.5 mb 0.00 in0.0 mm 0.00 in0.0 mm 0.00 in0.0 mm
08:04 AM 72.9°F22.7°C 49.1°F9.5°C 43% 3.1 mph WNW5.0 kmh WNW 12.1 mph19.5 kmh 29.81 in1009.5 mb 0.00 in0.0 mm 0.00 in0.0 mm 0.00 in0.0 mm
08:05 AM 73.0°F22.8°C 49.2°F9.6°C 43% 4.5 mph NW7.2 kmh NW 12.1 mph19.5 kmh 29.81 in1009.5 mb 0.00 in0.0 mm 0.00 in0.0 mm 0.00 in0.0 mm
08:06 AM 73.2°F22.9°C 49.4°F9.7°C 43% 4.5 mph NW7.2 kmh NW 12.1 mph19.5 kmh 29.81 in1009.5 mb 0.00 in0.0 mm 0.00 in0.0 mm 0.00 in0.0 mm
08:07 AM 73.2°F22.9°C 48.8°F9.3°C 42% 5.4 mph NW8.7 kmh NW 10.7 mph17.2 kmh 29.81 in1009.5 mb 0.00 in0.0 mm 0.00 in0.0 mm 0.00 in0.0 mm
08:08 AM 73.2°F22.9°C 48.8°F9.3°C 42% 3.1 mph NW5.0 kmh NW 10.7 mph17.2 kmh 29.81 in1009.5 mb 0.00 in0.0 mm 0.00 in0.0 mm 0.00 in0.0 mm
08:09 AM 73.4°F23.0°C 50.8°F10.4°C 45% 4.5 mph NW7.2 kmh NW 10.7 mph17.2 kmh 29.81 in1009.5 mb 0.00 in0.0 mm 0.00 in0.0 mm 0.00 in0.0 mm
08:10 AM 73.6°F23.1°C 51.0°F10.6°C 45% 4.5 mph NW7.2 kmh NW 11.4 mph18.3 kmh 29.81 in1009.5 mb 0.00 in0.0 mm 0.00 in0.0 mm 0.00 in0.0 mm
08:11 AM 73.8°F23.2°C 50.5°F10.3°C 44% 4.5 mph NW7.2 kmh NW 11.4 mph18.3 kmh 29.81 in1009.5 mb 0.00 in0.0 mm 0.00 in0.0 mm 0.00 in0.0 mm
08:12 AM 73.8°F23.2°C 50.5°F10.3°C 44% 3.8 mph NW6.1 kmh NW 11.4 mph18.3 kmh 29.81 in1009.5 mb 0.00 in0.0 mm 0.00 in0.0 mm 0.00 in0.0 mm
08:13 AM 73.8°F23.2°C 50.5°F10.3°C 44% 3.8 mph NW6.1 kmh NW 11.4 mph18.3 kmh 29.81 in1009.5 mb 0.00 in0.0 mm 0.00 in0.0 mm 0.00 in0.0 mm
08:14 AM 73.8°F23.2°C 50.5°F10.3°C 44% 4.5 mph NW7.2 kmh NW 11.4 mph18.3 kmh 29.81 in1009.5 mb 0.00 in0.0 mm 0.00 in0.0 mm 0.00 in0.0 mm
08:15 AM 74.1°F23.4°C 50.2°F10.1°C 43% 6.0 mph NW9.7 kmh NW 11.4 mph18.3 kmh 29.81 in1009.5 mb 0.00 in0.0 mm 0.00 in0.0 mm 0.00 in0.0 mm
08:16 AM 74.1°F23.4°C 50.2°F10.1°C 43% 3.8 mph NW6.1 kmh NW 11.4 mph18.3 kmh 29.81 in1009.5 mb 0.00 in0.0 mm 0.00 in0.0 mm 0.00 in0.0 mm
08:17 AM 74.1°F23.4°C 50.2°F10.1°C 43% 3.8 mph NW6.1 kmh NW 11.4 mph18.3 kmh 29.81 in1009.5 mb 0.00 in0.0 mm 0.00 in0.0 mm 0.00 in0.0 mm
08:18 AM 74.1°F23.4°C 50.2°F10.1°C 43% 5.4 mph NW8.7 kmh NW 11.4 mph18.3 kmh 29.81 in1009.5 mb 0.00 in0.0 mm 0.00 in0.0 mm 0.00 in0.0 mm
08:19 AM 74.1°F23.4°C 50.2°F10.1°C 43% 7.6 mph NW12.2 kmh NW 11.4 mph18.3 kmh 29.81 in1009.5 mb 0.00 in0.0 mm 0.00 in0.0 mm 0.00 in0.0 mm
08:20 AM 74.1°F23.4°C 50.2°F10.1°C 43% 5.4 mph NW8.7 kmh NW 11.4 mph18.3 kmh 29.81 in1009.5 mb 0.00 in0.0 mm 0.00 in0.0 mm 0.00 in0.0 mm
08:21 AM 74.1°F23.4°C 50.2°F10.1°C 43% 6.0 mph NW9.7 kmh NW 11.4 mph18.3 kmh 29.81 in1009.5 mb 0.00 in0.0 mm 0.00 in0.0 mm 0.00 in0.0 mm
08:22 AM 74.1°F23.4°C 50.2°F10.1°C 43% 5.4 mph NW8.7 kmh NW 11.4 mph18.3 kmh 29.81 in1009.5 mb 0.00 in0.0 mm 0.00 in0.0 mm 0.00 in0.0 mm
08:23 AM 74.1°F23.4°C 50.2°F10.1°C 43% 5.4 mph NW8.7 kmh NW 13.0 mph20.9 kmh 29.81 in1009.5 mb 0.00 in0.0 mm 0.00 in0.0 mm 0.00 in0.0 mm
08:24 AM 74.1°F23.4°C 50.2°F10.1°C 43% 6.0 mph NW9.7 kmh NW 13.0 mph20.9 kmh 29.81 in1009.5 mb 0.00 in0.0 mm 0.00 in0.0 mm 0.00 in0.0 mm
08:25 AM 74.1°F23.4°C 50.2°F10.1°C 43% 5.4 mph NW8.7 kmh NW 13.0 mph20.9 kmh 29.81 in1009.5 mb 0.00 in0.0 mm 0.00 in0.0 mm 0.00 in0.0 mm
08:26 AM 74.1°F23.4°C 50.2°F10.1°C 43% 4.5 mph NW7.2 kmh NW 13.0 mph20.9 kmh 29.81 in1009.5 mb 0.00 in0.0 mm 0.00 in0.0 mm 0.00 in0.0 mm
08:27 AM 74.5°F23.6°C 50.5°F10.3°C 43% 4.5 mph NW7.2 kmh NW 13.0 mph20.9 kmh 29.81 in1009.5 mb 0.00 in0.0 mm 0.00 in0.0 mm 0.00 in0.0 mm
08:28 AM 74.7°F23.7°C 50.7°F10.4°C 43% 5.4 mph NW8.7 kmh NW 13.0 mph20.9 kmh 29.81 in1009.5 mb 0.00 in0.0 mm 0.00 in0.0 mm 0.00 in0.0 mm
08:29 AM 74.7°F23.7°C 50.1°F10.1°C 42% 7.6 mph NW12.2 kmh NW 13.0 mph20.9 kmh 29.81 in1009.5 mb 0.00 in0.0 mm 0.00 in0.0 mm 0.00 in0.0 mm
08:30 AM 74.8°F23.8°C 50.9°F10.5°C 43% 7.6 mph NW12.2 kmh NW 13.0 mph20.9 kmh 29.82 in1009.8 mb 0.00 in0.0 mm 0.00 in0.0 mm 0.00 in0.0 mm
08:31 AM 74.7°F23.7°C 50.1°F10.1°C 42% 8.3 mph NW13.4 kmh NW 13.0 mph20.9 kmh 29.82 in1009.8 mb 0.00 in0.0 mm 0.00 in0.0 mm 0.00 in0.0 mm
08:32 AM 74.7°F23.7°C 50.1°F10.1°C 42% 6.9 mph NW11.1 kmh NW 13.0 mph20.9 kmh 29.81 in1009.5 mb 0.00 in0.0 mm 0.00 in0.0 mm 0.00 in0.0 mm
08:33 AM 74.5°F23.6°C 49.9°F9.9°C 42% 7.6 mph NW12.2 kmh NW 13.0 mph20.9 kmh 29.81 in1009.5 mb 0.00 in0.0 mm 0.00 in0.0 mm 0.00 in0.0 mm
08:34 AM 74.5°F23.6°C 49.9°F9.9°C 42% 9.2 mph NW14.8 kmh NW 13.0 mph20.9 kmh 29.81 in1009.5 mb 0.00 in0.0 mm 0.00 in0.0 mm 0.00 in0.0 mm
08:35 AM 74.5°F23.6°C 49.9°F9.9°C 42% 6.9 mph NW11.1 kmh NW 13.0 mph20.9 kmh 29.81 in1009.5 mb 0.00 in0.0 mm 0.00 in0.0 mm 0.00 in0.0 mm
08:36 AM 74.5°F23.6°C 49.9°F9.9°C 42% 6.9 mph NW11.1 kmh NW 13.0 mph20.9 kmh 29.81 in1009.5 mb 0.00 in0.0 mm 0.00 in0.0 mm 0.00 in0.0 mm
08:37 AM 74.5°F23.6°C 49.9°F9.9°C 42% 4.5 mph NW7.2 kmh NW 13.0 mph20.9 kmh 29.81 in1009.5 mb 0.00 in0.0 mm 0.00 in0.0 mm 0.00 in0.0 mm
08:38 AM 74.5°F23.6°C 49.9°F9.9°C 42% 6.9 mph NW11.1 kmh NW 13.0 mph20.9 kmh 29.82 in1009.8 mb 0.00 in0.0 mm 0.00 in0.0 mm 0.00 in0.0 mm
08:39 AM 74.7°F23.7°C 50.1°F10.1°C 42% 7.6 mph NW12.2 kmh NW 13.0 mph20.9 kmh 29.81 in1009.5 mb 0.00 in0.0 mm 0.00 in0.0 mm 0.00 in0.0 mm
08:40 AM 74.7°F23.7°C 50.1°F10.1°C 42% 7.6 mph NW12.2 kmh NW 13.0 mph20.9 kmh 29.82 in1009.8 mb 0.00 in0.0 mm 0.00 in0.0 mm 0.00 in0.0 mm
08:41 AM 74.8°F23.8°C 50.2°F10.1°C 42% 7.6 mph NW12.2 kmh NW 13.0 mph20.9 kmh 29.82 in1009.8 mb 0.00 in0.0 mm 0.00 in0.0 mm 0.00 in0.0 mm
08:42 AM 74.8°F23.8°C 50.2°F10.1°C 42% 3.8 mph NW6.1 kmh NW 13.0 mph20.9 kmh 29.81 in1009.5 mb 0.00 in0.0 mm 0.00 in0.0 mm 0.00 in0.0 mm
08:43 AM 75.0°F23.9°C 50.4°F10.2°C 42% 5.4 mph NW8.7 kmh NW 13.0 mph20.9 kmh 29.81 in1009.5 mb 0.00 in0.0 mm 0.00 in0.0 mm 0.00 in0.0 mm
08:44 AM 75.2°F24.0°C 50.6°F10.3°C 42% 3.1 mph WNW5.0 kmh WNW 13.0 mph20.9 kmh 29.82 in1009.8 mb 0.00 in0.0 mm 0.00 in0.0 mm 0.00 in0.0 mm
08:45 AM 75.4°F24.1°C 50.7°F10.4°C 42% 6.0 mph WNW9.7 kmh WNW 11.4 mph18.3 kmh 29.82 in1009.8 mb 0.00 in0.0 mm 0.00 in0.0 mm 0.00 in0.0 mm
08:46 AM 75.7°F24.3°C 51.1°F10.6°C 42% 5.4 mph NW8.7 kmh NW 11.4 mph18.3 kmh 29.82 in1009.8 mb 0.00 in0.0 mm 0.00 in0.0 mm 0.00 in0.0 mm
08:47 AM 76.1°F24.5°C 50.7°F10.4°C 41% 5.4 mph NW8.7 kmh NW 11.4 mph18.3 kmh 29.82 in1009.8 mb 0.00 in0.0 mm 0.00 in0.0 mm 0.00 in0.0 mm
08:48 AM 76.1°F24.5°C 50.7°F10.4°C 41% 6.9 mph NW11.1 kmh NW 11.4 mph18.3 kmh 29.81 in1009.5 mb 0.00 in0.0 mm 0.00 in0.0 mm 0.00 in0.0 mm
08:49 AM 76.3°F24.6°C 50.2°F10.1°C 40% 6.0 mph NW9.7 kmh NW 11.4 mph18.3 kmh 29.81 in1009.5 mb 0.00 in0.0 mm 0.00 in0.0 mm 0.00 in0.0 mm
08:50 AM 76.1°F24.5°C 50.1°F10.1°C 40% 6.9 mph NW11.1 kmh NW 12.1 mph19.5 kmh 29.82 in1009.8 mb 0.00 in0.0 mm 0.00 in0.0 mm 0.00 in0.0 mm
08:51 AM 76.1°F24.5°C 50.1°F10.1°C 40% 6.9 mph NW11.1 kmh NW 12.1 mph19.5 kmh 29.81 in1009.5 mb 0.00 in0.0 mm 0.00 in0.0 mm 0.00 in0.0 mm
08:52 AM 76.3°F24.6°C 50.2°F10.1°C 40% 4.5 mph NW7.2 kmh NW 12.1 mph19.5 kmh 29.81 in1009.5 mb 0.00 in0.0 mm 0.00 in0.0 mm 0.00 in0.0 mm
08:53 AM 76.3°F24.6°C 50.9°F10.5°C 41% 6.0 mph NW9.7 kmh NW 12.1 mph19.5 kmh 29.82 in1009.8 mb 0.00 in0.0 mm 0.00 in0.0 mm 0.00 in0.0 mm
08:54 AM 76.5°F24.7°C 51.0°F10.6°C 41% 3.8 mph NW6.1 kmh NW 12.1 mph19.5 kmh 29.81 in1009.5 mb 0.00 in0.0 mm 0.00 in0.0 mm 0.00 in0.0 mm
08:55 AM 76.6°F24.8°C 50.5°F10.3°C 40% 6.9 mph NW11.1 kmh NW 13.0 mph20.9 kmh 29.82 in1009.8 mb 0.00 in0.0 mm 0.00 in0.0 mm 0.00 in0.0 mm
08:56 AM 76.8°F24.9°C 50.7°F10.4°C 40% 7.6 mph NW12.2 kmh NW 13.0 mph20.9 kmh 29.81 in1009.5 mb 0.00 in0.0 mm 0.00 in0.0 mm 0.00 in0.0 mm
08:57 AM 76.8°F24.9°C 50.7°F10.4°C 40% 7.6 mph NW12.2 kmh NW 13.0 mph20.9 kmh 29.82 in1009.8 mb 0.00 in0.0 mm 0.00 in0.0 mm 0.00 in0.0 mm
08:58 AM 76.8°F24.9°C 50.7°F10.4°C 40% 8.3 mph NW13.4 kmh NW 13.0 mph20.9 kmh 29.81 in1009.5 mb 0.00 in0.0 mm 0.00 in0.0 mm 0.00 in0.0 mm
08:59 AM 76.8°F24.9°C 50.7°F10.4°C 40% 6.0 mph NW9.7 kmh NW 13.0 mph20.9 kmh 29.82 in1009.8 mb 0.00 in0.0 mm 0.00 in0.0 mm 0.00 in0.0 mm
09:00 AM 76.8°F24.9°C 50.7°F10.4°C 40% 6.9 mph NW11.1 kmh NW 13.0 mph20.9 kmh 29.82 in1009.8 mb 0.00 in0.0 mm 0.00 in0.0 mm 0.00 in0.0 mm
09:01 AM 76.8°F24.9°C 50.7°F10.4°C 40% 5.4 mph NW8.7 kmh NW 13.0 mph20.9 kmh 29.81 in1009.5 mb 0.00 in0.0 mm 0.00 in0.0 mm 0.00 in0.0 mm
09:02 AM 77.0°F25.0°C 49.5°F9.7°C 38% 3.8 mph NNW6.1 kmh NNW 13.0 mph20.9 kmh 29.81 in1009.5 mb 0.00 in0.0 mm 0.00 in0.0 mm 0.00 in0.0 mm
09:03 AM 77.0°F25.0°C 49.5°F9.7°C 38% 7.6 mph NNW12.2 kmh NNW 13.0 mph20.9 kmh 29.82 in1009.8 mb 0.00 in0.0 mm 0.00 in0.0 mm 0.00 in0.0 mm
09:04 AM 77.2°F25.1°C 49.6°F9.8°C 38% 4.5 mph NNW7.2 kmh NNW 13.0 mph20.9 kmh 29.82 in1009.8 mb 0.00 in0.0 mm 0.00 in0.0 mm 0.00 in0.0 mm
09:05 AM 77.4°F25.2°C 49.8°F9.9°C 38% 9.2 mph NNW14.8 kmh NNW 13.0 mph20.9 kmh 29.82 in1009.8 mb 0.00 in0.0 mm 0.00 in0.0 mm 0.00 in0.0 mm
09:06 AM 77.4°F25.2°C 49.1°F9.5°C 37% 6.0 mph NNW9.7 kmh NNW 13.0 mph20.9 kmh 29.81 in1009.5 mb 0.00 in0.0 mm 0.00 in0.0 mm 0.00 in0.0 mm
09:07 AM 77.5°F25.3°C 49.2°F9.6°C 37% 6.9 mph NNW11.1 kmh NNW 14.5 mph23.3 kmh 29.82 in1009.8 mb 0.00 in0.0 mm 0.00 in0.0 mm 0.00 in0.0 mm
09:08 AM 77.5°F25.3°C 49.2°F9.6°C 37% 6.0 mph NNW9.7 kmh NNW 14.5 mph23.3 kmh 29.82 in1009.8 mb 0.00 in0.0 mm 0.00 in0.0 mm 0.00 in0.0 mm
09:09 AM 77.5°F25.3°C 49.2°F9.6°C 37% 8.3 mph NNW13.4 kmh NNW 14.5 mph23.3 kmh 29.82 in1009.8 mb 0.00 in0.0 mm 0.00 in0.0 mm 0.00 in0.0 mm
09:10 AM 77.5°F25.3°C 49.2°F9.6°C 37% 3.1 mph NNW5.0 kmh NNW 14.5 mph23.3 kmh 29.82 in1009.8 mb 0.00 in0.0 mm 0.00 in0.0 mm 0.00 in0.0 mm
09:11 AM 77.7°F25.4°C 49.4°F9.7°C 37% 3.8 mph NW6.1 kmh NW 14.5 mph23.3 kmh 29.82 in1009.8 mb 0.00 in0.0 mm 0.00 in0.0 mm 0.00 in0.0 mm
09:12 AM 77.7°F25.4°C 49.4°F9.7°C 37% 4.5 mph NW7.2 kmh NW 14.5 mph23.3 kmh 29.82 in1009.8 mb 0.00 in0.0 mm 0.00 in0.0 mm 0.00 in0.0 mm
09:13 AM 77.9°F25.5°C 49.6°F9.8°C 37% 6.0 mph NW9.7 kmh NW 14.5 mph23.3 kmh 29.82 in1009.8 mb 0.00 in0.0 mm 0.00 in0.0 mm 0.00 in0.0 mm
09:14 AM 78.1°F25.6°C 49.7°F9.8°C 37% 6.9 mph NW11.1 kmh NW 14.5 mph23.3 kmh 29.82 in1009.8 mb 0.00 in0.0 mm 0.00 in0.0 mm 0.00 in0.0 mm
09:15 AM 78.4°F25.8°C 49.3°F9.6°C 36% 3.8 mph NW6.1 kmh NW 14.5 mph23.3 kmh 29.82 in1009.8 mb 0.00 in0.0 mm 0.00 in0.0 mm 0.00 in0.0 mm
09:16 AM 78.4°F25.8°C 50.0°F10.0°C 37% 6.0 mph NW9.7 kmh NW 14.5 mph23.3 kmh 29.81 in1009.5 mb 0.00 in0.0 mm 0.00 in0.0 mm 0.00 in0.0 mm
09:17 AM 78.6°F25.9°C 49.5°F9.7°C 36% 5.4 mph NW8.7 kmh NW 14.5 mph23.3 kmh 29.82 in1009.8 mb 0.00 in0.0 mm 0.00 in0.0 mm 0.00 in0.0 mm
09:18 AM 78.6°F25.9°C 49.5°F9.7°C 36% 5.4 mph NW8.7 kmh NW 14.5 mph23.3 kmh 29.82 in1009.8 mb 0.00 in0.0 mm 0.00 in0.0 mm 0.00 in0.0 mm
09:19 AM 79.0°F26.1°C 49.0°F9.4°C 35% 9.2 mph NW14.8 kmh NW 14.5 mph23.3 kmh 29.81 in1009.5 mb 0.00 in0.0 mm 0.00 in0.0 mm 0.00 in0.0 mm
09:20 AM 78.8°F26.0°C 48.9°F9.4°C 35% 5.4 mph NW8.7 kmh NW 14.5 mph23.3 kmh 29.81 in1009.5 mb 0.00 in0.0 mm 0.00 in0.0 mm 0.00 in0.0 mm
09:21 AM 78.8°F26.0°C 48.9°F9.4°C 35% 4.5 mph NW7.2 kmh NW 14.5 mph23.3 kmh 29.81 in1009.5 mb 0.00 in0.0 mm 0.00 in0.0 mm 0.00 in0.0 mm
09:22 AM 79.0°F26.1°C 49.0°F9.4°C 35% 6.9 mph NW11.1 kmh NW 14.5 mph23.3 kmh 29.82 in1009.8 mb 0.00 in0.0 mm 0.00 in0.0 mm 0.00 in0.0 mm
09:23 AM 79.0°F26.1°C 49.0°F9.4°C 35% 7.6 mph NW12.2 kmh NW 14.5 mph23.3 kmh 29.82 in1009.8 mb 0.00 in0.0 mm 0.00 in0.0 mm 0.00 in0.0 mm
09:24 AM 79.0°F26.1°C 49.0°F9.4°C 35% 6.9 mph NW11.1 kmh NW 13.6 mph21.9 kmh 29.82 in1009.8 mb 0.00 in0.0 mm 0.00 in0.0 mm 0.00 in0.0 mm
09:25 AM 79.0°F26.1°C 49.0°F9.4°C 35% 6.9 mph NW11.1 kmh NW 13.6 mph21.9 kmh 29.81 in1009.5 mb 0.00 in0.0 mm 0.00 in0.0 mm 0.00 in0.0 mm
09:26 AM 79.2°F26.2°C 49.9°F9.9°C 36% 3.8 mph NW6.1 kmh NW 13.6 mph21.9 kmh 29.82 in1009.8 mb 0.00 in0.0 mm 0.00 in0.0 mm 0.00 in0.0 mm
09:27 AM 79.5°F26.4°C 50.3°F10.2°C 36% 3.1 mph NW5.0 kmh NW 13.6 mph21.9 kmh 29.82 in1009.8 mb 0.00 in0.0 mm 0.00 in0.0 mm 0.00 in0.0 mm
09:28 AM 79.7°F26.5°C 50.4°F10.2°C 36% 6.0 mph NW9.7 kmh NW 13.6 mph21.9 kmh 29.82 in1009.8 mb 0.00 in0.0 mm 0.00 in0.0 mm 0.00 in0.0 mm
09:29 AM 80.1°F26.7°C 50.0°F10.0°C 35% 7.6 mph NW12.2 kmh NW 13.6 mph21.9 kmh 29.82 in1009.8 mb 0.00 in0.0 mm 0.00 in0.0 mm 0.00 in0.0 mm
09:30 AM 80.2°F26.8°C 50.1°F10.1°C 35% 3.8 mph NW6.1 kmh NW 12.1 mph19.5 kmh 29.82 in1009.8 mb 0.00 in0.0 mm 0.00 in0.0 mm 0.00 in0.0 mm
09:31 AM 80.2°F26.8°C 50.1°F10.1°C 35% 4.5 mph NW7.2 kmh NW 12.1 mph19.5 kmh 29.82 in1009.8 mb 0.00 in0.0 mm 0.00 in0.0 mm 0.00 in0.0 mm
09:32 AM 80.4°F26.9°C 50.3°F10.2°C 35% 3.1 mph NW5.0 kmh NW 12.1 mph19.5 kmh 29.82 in1009.8 mb 0.00 in0.0 mm 0.00 in0.0 mm 0.00 in0.0 mm
09:33 AM 80.6°F27.0°C 49.7°F9.8°C 34% 7.6 mph NW12.2 kmh NW 12.1 mph19.5 kmh 29.82 in1009.8 mb 0.00 in0.0 mm 0.00 in0.0 mm 0.00 in0.0 mm
09:34 AM 80.8°F27.1°C 49.0°F9.4°C 33% 3.8 mph NW6.1 kmh NW 12.1 mph19.5 kmh 29.81 in1009.5 mb 0.00 in0.0 mm 0.00 in0.0 mm 0.00 in0.0 mm
09:35 AM 81.1°F27.3°C 49.3°F9.6°C 33% 6.0 mph NW9.7 kmh NW 12.1 mph19.5 kmh 29.82 in1009.8 mb 0.00 in0.0 mm 0.00 in0.0 mm 0.00 in0.0 mm
09:36 AM 81.3°F27.4°C 49.5°F9.7°C 33% 9.2 mph NW14.8 kmh NW 13.0 mph20.9 kmh 29.81 in1009.5 mb 0.00 in0.0 mm 0.00 in0.0 mm 0.00 in0.0 mm
09:37 AM 81.1°F27.3°C 48.5°F9.2°C 32% 10.7 mph NW17.2 kmh NW 14.5 mph23.3 kmh 29.82 in1009.8 mb 0.00 in0.0 mm 0.00 in0.0 mm 0.00 in0.0 mm
09:38 AM 81.1°F27.3°C 48.5°F9.2°C 32% 7.6 mph NW12.2 kmh NW 14.5 mph23.3 kmh 29.82 in1009.8 mb 0.00 in0.0 mm 0.00 in0.0 mm 0.00 in0.0 mm
09:39 AM 80.8°F27.1°C 49.0°F9.4°C 33% 3.8 mph NW6.1 kmh NW 14.5 mph23.3 kmh 29.82 in1009.8 mb 0.00 in0.0 mm 0.00 in0.0 mm 0.00 in0.0 mm
09:40 AM 80.6°F27.0°C 48.9°F9.4°C 33% 6.0 mph NW9.7 kmh NW 14.5 mph23.3 kmh 29.82 in1009.8 mb 0.00 in0.0 mm 0.00 in0.0 mm 0.00 in0.0 mm
09:41 AM 80.6°F27.0°C 48.9°F9.4°C 33% 7.6 mph WNW12.2 kmh WNW 14.5 mph23.3 kmh 29.81 in1009.5 mb 0.00 in0.0 mm 0.00 in0.0 mm 0.00 in0.0 mm
09:42 AM 80.6°F27.0°C 48.9°F9.4°C 33% 3.8 mph WNW6.1 kmh WNW 14.5 mph23.3 kmh 29.81 in1009.5 mb 0.00 in0.0 mm 0.00 in0.0 mm 0.00 in0.0 mm
09:43 AM 80.8°F27.1°C 49.0°F9.4°C 33% 10.7 mph WNW17.2 kmh WNW 14.5 mph23.3 kmh 29.82 in1009.8 mb 0.00 in0.0 mm 0.00 in0.0 mm 0.00 in0.0 mm
09:44 AM 80.8°F27.1°C 48.2°F9.0°C 32% 9.8 mph NW15.8 kmh NW 19.7 mph31.7 kmh 29.81 in1009.5 mb 0.00 in0.0 mm 0.00 in0.0 mm 0.00 in0.0 mm
09:45 AM 80.8°F27.1°C 48.2°F9.0°C 32% 8.3 mph NW13.4 kmh NW 19.7 mph31.7 kmh 29.82 in1009.8 mb 0.00 in0.0 mm 0.00 in0.0 mm 0.00 in0.0 mm
09:46 AM 80.6°F27.0°C 48.1°F8.9°C 32% 6.9 mph NW11.1 kmh NW 19.7 mph31.7 kmh 29.82 in1009.8 mb 0.00 in0.0 mm 0.00 in0.0 mm 0.00 in0.0 mm
09:47 AM 80.6°F27.0°C 48.1°F8.9°C 32% 7.6 mph WNW12.2 kmh WNW 19.7 mph31.7 kmh 29.81 in1009.5 mb 0.00 in0.0 mm 0.00 in0.0 mm 0.00 in0.0 mm
09:48 AM 80.8°F27.1°C 48.2°F9.0°C 32% 6.0 mph WNW9.7 kmh WNW 19.7 mph31.7 kmh 29.81 in1009.5 mb 0.00 in0.0 mm 0.00 in0.0 mm 0.00 in0.0 mm
09:49 AM 80.8°F27.1°C 48.2°F9.0°C 32% 5.4 mph WNW8.7 kmh WNW 19.7 mph31.7 kmh 29.81 in1009.5 mb 0.00 in0.0 mm 0.00 in0.0 mm 0.00 in0.0 mm
09:50 AM 81.0°F27.2°C 48.4°F9.1°C 32% 9.2 mph NW14.8 kmh NW 19.7 mph31.7 kmh 29.81 in1009.5 mb 0.00 in0.0 mm 0.00 in0.0 mm 0.00 in0.0 mm
09:51 AM 81.0°F27.2°C 48.4°F9.1°C 32% 9.2 mph NW14.8 kmh NW 19.7 mph31.7 kmh 29.81 in1009.5 mb 0.00 in0.0 mm 0.00 in0.0 mm 0.00 in0.0 mm
09:52 AM 80.8°F27.1°C 48.2°F9.0°C 32% 4.5 mph NW7.2 kmh NW 19.7 mph31.7 kmh 29.81 in1009.5 mb 0.00 in0.0 mm 0.00 in0.0 mm 0.00 in0.0 mm
09:53 AM 80.8°F27.1°C 48.2°F9.0°C 32% 5.4 mph NW8.7 kmh NW 19.7 mph31.7 kmh 29.82 in1009.8 mb 0.00 in0.0 mm 0.00 in0.0 mm 0.00 in0.0 mm
09:54 AM 81.0°F27.2°C 48.4°F9.1°C 32% 7.6 mph NW12.2 kmh NW 14.5 mph23.3 kmh 29.81 in1009.5 mb 0.00 in0.0 mm 0.00 in0.0 mm 0.00 in0.0 mm
09:55 AM 81.1°F27.3°C 48.5°F9.2°C 32% 5.4 mph WNW8.7 kmh WNW 14.5 mph23.3 kmh 29.81 in1009.5 mb 0.00 in0.0 mm 0.00 in0.0 mm 0.00 in0.0 mm
09:56 AM 81.1°F27.3°C 48.5°F9.2°C 32% 4.5 mph WNW7.2 kmh WNW 14.5 mph23.3 kmh 29.81 in1009.5 mb 0.00 in0.0 mm 0.00 in0.0 mm 0.00 in0.0 mm
09:57 AM 81.3°F27.4°C 48.7°F9.3°C 32% 6.0 mph NW9.7 kmh NW 14.5 mph23.3 kmh 29.81 in1009.5 mb 0.00 in0.0 mm 0.00 in0.0 mm 0.00 in0.0 mm
09:58 AM 81.3°F27.4°C 48.7°F9.3°C 32% 9.2 mph NW14.8 kmh NW 14.5 mph23.3 kmh 29.81 in1009.5 mb 0.00 in0.0 mm 0.00 in0.0 mm 0.00 in0.0 mm
09:59 AM 81.5°F27.5°C 48.8°F9.3°C 32% 6.0 mph NW9.7 kmh NW 14.5 mph23.3 kmh 29.81 in1009.5 mb 0.00 in0.0 mm 0.00 in0.0 mm 0.00 in0.0 mm
10:00 AM 81.5°F27.5°C 48.8°F9.3°C 32% 3.8 mph NW6.1 kmh NW 14.5 mph23.3 kmh 29.82 in1009.8 mb 0.00 in0.0 mm 0.00 in0.0 mm 0.00 in0.0 mm
10:01 AM 81.5°F27.5°C 48.8°F9.3°C 32% 7.6 mph NW12.2 kmh NW 14.5 mph23.3 kmh 29.81 in1009.5 mb 0.00 in0.0 mm 0.00 in0.0 mm 0.00 in0.0 mm
10:02 AM 81.7°F27.6°C 49.0°F9.4°C 32% 8.3 mph NW13.4 kmh NW 14.5 mph23.3 kmh 29.81 in1009.5 mb 0.00 in0.0 mm 0.00 in0.0 mm 0.00 in0.0 mm
10:03 AM 81.7°F27.6°C 49.0°F9.4°C 32% 6.9 mph NW11.1 kmh NW 14.5 mph23.3 kmh 29.81 in1009.5 mb 0.00 in0.0 mm 0.00 in0.0 mm 0.00 in0.0 mm
10:04 AM 81.7°F27.6°C 49.0°F9.4°C 32% 8.3 mph NW13.4 kmh NW 16.8 mph27.0 kmh 29.81 in1009.5 mb 0.00 in0.0 mm 0.00 in0.0 mm 0.00 in0.0 mm
10:05 AM 81.7°F27.6°C 48.1°F8.9°C 31% 7.6 mph NW12.2 kmh NW 16.8 mph27.0 kmh 29.81 in1009.5 mb 0.00 in0.0 mm 0.00 in0.0 mm 0.00 in0.0 mm
10:06 AM 81.7°F27.6°C 49.0°F9.4°C 32% 6.9 mph NW11.1 kmh NW 16.8 mph27.0 kmh 29.82 in1009.8 mb 0.00 in0.0 mm 0.00 in0.0 mm 0.00 in0.0 mm
10:07 AM 81.9°F27.7°C 49.2°F9.6°C 32% 8.3 mph WNW13.4 kmh WNW 16.8 mph27.0 kmh 29.81 in1009.5 mb 0.00 in0.0 mm 0.00 in0.0 mm 0.00 in0.0 mm
10:08 AM 81.9°F27.7°C 49.2°F9.6°C 32% 6.9 mph NW11.1 kmh NW 16.8 mph27.0 kmh 29.81 in1009.5 mb 0.00 in0.0 mm 0.00 in0.0 mm 0.00 in0.0 mm
10:09 AM 81.9°F27.7°C 48.3°F9.1°C 31% 7.6 mph WNW12.2 kmh WNW 16.8 mph27.0 kmh 29.81 in1009.5 mb 0.00 in0.0 mm 0.00 in0.0 mm 0.00 in0.0 mm
10:10 AM 81.9°F27.7°C 48.3°F9.1°C 31% 6.9 mph WNW11.1 kmh WNW 16.8 mph27.0 kmh 29.81 in1009.5 mb 0.00 in0.0 mm 0.00 in0.0 mm 0.00 in0.0 mm
10:11 AM 82.0°F27.8°C 49.3°F9.6°C 32% 11.4 mph WNW18.3 kmh WNW 16.8 mph27.0 kmh 29.81 in1009.5 mb 0.00 in0.0 mm 0.00 in0.0 mm 0.00 in0.0 mm
10:12 AM 82.2°F27.9°C 49.5°F9.7°C 32% 9.8 mph WNW15.8 kmh WNW 16.8 mph27.0 kmh 29.81 in1009.5 mb 0.00 in0.0 mm 0.00 in0.0 mm 0.00 in0.0 mm
10:13 AM 82.2°F27.9°C 48.6°F9.2°C 31% 6.9 mph WNW11.1 kmh WNW 16.8 mph27.0 kmh 29.81 in1009.5 mb 0.00 in0.0 mm 0.00 in0.0 mm 0.00 in0.0 mm
10:14 AM 82.2°F27.9°C 48.6°F9.2°C 31% 6.0 mph WNW9.7 kmh WNW 15.2 mph24.5 kmh 29.81 in1009.5 mb 0.00 in0.0 mm 0.00 in0.0 mm 0.00 in0.0 mm
10:15 AM 82.2°F27.9°C 49.5°F9.7°C 32% 6.9 mph WNW11.1 kmh WNW 15.2 mph24.5 kmh 29.81 in1009.5 mb 0.00 in0.0 mm 0.00 in0.0 mm 0.00 in0.0 mm
10:16 AM 82.4°F28.0°C 51.3°F10.7°C 34% 6.9 mph WNW11.1 kmh WNW 15.2 mph24.5 kmh 29.81 in1009.5 mb 0.00 in0.0 mm 0.00 in0.0 mm 0.00 in0.0 mm
10:17 AM 82.6°F28.1°C 52.2°F11.2°C 35% 3.8 mph NW6.1 kmh NW 15.2 mph24.5 kmh 29.81 in1009.5 mb 0.00 in0.0 mm 0.00 in0.0 mm 0.00 in0.0 mm
10:18 AM 82.8°F28.2°C 52.4°F11.3°C 35% 5.4 mph NW8.7 kmh NW 15.2 mph24.5 kmh 29.81 in1009.5 mb 0.00 in0.0 mm 0.00 in0.0 mm 0.00 in0.0 mm
10:19 AM 83.1°F28.4°C 51.9°F11.1°C 34% 6.0 mph WNW9.7 kmh WNW 15.2 mph24.5 kmh 29.81 in1009.5 mb 0.00 in0.0 mm 0.00 in0.0 mm 0.00 in0.0 mm
10:20 AM 83.1°F28.4°C 52.7°F11.5°C 35% 1.6 mph WNW2.6 kmh WNW 15.2 mph24.5 kmh 29.81 in1009.5 mb 0.00 in0.0 mm 0.00 in0.0 mm 0.00 in0.0 mm
10:21 AM 83.3°F28.5°C 52.8°F11.6°C 35% 6.0 mph NW9.7 kmh NW 15.2 mph24.5 kmh 29.81 in1009.5 mb 0.00 in0.0 mm 0.00 in0.0 mm 0.00 in0.0 mm
10:22 AM 83.5°F28.6°C 53.0°F11.7°C 35% 8.3 mph NW13.4 kmh NW 14.5 mph23.3 kmh 29.82 in1009.8 mb 0.00 in0.0 mm 0.00 in0.0 mm 0.00 in0.0 mm
10:23 AM 83.5°F28.6°C 52.2°F11.2°C 34% 4.5 mph NW7.2 kmh NW 13.0 mph20.9 kmh 29.81 in1009.5 mb 0.00 in0.0 mm 0.00 in0.0 mm 0.00 in0.0 mm
10:24 AM 83.7°F28.7°C 53.2°F11.8°C 35% 13.0 mph NW20.9 kmh NW 14.5 mph23.3 kmh 29.81 in1009.5 mb 0.00 in0.0 mm 0.00 in0.0 mm 0.00 in0.0 mm
10:25 AM 83.5°F28.6°C 52.2°F11.2°C 34% 6.0 mph NW9.7 kmh NW 14.5 mph23.3 kmh 29.81 in1009.5 mb 0.00 in0.0 mm 0.00 in0.0 mm 0.00 in0.0 mm
10:26 AM 83.5°F28.6°C 53.0°F11.7°C 35% 7.6 mph NW12.2 kmh NW 14.5 mph23.3 kmh 29.81 in1009.5 mb 0.00 in0.0 mm 0.00 in0.0 mm 0.00 in0.0 mm
10:27 AM 83.5°F28.6°C 53.0°F11.7°C 35% 6.0 mph NW9.7 kmh NW 14.5 mph23.3 kmh 29.81 in1009.5 mb 0.00 in0.0 mm 0.00 in0.0 mm 0.00 in0.0 mm
10:28 AM 83.7°F28.7°C 53.2°F11.8°C 35% 8.3 mph NW13.4 kmh NW 14.5 mph23.3 kmh 29.81 in1009.5 mb 0.00 in0.0 mm 0.00 in0.0 mm 0.00 in0.0 mm
10:29 AM 83.7°F28.7°C 53.2°F11.8°C 35% 3.8 mph NW6.1 kmh NW 14.5 mph23.3 kmh 29.81 in1009.5 mb 0.00 in0.0 mm 0.00 in0.0 mm 0.00 in0.0 mm
10:30 AM 83.8°F28.8°C 53.3°F11.8°C 35% 5.4 mph NW8.7 kmh NW 14.5 mph23.3 kmh 29.81 in1009.5 mb 0.00 in0.0 mm 0.00 in0.0 mm 0.00 in0.0 mm
10:31 AM 83.8°F28.8°C 53.3°F11.8°C 35% 7.6 mph NW12.2 kmh NW 14.5 mph23.3 kmh 29.81 in1009.5 mb 0.00 in0.0 mm 0.00 in0.0 mm 0.00 in0.0 mm
10:32 AM 83.8°F28.8°C 53.3°F11.8°C 35% 7.6 mph NW12.2 kmh NW 14.5 mph23.3 kmh 29.81 in1009.5 mb 0.00 in0.0 mm 0.00 in0.0 mm 0.00 in0.0 mm
10:33 AM 83.8°F28.8°C 52.5°F11.4°C 34% 7.6 mph NW12.2 kmh NW 14.5 mph23.3 kmh 29.81 in1009.5 mb 0.00 in0.0 mm 0.00 in0.0 mm 0.00 in0.0 mm
10:34 AM 83.7°F28.7°C 53.2°F11.8°C 35% 12.1 mph NW19.5 kmh NW 16.8 mph27.0 kmh 29.81 in1009.5 mb 0.00 in0.0 mm 0.00 in0.0 mm 0.00 in0.0 mm
10:35 AM 83.5°F28.6°C 53.0°F11.7°C 35% 3.1 mph NW5.0 kmh NW 16.8 mph27.0 kmh 29.82 in1009.8 mb 0.00 in0.0 mm 0.00 in0.0 mm 0.00 in0.0 mm
10:36 AM 83.7°F28.7°C 53.2°F11.8°C 35% 9.2 mph WNW14.8 kmh WNW 16.8 mph27.0 kmh 29.81 in1009.5 mb 0.00 in0.0 mm 0.00 in0.0 mm 0.00 in0.0 mm
10:37 AM 83.7°F28.7°C 53.2°F11.8°C 35% 6.0 mph NW9.7 kmh NW 16.8 mph27.0 kmh 29.81 in1009.5 mb 0.00 in0.0 mm 0.00 in0.0 mm 0.00 in0.0 mm
10:38 AM 83.8°F28.8°C 53.3°F11.8°C 35% 3.8 mph NW6.1 kmh NW 16.8 mph27.0 kmh 29.81 in1009.5 mb 0.00 in0.0 mm 0.00 in0.0 mm 0.00 in0.0 mm
10:39 AM 84.2°F29.0°C 52.8°F11.6°C 34% 3.8 mph NW6.1 kmh NW 16.8 mph27.0 kmh 29.81 in1009.5 mb 0.00 in0.0 mm 0.00 in0.0 mm 0.00 in0.0 mm
10:40 AM 84.6°F29.2°C 53.2°F11.8°C 34% 5.4 mph NW8.7 kmh NW 16.8 mph27.0 kmh 29.81 in1009.5 mb 0.00 in0.0 mm 0.00 in0.0 mm 0.00 in0.0 mm
10:41 AM 84.9°F29.4°C 53.5°F11.9°C 34% 6.0 mph NW9.7 kmh NW 16.8 mph27.0 kmh 29.80 in1009.1 mb 0.00 in0.0 mm 0.00 in0.0 mm 0.00 in0.0 mm
10:42 AM 85.1°F29.5°C 52.8°F11.6°C 33% 6.9 mph NNW11.1 kmh NNW 16.8 mph27.0 kmh 29.81 in1009.5 mb 0.00 in0.0 mm 0.00 in0.0 mm 0.00 in0.0 mm
10:43 AM 85.3°F29.6°C 53.0°F11.7°C 33% 5.4 mph NNW8.7 kmh NNW 16.8 mph27.0 kmh 29.81 in1009.5 mb 0.00 in0.0 mm 0.00 in0.0 mm 0.00 in0.0 mm
10:44 AM 85.3°F29.6°C 52.1°F11.2°C 32% 4.5 mph NNW7.2 kmh NNW 13.6 mph21.9 kmh 29.81 in1009.5 mb 0.00 in0.0 mm 0.00 in0.0 mm 0.00 in0.0 mm
10:45 AM 85.3°F29.6°C 52.1°F11.2°C 32% 6.9 mph NNW11.1 kmh NNW 13.6 mph21.9 kmh 29.80 in1009.1 mb 0.00 in0.0 mm 0.00 in0.0 mm 0.00 in0.0 mm
10:46 AM 85.3°F29.6°C 52.1°F11.2°C 32% 9.2 mph NNW14.8 kmh NNW 13.6 mph21.9 kmh 29.81 in1009.5 mb 0.00 in0.0 mm 0.00 in0.0 mm 0.00 in0.0 mm
10:47 AM 84.9°F29.4°C 51.8°F11.0°C 32% 4.5 mph NNW7.2 kmh NNW 13.0 mph20.9 kmh 29.81 in1009.5 mb 0.00 in0.0 mm 0.00 in0.0 mm 0.00 in0.0 mm
10:48 AM 84.9°F29.4°C 52.7°F11.5°C 33% 3.1 mph NNW5.0 kmh NNW 13.0 mph20.9 kmh 29.81 in1009.5 mb 0.00 in0.0 mm 0.00 in0.0 mm 0.00 in0.0 mm
10:49 AM 85.1°F29.5°C 52.8°F11.6°C 33% 8.3 mph NW13.4 kmh NW 13.6 mph21.9 kmh 29.81 in1009.5 mb 0.00 in0.0 mm 0.00 in0.0 mm 0.00 in0.0 mm
10:50 AM 85.3°F29.6°C 53.0°F11.7°C 33% 6.9 mph NW11.1 kmh NW 13.6 mph21.9 kmh 29.81 in1009.5 mb 0.00 in0.0 mm 0.00 in0.0 mm 0.00 in0.0 mm
10:51 AM 85.5°F29.7°C 53.1°F11.7°C 33% 9.2 mph NW14.8 kmh NW 14.5 mph23.3 kmh 29.81 in1009.5 mb 0.00 in0.0 mm 0.00 in0.0 mm 0.00 in0.0 mm
10:52 AM 85.3°F29.6°C 53.0°F11.7°C 33% 8.3 mph NW13.4 kmh NW 14.5 mph23.3 kmh 29.80 in1009.1 mb 0.00 in0.0 mm 0.00 in0.0 mm 0.00 in0.0 mm
10:53 AM 85.3°F29.6°C 52.1°F11.2°C 32% 6.9 mph NW11.1 kmh NW 14.5 mph23.3 kmh 29.80 in1009.1 mb 0.00 in0.0 mm 0.00 in0.0 mm 0.00 in0.0 mm
10:54 AM 85.1°F29.5°C 52.0°F11.1°C 32% 6.0 mph NW9.7 kmh NW 14.5 mph23.3 kmh 29.81 in1009.5 mb 0.00 in0.0 mm 0.00 in0.0 mm 0.00 in0.0 mm
10:55 AM 84.9°F29.4°C 51.8°F11.0°C 32% 9.2 mph NW14.8 kmh NW 14.5 mph23.3 kmh 29.80 in1009.1 mb 0.00 in0.0 mm 0.00 in0.0 mm 0.00 in0.0 mm
10:56 AM 84.9°F29.4°C 51.8°F11.0°C 32% 3.8 mph NW6.1 kmh NW 14.5 mph23.3 kmh 29.81 in1009.5 mb 0.00 in0.0 mm 0.00 in0.0 mm 0.00 in0.0 mm
10:57 AM 85.1°F29.5°C 52.8°F11.6°C 33% 9.2 mph NW14.8 kmh NW 14.5 mph23.3 kmh 29.81 in1009.5 mb 0.00 in0.0 mm 0.00 in0.0 mm 0.00 in0.0 mm
10:58 AM 85.1°F29.5°C 52.8°F11.6°C 33% 5.4 mph NW8.7 kmh NW 14.5 mph23.3 kmh 29.81 in1009.5 mb 0.00 in0.0 mm 0.00 in0.0 mm 0.00 in0.0 mm
10:59 AM 85.3°F29.6°C 53.8°F12.1°C 34% 3.8 mph NW6.1 kmh NW 14.5 mph23.3 kmh 29.81 in1009.5 mb 0.00 in0.0 mm 0.00 in0.0 mm 0.00 in0.0 mm
11:00 AM 85.6°F29.8°C 54.1°F12.3°C 34% 6.9 mph NW11.1 kmh NW 14.5 mph23.3 kmh 29.80 in1009.1 mb 0.00 in0.0 mm 0.00 in0.0 mm 0.00 in0.0 mm
11:01 AM 85.8°F29.9°C 54.3°F12.4°C 34% 2.2 mph NW3.5 kmh NW 14.5 mph23.3 kmh 29.80 in1009.1 mb 0.00 in0.0 mm 0.00 in0.0 mm 0.00 in0.0 mm
11:02 AM 86.0°F30.0°C 53.6°F12.0°C 33% 4.5 mph NW7.2 kmh NW 13.0 mph20.9 kmh 29.80 in1009.1 mb 0.00 in0.0 mm 0.00 in0.0 mm 0.00 in0.0 mm
11:03 AM 86.2°F30.1°C 53.8°F12.1°C 33% 4.5 mph NW7.2 kmh NW 12.1 mph19.5 kmh 29.81 in1009.5 mb 0.00 in0.0 mm 0.00 in0.0 mm 0.00 in0.0 mm
11:04 AM 86.5°F30.3°C 53.2°F11.8°C 32% 3.1 mph NW5.0 kmh NW 12.1 mph19.5 kmh 29.80 in1009.1 mb 0.00 in0.0 mm 0.00 in0.0 mm 0.00 in0.0 mm
11:05 AM 86.5°F30.3°C 53.2°F11.8°C 32% 2.2 mph NW3.5 kmh NW 12.1 mph19.5 kmh 29.80 in1009.1 mb 0.00 in0.0 mm 0.00 in0.0 mm 0.00 in0.0 mm
11:06 AM 86.9°F30.5°C 53.5°F11.9°C 32% 2.2 mph NW3.5 kmh NW 12.1 mph19.5 kmh 29.80 in1009.1 mb 0.00 in0.0 mm 0.00 in0.0 mm 0.00 in0.0 mm
11:07 AM 87.4°F30.8°C 53.1°F11.7°C 31% 4.5 mph WNW7.2 kmh WNW 12.1 mph19.5 kmh 29.80 in1009.1 mb 0.00 in0.0 mm 0.00 in0.0 mm 0.00 in0.0 mm
11:08 AM 87.6°F30.9°C 53.3°F11.8°C 31% 4.5 mph WNW7.2 kmh WNW 12.1 mph19.5 kmh 29.80 in1009.1 mb 0.00 in0.0 mm 0.00 in0.0 mm 0.00 in0.0 mm
11:09 AM 87.8°F31.0°C 52.6°F11.4°C 30% 5.4 mph WNW8.7 kmh WNW 12.1 mph19.5 kmh 29.80 in1009.1 mb 0.00 in0.0 mm 0.00 in0.0 mm 0.00 in0.0 mm
11:10 AM 87.8°F31.0°C 51.6°F10.9°C 29% 5.4 mph WNW8.7 kmh WNW 12.1 mph19.5 kmh 29.81 in1009.5 mb 0.00 in0.0 mm 0.00 in0.0 mm 0.00 in0.0 mm
11:11 AM 87.8°F31.0°C 52.6°F11.4°C 30% 3.1 mph WNW5.0 kmh WNW 9.8 mph15.8 kmh 29.80 in1009.1 mb 0.00 in0.0 mm 0.00 in0.0 mm 0.00 in0.0 mm
11:12 AM 87.8°F31.0°C 52.6°F11.4°C 30% 3.8 mph WNW6.1 kmh WNW 9.8 mph15.8 kmh 29.81 in1009.5 mb 0.00 in0.0 mm 0.00 in0.0 mm 0.00 in0.0 mm
11:13 AM 87.8°F31.0°C 52.6°F11.4°C 30% 5.4 mph WNW8.7 kmh WNW 9.8 mph15.8 kmh 29.80 in1009.1 mb 0.00 in0.0 mm 0.00 in0.0 mm 0.00 in0.0 mm
11:14 AM 88.0°F31.1°C 52.7°F11.5°C 30% 6.0 mph NW9.7 kmh NW 10.7 mph17.2 kmh 29.81 in1009.5 mb 0.00 in0.0 mm 0.00 in0.0 mm 0.00 in0.0 mm
11:15 AM 87.8°F31.0°C 51.6°F10.9°C 29% 6.0 mph WNW9.7 kmh WNW 10.7 mph17.2 kmh 29.81 in1009.5 mb 0.00 in0.0 mm 0.00 in0.0 mm 0.00 in0.0 mm
11:16 AM 87.8°F31.0°C 51.6°F10.9°C 29% 7.6 mph WNW12.2 kmh WNW 14.5 mph23.3 kmh 29.80 in1009.1 mb 0.00 in0.0 mm 0.00 in0.0 mm 0.00 in0.0 mm
11:17 AM 87.6°F30.9°C 52.4°F11.3°C 30% 8.3 mph NW13.4 kmh NW 14.5 mph23.3 kmh 29.80 in1009.1 mb 0.00 in0.0 mm 0.00 in0.0 mm 0.00 in0.0 mm
11:18 AM 87.4°F30.8°C 52.3°F11.3°C 30% 6.0 mph NW9.7 kmh NW 14.5 mph23.3 kmh 29.81 in1009.5 mb 0.00 in0.0 mm 0.00 in0.0 mm 0.00 in0.0 mm
11:19 AM 86.9°F30.5°C 52.7°F11.5°C 31% 3.8 mph NW6.1 kmh NW 14.5 mph23.3 kmh 29.80 in1009.1 mb 0.00 in0.0 mm 0.00 in0.0 mm 0.00 in0.0 mm
11:20 AM 86.9°F30.5°C 52.7°F11.5°C 31% 3.1 mph NW5.0 kmh NW 14.5 mph23.3 kmh 29.80 in1009.1 mb 0.00 in0.0 mm 0.00 in0.0 mm 0.00 in0.0 mm
11:21 AM 86.9°F30.5°C 52.7°F11.5°C 31% 5.4 mph NW8.7 kmh NW 14.5 mph23.3 kmh 29.80 in1009.1 mb 0.00 in0.0 mm 0.00 in0.0 mm 0.00 in0.0 mm
11:22 AM 87.1°F30.6°C 53.7°F12.1°C 32% 7.6 mph NW12.2 kmh NW 14.5 mph23.3 kmh 29.80 in1009.1 mb 0.00 in0.0 mm 0.00 in0.0 mm 0.00 in0.0 mm
11:23 AM 87.1°F30.6°C 52.8°F11.6°C 31% 6.9 mph NW11.1 kmh NW 14.5 mph23.3 kmh 29.80 in1009.1 mb 0.00 in0.0 mm 0.00 in0.0 mm 0.00 in0.0 mm
11:24 AM 87.1°F30.6°C 52.8°F11.6°C 31% 2.2 mph WNW3.5 kmh WNW 14.5 mph23.3 kmh 29.80 in1009.1 mb 0.00 in0.0 mm 0.00 in0.0 mm 0.00 in0.0 mm
11:25 AM 87.3°F30.7°C 53.0°F11.7°C 31% 5.4 mph WNW8.7 kmh WNW 14.5 mph23.3 kmh 29.80 in1009.1 mb 0.00 in0.0 mm 0.00 in0.0 mm 0.00 in0.0 mm
11:26 AM 87.4°F30.8°C 53.1°F11.7°C 31% 7.6 mph WNW12.2 kmh WNW 14.5 mph23.3 kmh 29.80 in1009.1 mb 0.00 in0.0 mm 0.00 in0.0 mm 0.00 in0.0 mm
11:27 AM 87.6°F30.9°C 53.3°F11.8°C 31% 5.4 mph WNW8.7 kmh WNW 11.4 mph18.3 kmh 29.80 in1009.1 mb 0.00 in0.0 mm 0.00 in0.0 mm 0.00 in0.0 mm
11:28 AM 87.6°F30.9°C 53.3°F11.8°C 31% 5.4 mph WNW8.7 kmh WNW 11.4 mph18.3 kmh 29.80 in1009.1 mb 0.00 in0.0 mm 0.00 in0.0 mm 0.00 in0.0 mm
11:29 AM 87.4°F30.8°C 53.1°F11.7°C 31% 5.4 mph WNW8.7 kmh WNW 11.4 mph18.3 kmh 29.80 in1009.1 mb 0.00 in0.0 mm 0.00 in0.0 mm 0.00 in0.0 mm
11:30 AM 87.4°F30.8°C 53.1°F11.7°C 31% 6.0 mph WNW9.7 kmh WNW 11.4 mph18.3 kmh 29.80 in1009.1 mb 0.00 in0.0 mm 0.00 in0.0 mm 0.00 in0.0 mm
11:31 AM 87.6°F30.9°C 53.3°F11.8°C 31% 4.5 mph NW7.2 kmh NW 11.4 mph18.3 kmh 29.80 in1009.1 mb 0.00 in0.0 mm 0.00 in0.0 mm 0.00 in0.0 mm
11:32 AM 87.6°F30.9°C 53.3°F11.8°C 31% 3.1 mph NW5.0 kmh NW 11.4 mph18.3 kmh 29.80 in1009.1 mb 0.00 in0.0 mm 0.00 in0.0 mm 0.00 in0.0 mm
11:33 AM 87.6°F30.9°C 54.2°F12.3°C 32% 7.6 mph NW12.2 kmh NW 11.4 mph18.3 kmh 29.80 in1009.1 mb 0.00 in0.0 mm 0.00 in0.0 mm 0.00 in0.0 mm
11:34 AM 87.8°F31.0°C 52.6°F11.4°C 30% 7.6 mph NW12.2 kmh NW 11.4 mph18.3 kmh 29.79 in1008.8 mb 0.00 in0.0 mm 0.00 in0.0 mm 0.00 in0.0 mm
11:35 AM 87.8°F31.0°C 51.6°F10.9°C 29% 4.5 mph NW7.2 kmh NW 11.4 mph18.3 kmh 29.80 in1009.1 mb 0.00 in0.0 mm 0.00 in0.0 mm 0.00 in0.0 mm
11:36 AM 87.8°F31.0°C 51.6°F10.9°C 29% 5.4 mph NW8.7 kmh NW 9.8 mph15.8 kmh 29.80 in1009.1 mb 0.00 in0.0 mm 0.00 in0.0 mm 0.00 in0.0 mm
11:37 AM 87.8°F31.0°C 51.6°F10.9°C 29% 2.2 mph NW3.5 kmh NW 9.8 mph15.8 kmh 29.80 in1009.1 mb 0.00 in0.0 mm 0.00 in0.0 mm 0.00 in0.0 mm
11:38 AM 88.0°F31.1°C 51.8°F11.0°C 29% 3.8 mph NW6.1 kmh NW 9.8 mph15.8 kmh 29.80 in1009.1 mb 0.00 in0.0 mm 0.00 in0.0 mm 0.00 in0.0 mm
11:39 AM 88.3°F31.3°C 51.2°F10.7°C 28% 3.1 mph NW5.0 kmh NW 9.8 mph15.8 kmh 29.80 in1009.1 mb 0.00 in0.0 mm 0.00 in0.0 mm 0.00 in0.0 mm
11:40 AM 88.5°F31.4°C 51.3°F10.7°C 28% 5.4 mph NW8.7 kmh NW 9.8 mph15.8 kmh 29.80 in1009.1 mb 0.00 in0.0 mm 0.00 in0.0 mm 0.00 in0.0 mm
11:41 AM 88.7°F31.5°C 51.5°F10.8°C 28% 6.0 mph NW9.7 kmh NW 9.8 mph15.8 kmh 29.80 in1009.1 mb 0.00 in0.0 mm 0.00 in0.0 mm 0.00 in0.0 mm
11:42 AM 88.7°F31.5°C 51.5°F10.8°C 28% 3.1 mph NW5.0 kmh NW 9.8 mph15.8 kmh 29.80 in1009.1 mb 0.00 in0.0 mm 0.00 in0.0 mm 0.00 in0.0 mm
11:43 AM 88.7°F31.5°C 49.5°F9.7°C 26% 6.9 mph NW11.1 kmh NW 11.4 mph18.3 kmh 29.80 in1009.1 mb 0.00 in0.0 mm 0.00 in0.0 mm 0.00 in0.0 mm
11:44 AM 88.9°F31.6°C 49.6°F9.8°C 26% 3.8 mph NW6.1 kmh NW 11.4 mph18.3 kmh 29.80 in1009.1 mb 0.00 in0.0 mm 0.00 in0.0 mm 0.00 in0.0 mm
11:45 AM 88.9°F31.6°C 49.6°F9.8°C 26% 3.8 mph NW6.1 kmh NW 11.4 mph18.3 kmh 29.80 in1009.1 mb 0.00 in0.0 mm 0.00 in0.0 mm 0.00 in0.0 mm
11:46 AM 89.1°F31.7°C 49.8°F9.9°C 26% 6.0 mph NW9.7 kmh NW 11.4 mph18.3 kmh 29.80 in1009.1 mb 0.00 in0.0 mm 0.00 in0.0 mm 0.00 in0.0 mm
11:47 AM 89.1°F31.7°C 48.7°F9.3°C 25% 7.6 mph NW12.2 kmh NW 13.6 mph21.9 kmh 29.81 in1009.5 mb 0.00 in0.0 mm 0.00 in0.0 mm 0.00 in0.0 mm
11:48 AM 88.9°F31.6°C 48.6°F9.2°C 25% 7.6 mph NW12.2 kmh NW 13.6 mph21.9 kmh 29.80 in1009.1 mb 0.00 in0.0 mm 0.00 in0.0 mm 0.00 in0.0 mm
11:49 AM 88.7°F31.5°C 49.5°F9.7°C 26% 6.9 mph NW11.1 kmh NW 13.6 mph21.9 kmh 29.79 in1008.8 mb 0.00 in0.0 mm 0.00 in0.0 mm 0.00 in0.0 mm
11:50 AM 88.5°F31.4°C 49.3°F9.6°C 26% 7.6 mph NW12.2 kmh NW 13.6 mph21.9 kmh 29.80 in1009.1 mb 0.00 in0.0 mm 0.00 in0.0 mm 0.00 in0.0 mm
11:51 AM 88.3°F31.3°C 49.2°F9.6°C 26% 7.6 mph NW12.2 kmh NW 13.6 mph21.9 kmh 29.80 in1009.1 mb 0.00 in0.0 mm 0.00 in0.0 mm 0.00 in0.0 mm
11:52 AM 88.3°F31.3°C 49.2°F9.6°C 26% 4.5 mph NW7.2 kmh NW 13.6 mph21.9 kmh 29.80 in1009.1 mb 0.00 in0.0 mm 0.00 in0.0 mm 0.00 in0.0 mm
11:53 AM 88.3°F31.3°C 49.2°F9.6°C 26% 3.1 mph NW5.0 kmh NW 13.6 mph21.9 kmh 29.80 in1009.1 mb 0.00 in0.0 mm 0.00 in0.0 mm 0.00 in0.0 mm
11:54 AM 88.5°F31.4°C 50.3°F10.2°C 27% 4.5 mph NW7.2 kmh NW 13.6 mph21.9 kmh 29.80 in1009.1 mb 0.00 in0.0 mm 0.00 in0.0 mm 0.00 in0.0 mm
11:55 AM 88.9°F31.6°C 50.6°F10.3°C 27% 7.6 mph WNW12.2 kmh WNW 13.6 mph21.9 kmh 29.80 in1009.1 mb 0.00 in0.0 mm 0.00 in0.0 mm 0.00 in0.0 mm
11:56 AM 88.9°F31.6°C 49.6°F9.8°C 26% 9.2 mph NW14.8 kmh NW 13.6 mph21.9 kmh 29.80 in1009.1 mb 0.00 in0.0 mm 0.00 in0.0 mm 0.00 in0.0 mm
11:57 AM 88.9°F31.6°C 50.6°F10.3°C 27% 7.6 mph NW12.2 kmh NW 13.6 mph21.9 kmh 29.80 in1009.1 mb 0.00 in0.0 mm 0.00 in0.0 mm 0.00 in0.0 mm
11:58 AM 88.7°F31.5°C 49.5°F9.7°C 26% 8.3 mph NW13.4 kmh NW 13.6 mph21.9 kmh 29.80 in1009.1 mb 0.00 in0.0 mm 0.00 in0.0 mm 0.00 in0.0 mm
11:59 AM 88.5°F31.4°C 50.3°F10.2°C 27% 7.6 mph NW12.2 kmh NW 13.6 mph21.9 kmh 29.80 in1009.1 mb 0.00 in0.0 mm 0.00 in0.0 mm 0.00 in0.0 mm
12:00 PM 88.3°F31.3°C 50.2°F10.1°C 27% 6.0 mph NW9.7 kmh NW 13.6 mph21.9 kmh 29.80 in1009.1 mb 0.00 in0.0 mm 0.00 in0.0 mm 0.00 in0.0 mm
12:01 PM 88.3°F31.3°C 50.2°F10.1°C 27% 6.9 mph NW11.1 kmh NW 13.6 mph21.9 kmh 29.80 in1009.1 mb 0.00 in0.0 mm 0.00 in0.0 mm 0.00 in0.0 mm
12:02 PM 88.3°F31.3°C 50.2°F10.1°C 27% 6.9 mph NW11.1 kmh NW 13.6 mph21.9 kmh 29.80 in1009.1 mb 0.00 in0.0 mm 0.00 in0.0 mm 0.00 in0.0 mm
12:03 PM 88.3°F31.3°C 51.2°F10.7°C 28% 5.4 mph NW8.7 kmh NW 13.6 mph21.9 kmh 29.80 in1009.1 mb 0.00 in0.0 mm 0.00 in0.0 mm 0.00 in0.0 mm
12:04 PM 88.5°F31.4°C 51.3°F10.7°C 28% 5.4 mph NW8.7 kmh NW 13.6 mph21.9 kmh 29.80 in1009.1 mb 0.00 in0.0 mm 0.00 in0.0 mm 0.00 in0.0 mm
12:05 PM 88.7°F31.5°C 51.5°F10.8°C 28% 6.0 mph NW9.7 kmh NW 13.6 mph21.9 kmh 29.80 in1009.1 mb 0.00 in0.0 mm 0.00 in0.0 mm 0.00 in0.0 mm
12:06 PM 88.9°F31.6°C 50.6°F10.3°C 27% 6.0 mph NW9.7 kmh NW 13.6 mph21.9 kmh 29.80 in1009.1 mb 0.00 in0.0 mm 0.00 in0.0 mm 0.00 in0.0 mm
12:07 PM 89.1°F31.7°C 50.8°F10.4°C 27% 6.0 mph NW9.7 kmh NW 12.1 mph19.5 kmh 29.79 in1008.8 mb 0.00 in0.0 mm 0.00 in0.0 mm 0.00 in0.0 mm
12:08 PM 89.1°F31.7°C 50.8°F10.4°C 27% 5.4 mph WNW8.7 kmh WNW 12.1 mph19.5 kmh 29.80 in1009.1 mb 0.00 in0.0 mm 0.00 in0.0 mm 0.00 in0.0 mm
12:09 PM 89.2°F31.8°C 50.9°F10.5°C 27% 8.3 mph WNW13.4 kmh WNW 13.0 mph20.9 kmh 29.80 in1009.1 mb 0.00 in0.0 mm 0.00 in0.0 mm 0.00 in0.0 mm
12:10 PM 89.2°F31.8°C 50.9°F10.5°C 27% 6.9 mph NW11.1 kmh NW 13.0 mph20.9 kmh 29.80 in1009.1 mb 0.00 in0.0 mm 0.00 in0.0 mm 0.00 in0.0 mm
12:11 PM 89.2°F31.8°C 50.9°F10.5°C 27% 6.0 mph NW9.7 kmh NW 13.0 mph20.9 kmh 29.79 in1008.8 mb 0.00 in0.0 mm 0.00 in0.0 mm 0.00 in0.0 mm
12:12 PM 89.1°F31.7°C 50.8°F10.4°C 27% 5.4 mph NW8.7 kmh NW 13.0 mph20.9 kmh 29.79 in1008.8 mb 0.00 in0.0 mm 0.00 in0.0 mm 0.00 in0.0 mm
12:13 PM 89.1°F31.7°C 50.8°F10.4°C 27% 4.5 mph NW7.2 kmh NW 13.0 mph20.9 kmh 29.79 in1008.8 mb 0.00 in0.0 mm 0.00 in0.0 mm 0.00 in0.0 mm
12:14 PM 89.1°F31.7°C 50.8°F10.4°C 27% 4.5 mph NW7.2 kmh NW 13.0 mph20.9 kmh 29.79 in1008.8 mb 0.00 in0.0 mm 0.00 in0.0 mm 0.00 in0.0 mm
12:15 PM 89.2°F31.8°C 50.9°F10.5°C 27% 2.2 mph WNW3.5 kmh WNW 13.0 mph20.9 kmh 29.79 in1008.8 mb 0.00 in0.0 mm 0.00 in0.0 mm 0.00 in0.0 mm
12:16 PM 89.6°F32.0°C 50.2°F10.1°C 26% 5.4 mph WNW8.7 kmh WNW 13.0 mph20.9 kmh 29.79 in1008.8 mb 0.00 in0.0 mm 0.00 in0.0 mm 0.00 in0.0 mm
12:17 PM 89.8°F32.1°C 50.4°F10.2°C 26% 4.5 mph NW7.2 kmh NW 13.0 mph20.9 kmh 29.79 in1008.8 mb 0.00 in0.0 mm 0.00 in0.0 mm 0.00 in0.0 mm
12:18 PM 90.0°F32.2°C 50.5°F10.3°C 26% 8.3 mph NW13.4 kmh NW 13.0 mph20.9 kmh 29.79 in1008.8 mb 0.00 in0.0 mm 0.00 in0.0 mm 0.00 in0.0 mm
12:19 PM 90.1°F32.3°C 50.7°F10.4°C 26% 4.5 mph NW7.2 kmh NW 13.0 mph20.9 kmh 29.79 in1008.8 mb 0.00 in0.0 mm 0.00 in0.0 mm 0.00 in0.0 mm
12:20 PM 90.3°F32.4°C 49.8°F9.9°C 25% 3.8 mph WNW6.1 kmh WNW 10.7 mph17.2 kmh 29.79 in1008.8 mb 0.00 in0.0 mm 0.00 in0.0 mm 0.00 in0.0 mm
12:21 PM 90.3°F32.4°C 49.8°F9.9°C 25% 4.5 mph NW7.2 kmh NW 10.7 mph17.2 kmh 29.79 in1008.8 mb 0.00 in0.0 mm 0.00 in0.0 mm 0.00 in0.0 mm
12:22 PM 90.3°F32.4°C 49.8°F9.9°C 25% 6.0 mph NW9.7 kmh NW 10.7 mph17.2 kmh 29.79 in1008.8 mb 0.00 in0.0 mm 0.00 in0.0 mm 0.00 in0.0 mm
12:23 PM 90.3°F32.4°C 49.8°F9.9°C 25% 2.2 mph NW3.5 kmh NW 10.7 mph17.2 kmh 29.79 in1008.8 mb 0.00 in0.0 mm 0.00 in0.0 mm 0.00 in0.0 mm
12:24 PM 90.3°F32.4°C 49.8°F9.9°C 25% 9.8 mph NW15.8 kmh NW 15.2 mph24.5 kmh 29.79 in1008.8 mb 0.00 in0.0 mm 0.00 in0.0 mm 0.00 in0.0 mm
12:25 PM 90.3°F32.4°C 49.8°F9.9°C 25% 6.9 mph NW11.1 kmh NW 15.2 mph24.5 kmh 29.79 in1008.8 mb 0.00 in0.0 mm 0.00 in0.0 mm 0.00 in0.0 mm
12:26 PM 90.1°F32.3°C 49.6°F9.8°C 25% 5.4 mph NW8.7 kmh NW 15.2 mph24.5 kmh 29.79 in1008.8 mb 0.00 in0.0 mm 0.00 in0.0 mm 0.00 in0.0 mm
12:27 PM 89.8°F32.1°C 50.4°F10.2°C 26% 8.3 mph NW13.4 kmh NW 15.2 mph24.5 kmh 29.79 in1008.8 mb 0.00 in0.0 mm 0.00 in0.0 mm 0.00 in0.0 mm
12:28 PM 89.8°F32.1°C 50.4°F10.2°C 26% 6.9 mph NW11.1 kmh NW 15.2 mph24.5 kmh 29.79 in1008.8 mb 0.00 in0.0 mm 0.00 in0.0 mm 0.00 in0.0 mm
12:29 PM 89.6°F32.0°C 50.2°F10.1°C 26% 6.9 mph NW11.1 kmh NW 15.2 mph24.5 kmh 29.79 in1008.8 mb 0.00 in0.0 mm 0.00 in0.0 mm 0.00 in0.0 mm
12:30 PM 89.4°F31.9°C 50.1°F10.1°C 26% 6.9 mph NW11.1 kmh NW 15.2 mph24.5 kmh 29.79 in1008.8 mb 0.00 in0.0 mm 0.00 in0.0 mm 0.00 in0.0 mm
12:31 PM 89.4°F31.9°C 51.1°F10.6°C 27% 7.6 mph NW12.2 kmh NW 15.2 mph24.5 kmh 29.78 in1008.5 mb 0.00 in0.0 mm 0.00 in0.0 mm 0.00 in0.0 mm
12:32 PM 89.6°F32.0°C 50.2°F10.1°C 26% 6.9 mph NW11.1 kmh NW 15.2 mph24.5 kmh 29.79 in1008.8 mb 0.00 in0.0 mm 0.00 in0.0 mm 0.00 in0.0 mm
12:33 PM 89.8°F32.1°C 50.4°F10.2°C 26% 3.8 mph NW6.1 kmh NW 15.2 mph24.5 kmh 29.78 in1008.5 mb 0.00 in0.0 mm 0.00 in0.0 mm 0.00 in0.0 mm
12:34 PM 90.0°F32.2°C 50.5°F10.3°C 26% 3.8 mph NW6.1 kmh NW 14.5 mph23.3 kmh 29.78 in1008.5 mb 0.00 in0.0 mm 0.00 in0.0 mm 0.00 in0.0 mm
12:35 PM 90.1°F32.3°C 49.6°F9.8°C 25% 5.4 mph NW8.7 kmh NW 13.0 mph20.9 kmh 29.78 in1008.5 mb 0.00 in0.0 mm 0.00 in0.0 mm 0.00 in0.0 mm
12:36 PM 90.1°F32.3°C 49.6°F9.8°C 25% 3.8 mph NW6.1 kmh NW 13.0 mph20.9 kmh 29.78 in1008.5 mb 0.00 in0.0 mm 0.00 in0.0 mm 0.00 in0.0 mm
12:37 PM 90.1°F32.3°C 50.7°F10.4°C 26% 3.8 mph NW6.1 kmh NW 13.0 mph20.9 kmh 29.78 in1008.5 mb 0.00 in0.0 mm 0.00 in0.0 mm 0.00 in0.0 mm
12:38 PM 90.3°F32.4°C 50.8°F10.4°C 26% 6.0 mph NW9.7 kmh NW 13.0 mph20.9 kmh 29.79 in1008.8 mb 0.00 in0.0 mm 0.00 in0.0 mm 0.00 in0.0 mm
12:39 PM 90.7°F32.6°C 50.1°F10.1°C 25% 3.8 mph NW6.1 kmh NW 13.0 mph20.9 kmh 29.78 in1008.5 mb 0.00 in0.0 mm 0.00 in0.0 mm 0.00 in0.0 mm
12:40 PM 90.9°F32.7°C 51.3°F10.7°C 26% 3.8 mph NW6.1 kmh NW 11.4 mph18.3 kmh 29.79 in1008.8 mb 0.00 in0.0 mm 0.00 in0.0 mm 0.00 in0.0 mm
12:41 PM 90.9°F32.7°C 51.3°F10.7°C 26% 6.9 mph NW11.1 kmh NW 11.4 mph18.3 kmh 29.78 in1008.5 mb 0.00 in0.0 mm 0.00 in0.0 mm 0.00 in0.0 mm
12:42 PM 90.9°F32.7°C 51.3°F10.7°C 26% 6.0 mph NW9.7 kmh NW 13.0 mph20.9 kmh 29.79 in1008.8 mb 0.00 in0.0 mm 0.00 in0.0 mm 0.00 in0.0 mm
12:43 PM 91.0°F32.8°C 51.4°F10.8°C 26% 6.9 mph NW11.1 kmh NW 13.6 mph21.9 kmh 29.79 in1008.8 mb 0.00 in0.0 mm 0.00 in0.0 mm 0.00 in0.0 mm
12:44 PM 91.0°F32.8°C 50.4°F10.2°C 25% 6.0 mph NW9.7 kmh NW 13.6 mph21.9 kmh 29.78 in1008.5 mb 0.00 in0.0 mm 0.00 in0.0 mm 0.00 in0.0 mm
12:45 PM 91.0°F32.8°C 50.4°F10.2°C 25% 6.0 mph NW9.7 kmh NW 13.6 mph21.9 kmh 29.78 in1008.5 mb 0.00 in0.0 mm 0.00 in0.0 mm 0.00 in0.0 mm
12:46 PM 90.9°F32.7°C 51.3°F10.7°C 26% 6.9 mph NW11.1 kmh NW 13.6 mph21.9 kmh 29.79 in1008.8 mb 0.00 in0.0 mm 0.00 in0.0 mm 0.00 in0.0 mm
12:47 PM 91.0°F32.8°C 51.4°F10.8°C 26% 6.9 mph NW11.1 kmh NW 13.6 mph21.9 kmh 29.78 in1008.5 mb 0.00 in0.0 mm 0.00 in0.0 mm 0.00 in0.0 mm
12:48 PM 91.0°F32.8°C 51.4°F10.8°C 26% 6.0 mph NW9.7 kmh NW 13.6 mph21.9 kmh 29.78 in1008.5 mb 0.00 in0.0 mm 0.00 in0.0 mm 0.00 in0.0 mm
12:49 PM 91.2°F32.9°C 51.6°F10.9°C 26% 7.6 mph NW12.2 kmh NW 13.6 mph21.9 kmh 29.78 in1008.5 mb 0.00 in0.0 mm 0.00 in0.0 mm 0.00 in0.0 mm
12:50 PM 91.2°F32.9°C 51.6°F10.9°C 26% 6.0 mph WNW9.7 kmh WNW 13.6 mph21.9 kmh 29.79 in1008.8 mb 0.00 in0.0 mm 0.00 in0.0 mm 0.00 in0.0 mm
12:51 PM 91.4°F33.0°C 53.8°F12.1°C 28% 7.6 mph WNW12.2 kmh WNW 13.6 mph21.9 kmh 29.79 in1008.8 mb 0.00 in0.0 mm 0.00 in0.0 mm 0.00 in0.0 mm
12:52 PM 91.4°F33.0°C 53.8°F12.1°C 28% 6.9 mph WNW11.1 kmh WNW 13.6 mph21.9 kmh 29.78 in1008.5 mb 0.00 in0.0 mm 0.00 in0.0 mm 0.00 in0.0 mm
12:53 PM 91.2°F32.9°C 50.5°F10.3°C 25% 4.5 mph WNW7.2 kmh WNW 13.6 mph21.9 kmh 29.78 in1008.5 mb 0.00 in0.0 mm 0.00 in0.0 mm 0.00 in0.0 mm
12:54 PM 91.2°F32.9°C 50.5°F10.3°C 25% 7.6 mph WNW12.2 kmh WNW 13.6 mph21.9 kmh 29.78 in1008.5 mb 0.00 in0.0 mm 0.00 in0.0 mm 0.00 in0.0 mm
12:55 PM 91.4°F33.0°C 53.8°F12.1°C 28% 3.8 mph WNW6.1 kmh WNW 13.6 mph21.9 kmh 29.78 in1008.5 mb 0.00 in0.0 mm 0.00 in0.0 mm 0.00 in0.0 mm
12:56 PM 91.6°F33.1°C 53.9°F12.2°C 28% 2.2 mph WNW3.5 kmh WNW 13.6 mph21.9 kmh 29.78 in1008.5 mb 0.00 in0.0 mm 0.00 in0.0 mm 0.00 in0.0 mm
12:57 PM 91.8°F33.2°C 54.1°F12.3°C 28% 3.8 mph WNW6.1 kmh WNW 13.6 mph21.9 kmh 29.78 in1008.5 mb 0.00 in0.0 mm 0.00 in0.0 mm 0.00 in0.0 mm
12:58 PM 91.9°F33.3°C 54.2°F12.3°C 28% 8.3 mph WNW13.4 kmh WNW 13.6 mph21.9 kmh 29.78 in1008.5 mb 0.00 in0.0 mm 0.00 in0.0 mm 0.00 in0.0 mm
12:59 PM 91.9°F33.3°C 54.2°F12.3°C 28% 6.9 mph WNW11.1 kmh WNW 13.6 mph21.9 kmh 29.78 in1008.5 mb 0.00 in0.0 mm 0.00 in0.0 mm 0.00 in0.0 mm
01:00 PM 91.9°F33.3°C 54.2°F12.3°C 28% 5.4 mph W8.7 kmh W 13.6 mph21.9 kmh 29.78 in1008.5 mb 0.00 in0.0 mm 0.00 in0.0 mm 0.00 in0.0 mm
01:01 PM 91.9°F33.3°C 54.2°F12.3°C 28% 7.6 mph W12.2 kmh W 13.6 mph21.9 kmh 29.78 in1008.5 mb 0.00 in0.0 mm 0.00 in0.0 mm 0.00 in0.0 mm
01:02 PM 91.9°F33.3°C 54.2°F12.3°C 28% 4.5 mph W7.2 kmh W 13.6 mph21.9 kmh 29.78 in1008.5 mb 0.00 in0.0 mm 0.00 in0.0 mm 0.00 in0.0 mm
01:03 PM 91.9°F33.3°C 54.2°F12.3°C 28% 3.1 mph W5.0 kmh W 13.6 mph21.9 kmh 29.78 in1008.5 mb 0.00 in0.0 mm 0.00 in0.0 mm 0.00 in0.0 mm
01:04 PM 91.9°F33.3°C 54.2°F12.3°C 28% 5.4 mph W8.7 kmh W 13.6 mph21.9 kmh 29.78 in1008.5 mb 0.00 in0.0 mm 0.00 in0.0 mm 0.00 in0.0 mm
01:05 PM 91.9°F33.3°C 54.2°F12.3°C 28% 6.0 mph W9.7 kmh W 13.6 mph21.9 kmh 29.78 in1008.5 mb 0.00 in0.0 mm 0.00 in0.0 mm 0.00 in0.0 mm
01:06 PM 91.9°F33.3°C 54.2°F12.3°C 28% 9.8 mph W15.8 kmh W 15.2 mph24.5 kmh 29.78 in1008.5 mb 0.00 in0.0 mm 0.00 in0.0 mm 0.00 in0.0 mm
01:07 PM 91.9°F33.3°C 53.2°F11.8°C 27% 6.0 mph W9.7 kmh W 15.2 mph24.5 kmh 29.78 in1008.5 mb 0.00 in0.0 mm 0.00 in0.0 mm 0.00 in0.0 mm
01:08 PM 91.8°F33.2°C 53.1°F11.7°C 27% 3.8 mph W6.1 kmh W 15.2 mph24.5 kmh 29.78 in1008.5 mb 0.00 in0.0 mm 0.00 in0.0 mm 0.00 in0.0 mm
01:09 PM 91.8°F33.2°C 53.1°F11.7°C 27% 3.1 mph W5.0 kmh W 15.2 mph24.5 kmh 29.78 in1008.5 mb 0.00 in0.0 mm 0.00 in0.0 mm 0.00 in0.0 mm
01:10 PM 91.8°F33.2°C 53.1°F11.7°C 27% 6.0 mph W9.7 kmh W 15.2 mph24.5 kmh 29.78 in1008.5 mb 0.00 in0.0 mm 0.00 in0.0 mm 0.00 in0.0 mm
01:11 PM 91.9°F33.3°C 53.2°F11.8°C 27% 6.9 mph W11.1 kmh W 15.2 mph24.5 kmh 29.78 in1008.5 mb 0.00 in0.0 mm 0.00 in0.0 mm 0.00 in0.0 mm
01:12 PM 91.9°F33.3°C 54.2°F12.3°C 28% 5.4 mph W8.7 kmh W 15.2 mph24.5 kmh 29.78 in1008.5 mb 0.00 in0.0 mm 0.00 in0.0 mm 0.00 in0.0 mm
01:13 PM 91.9°F33.3°C 53.2°F11.8°C 27% 2.2 mph W3.5 kmh W 15.2 mph24.5 kmh 29.78 in1008.5 mb 0.00 in0.0 mm 0.00 in0.0 mm 0.00 in0.0 mm
01:14 PM 92.3°F33.5°C 54.5°F12.5°C 28% 6.0 mph W9.7 kmh W 15.2 mph24.5 kmh 29.77 in1008.1 mb 0.00 in0.0 mm 0.00 in0.0 mm 0.00 in0.0 mm
01:15 PM 92.3°F33.5°C 53.5°F11.9°C 27% 7.6 mph W12.2 kmh W 15.2 mph24.5 kmh 29.78 in1008.5 mb 0.00 in0.0 mm 0.00 in0.0 mm 0.00 in0.0 mm
01:16 PM 92.5°F33.6°C 53.7°F12.1°C 27% 9.2 mph W14.8 kmh W 16.8 mph27.0 kmh 29.78 in1008.5 mb 0.00 in0.0 mm 0.00 in0.0 mm 0.00 in0.0 mm
01:17 PM 92.5°F33.6°C 53.7°F12.1°C 27% 6.9 mph W11.1 kmh W 16.8 mph27.0 kmh 29.78 in1008.5 mb 0.00 in0.0 mm 0.00 in0.0 mm 0.00 in0.0 mm
01:18 PM 92.3°F33.5°C 53.5°F11.9°C 27% 6.0 mph W9.7 kmh W 16.8 mph27.0 kmh 29.78 in1008.5 mb 0.00 in0.0 mm 0.00 in0.0 mm 0.00 in0.0 mm
01:19 PM 92.3°F33.5°C 53.5°F11.9°C 27% 4.5 mph WSW7.2 kmh WSW 16.8 mph27.0 kmh 29.78 in1008.5 mb 0.00 in0.0 mm 0.00 in0.0 mm 0.00 in0.0 mm
01:20 PM 92.3°F33.5°C 53.5°F11.9°C 27% 7.6 mph WSW12.2 kmh WSW 16.8 mph27.0 kmh 29.77 in1008.1 mb 0.00 in0.0 mm 0.00 in0.0 mm 0.00 in0.0 mm
01:21 PM 92.3°F33.5°C 53.5°F11.9°C 27% 3.8 mph WSW6.1 kmh WSW 16.8 mph27.0 kmh 29.78 in1008.5 mb 0.00 in0.0 mm 0.00 in0.0 mm 0.00 in0.0 mm
01:22 PM 92.3°F33.5°C 53.5°F11.9°C 27% 7.6 mph W12.2 kmh W 16.8 mph27.0 kmh 29.78 in1008.5 mb 0.00 in0.0 mm 0.00 in0.0 mm 0.00 in0.0 mm
01:23 PM 92.3°F33.5°C 53.5°F11.9°C 27% 2.2 mph W3.5 kmh W 16.8 mph27.0 kmh 29.77 in1008.1 mb 0.00 in0.0 mm 0.00 in0.0 mm 0.00 in0.0 mm
01:24 PM 92.7°F33.7°C 53.9°F12.2°C 27% 4.5 mph W7.2 kmh W 16.8 mph27.0 kmh 29.77 in1008.1 mb 0.00 in0.0 mm 0.00 in0.0 mm 0.00 in0.0 mm
01:25 PM 92.8°F33.8°C 54.0°F12.2°C 27% 5.4 mph W8.7 kmh W 16.8 mph27.0 kmh 29.77 in1008.1 mb 0.00 in0.0 mm 0.00 in0.0 mm 0.00 in0.0 mm
01:26 PM 93.0°F33.9°C 54.2°F12.3°C 27% 4.5 mph W7.2 kmh W 16.8 mph27.0 kmh 29.77 in1008.1 mb 0.00 in0.0 mm 0.00 in0.0 mm 0.00 in0.0 mm
01:27 PM 93.4°F34.1°C 53.4°F11.9°C 26% 5.4 mph WSW8.7 kmh WSW 10.7 mph17.2 kmh 29.77 in1008.1 mb 0.00 in0.0 mm 0.00 in0.0 mm 0.00 in0.0 mm
01:28 PM 93.4°F34.1°C 53.4°F11.9°C 26% 4.5 mph WSW7.2 kmh WSW 10.7 mph17.2 kmh 29.78 in1008.5 mb 0.00 in0.0 mm 0.00 in0.0 mm 0.00 in0.0 mm
01:29 PM 93.6°F34.2°C 53.6°F12.0°C 26% 5.4 mph W8.7 kmh W 10.7 mph17.2 kmh 29.78 in1008.5 mb 0.00 in0.0 mm 0.00 in0.0 mm 0.00 in0.0 mm
01:30 PM 93.7°F34.3°C 53.7°F12.1°C 26% 6.9 mph W11.1 kmh W 12.1 mph19.5 kmh 29.77 in1008.1 mb 0.00 in0.0 mm 0.00 in0.0 mm 0.00 in0.0 mm
01:31 PM 93.7°F34.3°C 53.7°F12.1°C 26% 5.4 mph W8.7 kmh W 12.1 mph19.5 kmh 29.77 in1008.1 mb 0.00 in0.0 mm 0.00 in0.0 mm 0.00 in0.0 mm
01:32 PM 93.9°F34.4°C 53.9°F12.2°C 26% 3.1 mph WSW5.0 kmh WSW 12.1 mph19.5 kmh 29.77 in1008.1 mb 0.00 in0.0 mm 0.00 in0.0 mm 0.00 in0.0 mm
01:33 PM 93.9°F34.4°C 53.9°F12.2°C 26% 6.9 mph WSW11.1 kmh WSW 12.1 mph19.5 kmh 29.77 in1008.1 mb 0.00 in0.0 mm 0.00 in0.0 mm 0.00 in0.0 mm
01:34 PM 93.9°F34.4°C 52.8°F11.6°C 25% 3.8 mph WSW6.1 kmh WSW 12.1 mph19.5 kmh 29.78 in1008.5 mb 0.00 in0.0 mm 0.00 in0.0 mm 0.00 in0.0 mm
01:35 PM 93.9°F34.4°C 53.9°F12.2°C 26% 3.1 mph W5.0 kmh W 12.1 mph19.5 kmh 29.77 in1008.1 mb 0.00 in0.0 mm 0.00 in0.0 mm 0.00 in0.0 mm
01:36 PM 93.7°F34.3°C 53.7°F12.1°C 26% 2.2 mph W3.5 kmh W 12.1 mph19.5 kmh 29.77 in1008.1 mb 0.00 in0.0 mm 0.00 in0.0 mm 0.00 in0.0 mm
01:37 PM 93.9°F34.4°C 53.9°F12.2°C 26% 5.4 mph WNW8.7 kmh WNW 12.1 mph19.5 kmh 29.78 in1008.5 mb 0.00 in0.0 mm 0.00 in0.0 mm 0.00 in0.0 mm
01:38 PM 93.9°F34.4°C 53.9°F12.2°C 26% 3.1 mph WNW5.0 kmh WNW 12.1 mph19.5 kmh 29.77 in1008.1 mb 0.00 in0.0 mm 0.00 in0.0 mm 0.00 in0.0 mm
01:39 PM 94.1°F34.5°C 54.0°F12.2°C 26% 6.9 mph W11.1 kmh W 12.1 mph19.5 kmh 29.77 in1008.1 mb 0.00 in0.0 mm 0.00 in0.0 mm 0.00 in0.0 mm
01:40 PM 94.1°F34.5°C 54.0°F12.2°C 26% 6.0 mph WSW9.7 kmh WSW 10.7 mph17.2 kmh 29.77 in1008.1 mb 0.00 in0.0 mm 0.00 in0.0 mm 0.00 in0.0 mm
01:41 PM 94.1°F34.5°C 54.0°F12.2°C 26% 6.9 mph WSW11.1 kmh WSW 12.1 mph19.5 kmh 29.77 in1008.1 mb 0.00 in0.0 mm 0.00 in0.0 mm 0.00 in0.0 mm
01:42 PM 94.1°F34.5°C 54.0°F12.2°C 26% 6.9 mph WSW11.1 kmh WSW 12.1 mph19.5 kmh 29.77 in1008.1 mb 0.00 in0.0 mm 0.00 in0.0 mm 0.00 in0.0 mm
01:43 PM 93.9°F34.4°C 53.9°F12.2°C 26% 6.9 mph W11.1 kmh W 12.1 mph19.5 kmh 29.77 in1008.1 mb 0.00 in0.0 mm 0.00 in0.0 mm 0.00 in0.0 mm
01:44 PM 93.9°F34.4°C 53.9°F12.2°C 26% 8.3 mph W13.4 kmh W 12.1 mph19.5 kmh 29.77 in1008.1 mb 0.00 in0.0 mm 0.00 in0.0 mm 0.00 in0.0 mm
01:45 PM 93.7°F34.3°C 53.7°F12.1°C 26% 6.9 mph W11.1 kmh W 12.1 mph19.5 kmh 29.77 in1008.1 mb 0.00 in0.0 mm 0.00 in0.0 mm 0.00 in0.0 mm
01:46 PM 93.6°F34.2°C 53.6°F12.0°C 26% 3.8 mph W6.1 kmh W 12.1 mph19.5 kmh 29.76 in1007.8 mb 0.00 in0.0 mm 0.00 in0.0 mm 0.00 in0.0 mm
01:47 PM 93.4°F34.1°C 53.4°F11.9°C 26% 3.8 mph W6.1 kmh W 12.1 mph19.5 kmh 29.76 in1007.8 mb 0.00 in0.0 mm 0.00 in0.0 mm 0.00 in0.0 mm
01:48 PM 93.6°F34.2°C 53.6°F12.0°C 26% 3.8 mph W6.1 kmh W 12.1 mph19.5 kmh 29.76 in1007.8 mb 0.00 in0.0 mm 0.00 in0.0 mm 0.00 in0.0 mm
01:49 PM 93.6°F34.2°C 53.6°F12.0°C 26% 2.2 mph W3.5 kmh W 12.1 mph19.5 kmh 29.76 in1007.8 mb 0.00 in0.0 mm 0.00 in0.0 mm 0.00 in0.0 mm
01:50 PM 93.6°F34.2°C 53.6°F12.0°C 26% 3.8 mph W6.1 kmh W 12.1 mph19.5 kmh 29.76 in1007.8 mb 0.00 in0.0 mm 0.00 in0.0 mm 0.00 in0.0 mm
01:51 PM 93.9°F34.4°C 53.9°F12.2°C 26% 6.0 mph WNW9.7 kmh WNW 11.4 mph18.3 kmh 29.76 in1007.8 mb 0.00 in0.0 mm 0.00 in0.0 mm 0.00 in0.0 mm
01:52 PM 94.1°F34.5°C 54.0°F12.2°C 26% 6.9 mph WNW11.1 kmh WNW 11.4 mph18.3 kmh 29.76 in1007.8 mb 0.00 in0.0 mm 0.00 in0.0 mm 0.00 in0.0 mm
01:53 PM 94.1°F34.5°C 54.0°F12.2°C 26% 4.5 mph WNW7.2 kmh WNW 11.4 mph18.3 kmh 29.76 in1007.8 mb 0.00 in0.0 mm 0.00 in0.0 mm 0.00 in0.0 mm
01:54 PM 94.1°F34.5°C 54.0°F12.2°C 26% 4.5 mph WNW7.2 kmh WNW 11.4 mph18.3 kmh 29.76 in1007.8 mb 0.00 in0.0 mm 0.00 in0.0 mm 0.00 in0.0 mm
01:55 PM 94.3°F34.6°C 54.2°F12.3°C 26% 3.8 mph WNW6.1 kmh WNW 11.4 mph18.3 kmh 29.75 in1007.5 mb 0.00 in0.0 mm 0.00 in0.0 mm 0.00 in0.0 mm
01:56 PM 94.3°F34.6°C 54.2°F12.3°C 26% 13.0 mph W20.9 kmh W 19.0 mph30.6 kmh 29.76 in1007.8 mb 0.00 in0.0 mm 0.00 in0.0 mm 0.00 in0.0 mm
01:57 PM 94.5°F34.7°C 54.3°F12.4°C 26% 4.5 mph W7.2 kmh W 19.0 mph30.6 kmh 29.76 in1007.8 mb 0.00 in0.0 mm 0.00 in0.0 mm 0.00 in0.0 mm
01:58 PM 94.5°F34.7°C 54.3°F12.4°C 26% 3.8 mph W6.1 kmh W 19.0 mph30.6 kmh 29.76 in1007.8 mb 0.00 in0.0 mm 0.00 in0.0 mm 0.00 in0.0 mm
01:59 PM 94.6°F34.8°C 54.5°F12.5°C 26% 3.8 mph W6.1 kmh W 19.0 mph30.6 kmh 29.75 in1007.5 mb 0.00 in0.0 mm 0.00 in0.0 mm 0.00 in0.0 mm
02:00 PM 94.6°F34.8°C 54.5°F12.5°C 26% 6.0 mph WNW9.7 kmh WNW 19.0 mph30.6 kmh 29.76 in1007.8 mb 0.00 in0.0 mm 0.00 in0.0 mm 0.00 in0.0 mm
02:01 PM 94.6°F34.8°C 55.5°F13.1°C 27% 6.9 mph WNW11.1 kmh WNW 19.0 mph30.6 kmh 29.76 in1007.8 mb 0.00 in0.0 mm 0.00 in0.0 mm 0.00 in0.0 mm
02:02 PM 94.8°F34.9°C 54.7°F12.6°C 26% 6.0 mph WNW9.7 kmh WNW 19.0 mph30.6 kmh 29.76 in1007.8 mb 0.00 in0.0 mm 0.00 in0.0 mm 0.00 in0.0 mm
02:03 PM 94.6°F34.8°C 54.5°F12.5°C 26% 6.0 mph WNW9.7 kmh WNW 19.0 mph30.6 kmh 29.75 in1007.5 mb 0.00 in0.0 mm 0.00 in0.0 mm 0.00 in0.0 mm
02:04 PM 94.6°F34.8°C 54.5°F12.5°C 26% 7.6 mph WNW12.2 kmh WNW 19.0 mph30.6 kmh 29.75 in1007.5 mb 0.00 in0.0 mm 0.00 in0.0 mm 0.00 in0.0 mm
02:05 PM 94.5°F34.7°C 54.3°F12.4°C 26% 6.0 mph WNW9.7 kmh WNW 19.0 mph30.6 kmh 29.75 in1007.5 mb 0.00 in0.0 mm 0.00 in0.0 mm 0.00 in0.0 mm
02:06 PM 94.5°F34.7°C 54.3°F12.4°C 26% 6.0 mph WNW9.7 kmh WNW 19.0 mph30.6 kmh 29.76 in1007.8 mb 0.00 in0.0 mm 0.00 in0.0 mm 0.00 in0.0 mm
02:07 PM 94.5°F34.7°C 53.3°F11.8°C 25% 2.2 mph NW3.5 kmh NW 12.1 mph19.5 kmh 29.75 in1007.5 mb 0.00 in0.0 mm 0.00 in0.0 mm 0.00 in0.0 mm
02:08 PM 94.6°F34.8°C 53.4°F11.9°C 25% 5.4 mph NW8.7 kmh NW 12.1 mph19.5 kmh 29.76 in1007.8 mb 0.00 in0.0 mm 0.00 in0.0 mm 0.00 in0.0 mm
02:09 PM 94.8°F34.9°C 53.6°F12.0°C 25% 6.0 mph NW9.7 kmh NW 12.1 mph19.5 kmh 29.76 in1007.8 mb 0.00 in0.0 mm 0.00 in0.0 mm 0.00 in0.0 mm
02:10 PM 95.0°F35.0°C 52.6°F11.4°C 24% 4.5 mph NW7.2 kmh NW 12.1 mph19.5 kmh 29.76 in1007.8 mb 0.00 in0.0 mm 0.00 in0.0 mm 0.00 in0.0 mm
02:11 PM 95.4°F35.2°C 52.9°F11.6°C 24% 4.5 mph WNW7.2 kmh WNW 12.1 mph19.5 kmh 29.76 in1007.8 mb 0.00 in0.0 mm 0.00 in0.0 mm 0.00 in0.0 mm
02:12 PM 95.5°F35.3°C 53.1°F11.7°C 24% 5.4 mph WNW8.7 kmh WNW 12.1 mph19.5 kmh 29.75 in1007.5 mb 0.00 in0.0 mm 0.00 in0.0 mm 0.00 in0.0 mm
02:13 PM 95.7°F35.4°C 53.2°F11.8°C 24% 3.1 mph WNW5.0 kmh WNW 12.1 mph19.5 kmh 29.75 in1007.5 mb 0.00 in0.0 mm 0.00 in0.0 mm 0.00 in0.0 mm
02:14 PM 95.7°F35.4°C 53.2°F11.8°C 24% 3.1 mph WNW5.0 kmh WNW 12.1 mph19.5 kmh 29.75 in1007.5 mb 0.00 in0.0 mm 0.00 in0.0 mm 0.00 in0.0 mm
02:15 PM 95.9°F35.5°C 52.2°F11.2°C 23% 3.8 mph WNW6.1 kmh WNW 9.8 mph15.8 kmh 29.76 in1007.8 mb 0.00 in0.0 mm 0.00 in0.0 mm 0.00 in0.0 mm
02:16 PM 95.9°F35.5°C 52.2°F11.2°C 23% 4.5 mph WNW7.2 kmh WNW 9.8 mph15.8 kmh 29.75 in1007.5 mb 0.00 in0.0 mm 0.00 in0.0 mm 0.00 in0.0 mm
02:17 PM 95.9°F35.5°C 52.2°F11.2°C 23% 8.3 mph W13.4 kmh W 13.6 mph21.9 kmh 29.75 in1007.5 mb 0.00 in0.0 mm 0.00 in0.0 mm 0.00 in0.0 mm
02:18 PM 95.9°F35.5°C 52.2°F11.2°C 23% 7.6 mph W12.2 kmh W 13.6 mph21.9 kmh 29.75 in1007.5 mb 0.00 in0.0 mm 0.00 in0.0 mm 0.00 in0.0 mm
02:19 PM 95.5°F35.3°C 51.9°F11.1°C 23% 7.6 mph WNW12.2 kmh WNW 13.6 mph21.9 kmh 29.75 in1007.5 mb 0.00 in0.0 mm 0.00 in0.0 mm 0.00 in0.0 mm
02:20 PM 95.4°F35.2°C 51.8°F11.0°C 23% 4.5 mph W7.2 kmh W 13.6 mph21.9 kmh 29.75 in1007.5 mb 0.00 in0.0 mm 0.00 in0.0 mm 0.00 in0.0 mm
02:21 PM 95.2°F35.1°C 51.6°F10.9°C 23% 5.4 mph WNW8.7 kmh WNW 13.6 mph21.9 kmh 29.75 in1007.5 mb 0.00 in0.0 mm 0.00 in0.0 mm 0.00 in0.0 mm
02:22 PM 95.0°F35.0°C 51.5°F10.8°C 23% 7.6 mph WNW12.2 kmh WNW 13.6 mph21.9 kmh 29.75 in1007.5 mb 0.00 in0.0 mm 0.00 in0.0 mm 0.00 in0.0 mm
02:23 PM 95.0°F35.0°C 51.5°F10.8°C 23% 5.4 mph WNW8.7 kmh WNW 13.6 mph21.9 kmh 29.75 in1007.5 mb 0.00 in0.0 mm 0.00 in0.0 mm 0.00 in0.0 mm
02:24 PM 95.0°F35.0°C 52.6°F11.4°C 24% 7.6 mph WNW12.2 kmh WNW 13.6 mph21.9 kmh 29.75 in1007.5 mb 0.00 in0.0 mm 0.00 in0.0 mm 0.00 in0.0 mm
02:25 PM 95.0°F35.0°C 51.5°F10.8°C 23% 4.5 mph WNW7.2 kmh WNW 13.6 mph21.9 kmh 29.75 in1007.5 mb 0.00 in0.0 mm 0.00 in0.0 mm 0.00 in0.0 mm
02:26 PM 95.0°F35.0°C 51.5°F10.8°C 23% 8.3 mph WNW13.4 kmh WNW 13.6 mph21.9 kmh 29.75 in1007.5 mb 0.00 in0.0 mm 0.00 in0.0 mm 0.00 in0.0 mm
02:27 PM 94.8°F34.9°C 52.5°F11.4°C 24% 5.4 mph WNW8.7 kmh WNW 13.6 mph21.9 kmh 29.75 in1007.5 mb 0.00 in0.0 mm 0.00 in0.0 mm 0.00 in0.0 mm
02:28 PM 94.6°F34.8°C 52.3°F11.3°C 24% 4.5 mph WNW7.2 kmh WNW 13.6 mph21.9 kmh 29.75 in1007.5 mb 0.00 in0.0 mm 0.00 in0.0 mm 0.00 in0.0 mm
02:29 PM 94.6°F34.8°C 52.3°F11.3°C 24% 4.5 mph W7.2 kmh W 13.6 mph21.9 kmh 29.75 in1007.5 mb 0.00 in0.0 mm 0.00 in0.0 mm 0.00 in0.0 mm
02:30 PM 94.8°F34.9°C 52.5°F11.4°C 24% 4.5 mph WNW7.2 kmh WNW 13.6 mph21.9 kmh 29.75 in1007.5 mb 0.00 in0.0 mm 0.00 in0.0 mm 0.00 in0.0 mm
02:31 PM 94.6°F34.8°C 52.3°F11.3°C 24% 7.6 mph WNW12.2 kmh WNW 13.6 mph21.9 kmh 29.75 in1007.5 mb 0.00 in0.0 mm 0.00 in0.0 mm 0.00 in0.0 mm
02:32 PM 94.6°F34.8°C 53.4°F11.9°C 25% 6.9 mph WNW11.1 kmh WNW 13.6 mph21.9 kmh 29.75 in1007.5 mb 0.00 in0.0 mm 0.00 in0.0 mm 0.00 in0.0 mm
02:33 PM 94.6°F34.8°C 53.4°F11.9°C 25% 5.4 mph WNW8.7 kmh WNW 13.6 mph21.9 kmh 29.75 in1007.5 mb 0.00 in0.0 mm 0.00 in0.0 mm 0.00 in0.0 mm
02:34 PM 94.6°F34.8°C 53.4°F11.9°C 25% 4.5 mph WNW7.2 kmh WNW 13.6 mph21.9 kmh 29.75 in1007.5 mb 0.00 in0.0 mm 0.00 in0.0 mm 0.00 in0.0 mm
02:35 PM 94.5°F34.7°C 53.3°F11.8°C 25% 3.1 mph WNW5.0 kmh WNW 13.6 mph21.9 kmh 29.75 in1007.5 mb 0.00 in0.0 mm 0.00 in0.0 mm 0.00 in0.0 mm
02:36 PM 94.5°F34.7°C 53.3°F11.8°C 25% 5.4 mph NW8.7 kmh NW 12.1 mph19.5 kmh 29.75 in1007.5 mb 0.00 in0.0 mm 0.00 in0.0 mm 0.00 in0.0 mm
02:37 PM 94.6°F34.8°C 53.4°F11.9°C 25% 3.8 mph NW6.1 kmh NW 12.1 mph19.5 kmh 29.75 in1007.5 mb 0.00 in0.0 mm 0.00 in0.0 mm 0.00 in0.0 mm
02:38 PM 94.8°F34.9°C 53.6°F12.0°C 25% 3.1 mph NW5.0 kmh NW 12.1 mph19.5 kmh 29.75 in1007.5 mb 0.00 in0.0 mm 0.00 in0.0 mm 0.00 in0.0 mm
02:39 PM 95.4°F35.2°C 52.9°F11.6°C 24% 9.2 mph NW14.8 kmh NW 12.1 mph19.5 kmh 29.74 in1007.1 mb 0.00 in0.0 mm 0.00 in0.0 mm 0.00 in0.0 mm
02:40 PM 95.5°F35.3°C 53.1°F11.7°C 24% 5.4 mph NW8.7 kmh NW 12.1 mph19.5 kmh 29.74 in1007.1 mb 0.00 in0.0 mm 0.00 in0.0 mm 0.00 in0.0 mm
02:41 PM 95.5°F35.3°C 53.1°F11.7°C 24% 6.9 mph NW11.1 kmh NW 12.1 mph19.5 kmh 29.75 in1007.5 mb 0.00 in0.0 mm 0.00 in0.0 mm 0.00 in0.0 mm
02:42 PM 95.5°F35.3°C 53.1°F11.7°C 24% 4.5 mph WNW7.2 kmh WNW 12.1 mph19.5 kmh 29.75 in1007.5 mb 0.00 in0.0 mm 0.00 in0.0 mm 0.00 in0.0 mm
02:43 PM 95.5°F35.3°C 53.1°F11.7°C 24% 3.8 mph WNW6.1 kmh WNW 12.1 mph19.5 kmh 29.74 in1007.1 mb 0.00 in0.0 mm 0.00 in0.0 mm 0.00 in0.0 mm
02:44 PM 95.7°F35.4°C 53.2°F11.8°C 24% 6.9 mph WNW11.1 kmh WNW 12.1 mph19.5 kmh 29.74 in1007.1 mb 0.00 in0.0 mm 0.00 in0.0 mm 0.00 in0.0 mm
02:45 PM 95.9°F35.5°C 53.4°F11.9°C 24% 4.5 mph WNW7.2 kmh WNW 12.1 mph19.5 kmh 29.74 in1007.1 mb 0.00 in0.0 mm 0.00 in0.0 mm 0.00 in0.0 mm
02:46 PM 95.9°F35.5°C 53.4°F11.9°C 24% 9.2 mph WNW14.8 kmh WNW 14.5 mph23.3 kmh 29.74 in1007.1 mb 0.00 in0.0 mm 0.00 in0.0 mm 0.00 in0.0 mm
02:47 PM 96.1°F35.6°C 52.4°F11.3°C 23% 7.6 mph WNW12.2 kmh WNW 14.5 mph23.3 kmh 29.75 in1007.5 mb 0.00 in0.0 mm 0.00 in0.0 mm 0.00 in0.0 mm
02:48 PM 96.1°F35.6°C 52.4°F11.3°C 23% 6.9 mph WNW11.1 kmh WNW 14.5 mph23.3 kmh 29.75 in1007.5 mb 0.00 in0.0 mm 0.00 in0.0 mm 0.00 in0.0 mm
02:49 PM 95.9°F35.5°C 52.2°F11.2°C 23% 2.2 mph WNW3.5 kmh WNW 14.5 mph23.3 kmh 29.74 in1007.1 mb 0.00 in0.0 mm 0.00 in0.0 mm 0.00 in0.0 mm
02:50 PM 95.9°F35.5°C 52.2°F11.2°C 23% 4.5 mph WNW7.2 kmh WNW 14.5 mph23.3 kmh 29.74 in1007.1 mb 0.00 in0.0 mm 0.00 in0.0 mm 0.00 in0.0 mm
02:51 PM 96.1°F35.6°C 52.4°F11.3°C 23% 5.4 mph WNW8.7 kmh WNW 14.5 mph23.3 kmh 29.74 in1007.1 mb 0.00 in0.0 mm 0.00 in0.0 mm 0.00 in0.0 mm
02:52 PM 96.1°F35.6°C 52.4°F11.3°C 23% 3.8 mph NW6.1 kmh NW 14.5 mph23.3 kmh 29.74 in1007.1 mb 0.00 in0.0 mm 0.00 in0.0 mm 0.00 in0.0 mm
02:53 PM 96.1°F35.6°C 52.4°F11.3°C 23% 5.4 mph NW8.7 kmh NW 14.5 mph23.3 kmh 29.74 in1007.1 mb 0.00 in0.0 mm 0.00 in0.0 mm 0.00 in0.0 mm
02:54 PM 96.1°F35.6°C 52.4°F11.3°C 23% 6.0 mph NW9.7 kmh NW 14.5 mph23.3 kmh 29.74 in1007.1 mb 0.00 in0.0 mm 0.00 in0.0 mm 0.00 in0.0 mm
02:55 PM 96.1°F35.6°C 51.2°F10.7°C 22% 3.8 mph NW6.1 kmh NW 14.5 mph23.3 kmh 29.74 in1007.1 mb 0.00 in0.0 mm 0.00 in0.0 mm 0.00 in0.0 mm
02:56 PM 96.1°F35.6°C 51.2°F10.7°C 22% 6.9 mph NW11.1 kmh NW 10.7 mph17.2 kmh 29.74 in1007.1 mb 0.00 in0.0 mm 0.00 in0.0 mm 0.00 in0.0 mm
02:57 PM 96.3°F35.7°C 51.3°F10.7°C 22% 6.9 mph WNW11.1 kmh WNW 12.1 mph19.5 kmh 29.74 in1007.1 mb 0.00 in0.0 mm 0.00 in0.0 mm 0.00 in0.0 mm
02:58 PM 96.1°F35.6°C 49.9°F9.9°C 21% 3.8 mph WNW6.1 kmh WNW 12.1 mph19.5 kmh 29.74 in1007.1 mb 0.00 in0.0 mm 0.00 in0.0 mm 0.00 in0.0 mm
02:59 PM 96.1°F35.6°C 48.6°F9.2°C 20% 4.5 mph WNW7.2 kmh WNW 12.1 mph19.5 kmh 29.74 in1007.1 mb 0.00 in0.0 mm 0.00 in0.0 mm 0.00 in0.0 mm
03:00 PM 96.1°F35.6°C 49.9°F9.9°C 21% 5.4 mph WNW8.7 kmh WNW 12.1 mph19.5 kmh 29.74 in1007.1 mb 0.00 in0.0 mm 0.00 in0.0 mm 0.00 in0.0 mm
03:01 PM 96.1°F35.6°C 51.2°F10.7°C 22% 5.4 mph NW8.7 kmh NW 12.1 mph19.5 kmh 29.74 in1007.1 mb 0.00 in0.0 mm 0.00 in0.0 mm 0.00 in0.0 mm
03:02 PM 95.9°F35.5°C 51.0°F10.6°C 22% 3.1 mph WNW5.0 kmh WNW 12.1 mph19.5 kmh 29.74 in1007.1 mb 0.00 in0.0 mm 0.00 in0.0 mm 0.00 in0.0 mm
03:03 PM 96.1°F35.6°C 52.4°F11.3°C 23% 6.9 mph WNW11.1 kmh WNW 12.1 mph19.5 kmh 29.74 in1007.1 mb 0.00 in0.0 mm 0.00 in0.0 mm 0.00 in0.0 mm
03:04 PM 96.1°F35.6°C 51.2°F10.7°C 22% 4.5 mph W7.2 kmh W 12.1 mph19.5 kmh 29.74 in1007.1 mb 0.00 in0.0 mm 0.00 in0.0 mm 0.00 in0.0 mm
03:05 PM 96.1°F35.6°C 52.4°F11.3°C 23% 3.1 mph W5.0 kmh W 12.1 mph19.5 kmh 29.73 in1006.8 mb 0.00 in0.0 mm 0.00 in0.0 mm 0.00 in0.0 mm
03:06 PM 96.3°F35.7°C 52.5°F11.4°C 23% 6.0 mph W9.7 kmh W 12.1 mph19.5 kmh 29.74 in1007.1 mb 0.00 in0.0 mm 0.00 in0.0 mm 0.00 in0.0 mm
03:07 PM 96.3°F35.7°C 52.5°F11.4°C 23% 3.1 mph WSW5.0 kmh WSW 12.1 mph19.5 kmh 29.74 in1007.1 mb 0.00 in0.0 mm 0.00 in0.0 mm 0.00 in0.0 mm
03:08 PM 96.4°F35.8°C 52.7°F11.5°C 23% 3.1 mph WSW5.0 kmh WSW 10.7 mph17.2 kmh 29.73 in1006.8 mb 0.00 in0.0 mm 0.00 in0.0 mm 0.00 in0.0 mm
03:09 PM 96.4°F35.8°C 47.5°F8.6°C 19% 4.5 mph WSW7.2 kmh WSW 10.7 mph17.2 kmh 29.73 in1006.8 mb 0.00 in0.0 mm 0.00 in0.0 mm 0.00 in0.0 mm
03:10 PM 96.6°F35.9°C 46.2°F7.9°C 18% 4.5 mph WSW7.2 kmh WSW 10.7 mph17.2 kmh 29.73 in1006.8 mb 0.00 in0.0 mm 0.00 in0.0 mm 0.00 in0.0 mm
03:11 PM 96.6°F35.9°C 50.3°F10.2°C 21% 4.5 mph SW7.2 kmh SW 10.7 mph17.2 kmh 29.73 in1006.8 mb 0.00 in0.0 mm 0.00 in0.0 mm 0.00 in0.0 mm
03:12 PM 96.6°F35.9°C 51.6°F10.9°C 22% 5.4 mph SW8.7 kmh SW 10.7 mph17.2 kmh 29.74 in1007.1 mb 0.00 in0.0 mm 0.00 in0.0 mm 0.00 in0.0 mm
03:13 PM 96.6°F35.9°C 51.6°F10.9°C 22% 5.4 mph WSW8.7 kmh WSW 10.7 mph17.2 kmh 29.73 in1006.8 mb 0.00 in0.0 mm 0.00 in0.0 mm 0.00 in0.0 mm
03:14 PM 96.6°F35.9°C 51.6°F10.9°C 22% 4.5 mph WSW7.2 kmh WSW 10.7 mph17.2 kmh 29.74 in1007.1 mb 0.00 in0.0 mm 0.00 in0.0 mm 0.00 in0.0 mm
03:15 PM 96.6°F35.9°C 50.3°F10.2°C 21% 6.0 mph W9.7 kmh W 10.7 mph17.2 kmh 29.73 in1006.8 mb 0.00 in0.0 mm 0.00 in0.0 mm 0.00 in0.0 mm
03:16 PM 96.6°F35.9°C 44.7°F7.1°C 17% 5.4 mph W8.7 kmh W 10.7 mph17.2 kmh 29.73 in1006.8 mb 0.00 in0.0 mm 0.00 in0.0 mm 0.00 in0.0 mm
03:17 PM 96.6°F35.9°C 41.5°F5.3°C 15% 7.6 mph W12.2 kmh W 13.0 mph20.9 kmh 29.73 in1006.8 mb 0.00 in0.0 mm 0.00 in0.0 mm 0.00 in0.0 mm
03:18 PM 96.6°F35.9°C 41.5°F5.3°C 15% 6.0 mph WNW9.7 kmh WNW 13.0 mph20.9 kmh 29.73 in1006.8 mb 0.00 in0.0 mm 0.00 in0.0 mm 0.00 in0.0 mm
03:19 PM 96.4°F35.8°C 41.3°F5.2°C 15% 6.0 mph WNW9.7 kmh WNW 13.0 mph20.9 kmh 29.73 in1006.8 mb 0.00 in0.0 mm 0.00 in0.0 mm 0.00 in0.0 mm
03:20 PM 96.3°F35.7°C 41.2°F5.1°C 15% 6.0 mph NW9.7 kmh NW 13.0 mph20.9 kmh 29.73 in1006.8 mb 0.00 in0.0 mm 0.00 in0.0 mm 0.00 in0.0 mm
03:21 PM 96.3°F35.7°C 42.9°F6.1°C 16% 2.2 mph NW3.5 kmh NW 13.0 mph20.9 kmh 29.73 in1006.8 mb 0.00 in0.0 mm 0.00 in0.0 mm 0.00 in0.0 mm
03:22 PM 96.3°F35.7°C 42.9°F6.1°C 16% 2.2 mph NW3.5 kmh NW 13.0 mph20.9 kmh 29.73 in1006.8 mb 0.00 in0.0 mm 0.00 in0.0 mm 0.00 in0.0 mm
03:23 PM 96.4°F35.8°C 43.0°F6.1°C 16% 1.6 mph NW2.6 kmh NW 13.0 mph20.9 kmh 29.73 in1006.8 mb 0.00 in0.0 mm 0.00 in0.0 mm 0.00 in0.0 mm
03:24 PM 96.6°F35.9°C 43.1°F6.2°C 16% 3.8 mph WNW6.1 kmh WNW 13.0 mph20.9 kmh 29.73 in1006.8 mb 0.00 in0.0 mm 0.00 in0.0 mm 0.00 in0.0 mm
03:25 PM 96.8°F36.0°C 41.6°F5.3°C 15% 3.8 mph WNW6.1 kmh WNW 13.0 mph20.9 kmh 29.74 in1007.1 mb 0.00 in0.0 mm 0.00 in0.0 mm 0.00 in0.0 mm
03:26 PM 97.0°F36.1°C 41.7°F5.4°C 15% 4.5 mph W7.2 kmh W 13.0 mph20.9 kmh 29.73 in1006.8 mb 0.00 in0.0 mm 0.00 in0.0 mm 0.00 in0.0 mm
03:27 PM 97.2°F36.2°C 40.1°F4.5°C 14% 6.0 mph WNW9.7 kmh WNW 13.0 mph20.9 kmh 29.73 in1006.8 mb 0.00 in0.0 mm 0.00 in0.0 mm 0.00 in0.0 mm
03:28 PM 97.2°F36.2°C 38.2°F3.4°C 13% 3.8 mph WNW6.1 kmh WNW 9.2 mph14.8 kmh 29.73 in1006.8 mb 0.00 in0.0 mm 0.00 in0.0 mm 0.00 in0.0 mm
03:29 PM 97.2°F36.2°C 38.2°F3.4°C 13% 3.1 mph WNW5.0 kmh WNW 9.2 mph14.8 kmh 29.73 in1006.8 mb 0.00 in0.0 mm 0.00 in0.0 mm 0.00 in0.0 mm
03:30 PM 97.0°F36.1°C 40.0°F4.4°C 14% 4.5 mph WNW7.2 kmh WNW 7.6 mph12.2 kmh 29.73 in1006.8 mb 0.00 in0.0 mm 0.00 in0.0 mm 0.00 in0.0 mm
03:31 PM 97.0°F36.1°C 41.7°F5.4°C 15% 3.8 mph W6.1 kmh W 7.6 mph12.2 kmh 29.73 in1006.8 mb 0.00 in0.0 mm 0.00 in0.0 mm 0.00 in0.0 mm
03:32 PM 97.2°F36.2°C 43.6°F6.4°C 16% 3.8 mph W6.1 kmh W 9.2 mph14.8 kmh 29.73 in1006.8 mb 0.00 in0.0 mm 0.00 in0.0 mm 0.00 in0.0 mm
03:33 PM 97.3°F36.3°C 43.7°F6.5°C 16% 6.9 mph W11.1 kmh W 9.8 mph15.8 kmh 29.73 in1006.8 mb 0.00 in0.0 mm 0.00 in0.0 mm 0.00 in0.0 mm
03:34 PM 97.3°F36.3°C 42.0°F5.6°C 15% 6.0 mph WNW9.7 kmh WNW 9.8 mph15.8 kmh 29.73 in1006.8 mb 0.00 in0.0 mm 0.00 in0.0 mm 0.00 in0.0 mm
03:35 PM 97.2°F36.2°C 43.6°F6.4°C 16% 9.2 mph WNW14.8 kmh WNW 14.5 mph23.3 kmh 29.73 in1006.8 mb 0.00 in0.0 mm 0.00 in0.0 mm 0.00 in0.0 mm
03:36 PM 97.0°F36.1°C 43.4°F6.3°C 16% 7.6 mph NW12.2 kmh NW 14.5 mph23.3 kmh 29.73 in1006.8 mb 0.00 in0.0 mm 0.00 in0.0 mm 0.00 in0.0 mm
03:37 PM 96.6°F35.9°C 44.7°F7.1°C 17% 6.0 mph NW9.7 kmh NW 14.5 mph23.3 kmh 29.73 in1006.8 mb 0.00 in0.0 mm 0.00 in0.0 mm 0.00 in0.0 mm
03:38 PM 96.3°F35.7°C 45.9°F7.7°C 18% 4.5 mph NW7.2 kmh NW 14.5 mph23.3 kmh 29.73 in1006.8 mb 0.00 in0.0 mm 0.00 in0.0 mm 0.00 in0.0 mm
03:39 PM 96.1°F35.6°C 45.8°F7.7°C 18% 3.1 mph NW5.0 kmh NW 14.5 mph23.3 kmh 29.73 in1006.8 mb 0.00 in0.0 mm 0.00 in0.0 mm 0.00 in0.0 mm
03:40 PM 96.1°F35.6°C 45.8°F7.7°C 18% 6.0 mph NW9.7 kmh NW 14.5 mph23.3 kmh 29.73 in1006.8 mb 0.00 in0.0 mm 0.00 in0.0 mm 0.00 in0.0 mm
03:41 PM 96.3°F35.7°C 45.9°F7.7°C 18% 6.9 mph NW11.1 kmh NW 14.5 mph23.3 kmh 29.73 in1006.8 mb 0.00 in0.0 mm 0.00 in0.0 mm 0.00 in0.0 mm
03:42 PM 96.3°F35.7°C 44.4°F6.9°C 17% 9.2 mph NW14.8 kmh NW 14.5 mph23.3 kmh 29.73 in1006.8 mb 0.00 in0.0 mm 0.00 in0.0 mm 0.00 in0.0 mm
03:43 PM 96.1°F35.6°C 42.7°F5.9°C 16% 5.4 mph NW8.7 kmh NW 14.5 mph23.3 kmh 29.73 in1006.8 mb 0.00 in0.0 mm 0.00 in0.0 mm 0.00 in0.0 mm
03:44 PM 96.1°F35.6°C 44.3°F6.8°C 17% 3.8 mph NNW6.1 kmh NNW 14.5 mph23.3 kmh 29.73 in1006.8 mb 0.00 in0.0 mm 0.00 in0.0 mm 0.00 in0.0 mm
03:45 PM 96.1°F35.6°C 44.3°F6.8°C 17% 3.1 mph NW5.0 kmh NW 14.5 mph23.3 kmh 29.73 in1006.8 mb 0.00 in0.0 mm 0.00 in0.0 mm 0.00 in0.0 mm
03:46 PM 96.1°F35.6°C 44.3°F6.8°C 17% 3.8 mph NW6.1 kmh NW 13.0 mph20.9 kmh 29.73 in1006.8 mb 0.00 in0.0 mm 0.00 in0.0 mm 0.00 in0.0 mm
03:47 PM 96.6°F35.9°C 41.5°F5.3°C 15% 6.0 mph NW9.7 kmh NW 13.0 mph20.9 kmh 29.72 in1006.4 mb 0.00 in0.0 mm 0.00 in0.0 mm 0.00 in0.0 mm
03:48 PM 96.6°F35.9°C 41.5°F5.3°C 15% 5.4 mph NW8.7 kmh NW 13.0 mph20.9 kmh 29.73 in1006.8 mb 0.00 in0.0 mm 0.00 in0.0 mm 0.00 in0.0 mm
03:49 PM 96.6°F35.9°C 41.5°F5.3°C 15% 6.0 mph NW9.7 kmh NW 13.0 mph20.9 kmh 29.72 in1006.4 mb 0.00 in0.0 mm 0.00 in0.0 mm 0.00 in0.0 mm
03:50 PM 96.6°F35.9°C 41.5°F5.3°C 15% 3.1 mph NW5.0 kmh NW 13.0 mph20.9 kmh 29.72 in1006.4 mb 0.00 in0.0 mm 0.00 in0.0 mm 0.00 in0.0 mm
03:51 PM 96.8°F36.0°C 43.3°F6.3°C 16% 3.1 mph NW5.0 kmh NW 13.0 mph20.9 kmh 29.72 in1006.4 mb 0.00 in0.0 mm 0.00 in0.0 mm 0.00 in0.0 mm
03:52 PM 96.8°F36.0°C 43.3°F6.3°C 16% 3.1 mph NW5.0 kmh NW 9.8 mph15.8 kmh 29.72 in1006.4 mb 0.00 in0.0 mm 0.00 in0.0 mm 0.00 in0.0 mm
03:53 PM 96.8°F36.0°C 43.3°F6.3°C 16% 3.1 mph NW5.0 kmh NW 9.8 mph15.8 kmh 29.72 in1006.4 mb 0.00 in0.0 mm 0.00 in0.0 mm 0.00 in0.0 mm
03:54 PM 97.0°F36.1°C 43.4°F6.3°C 16% 6.0 mph WNW9.7 kmh WNW 9.8 mph15.8 kmh 29.72 in1006.4 mb 0.00 in0.0 mm 0.00 in0.0 mm 0.00 in0.0 mm
03:55 PM 97.0°F36.1°C 43.4°F6.3°C 16% 5.4 mph WNW8.7 kmh WNW 9.8 mph15.8 kmh 29.72 in1006.4 mb 0.00 in0.0 mm 0.00 in0.0 mm 0.00 in0.0 mm
03:56 PM 97.2°F36.2°C 41.9°F5.5°C 15% 3.8 mph WNW6.1 kmh WNW 9.8 mph15.8 kmh 29.72 in1006.4 mb 0.00 in0.0 mm 0.00 in0.0 mm 0.00 in0.0 mm
03:57 PM 97.2°F36.2°C 43.6°F6.4°C 16% 5.4 mph WNW8.7 kmh WNW 9.8 mph15.8 kmh 29.72 in1006.4 mb 0.00 in0.0 mm 0.00 in0.0 mm 0.00 in0.0 mm
03:58 PM 97.3°F36.3°C 43.7°F6.5°C 16% 4.5 mph NW7.2 kmh NW 9.8 mph15.8 kmh 29.72 in1006.4 mb 0.00 in0.0 mm 0.00 in0.0 mm 0.00 in0.0 mm
03:59 PM 97.3°F36.3°C 45.3°F7.4°C 17% 3.8 mph NW6.1 kmh NW 9.8 mph15.8 kmh 29.72 in1006.4 mb 0.00 in0.0 mm 0.00 in0.0 mm 0.00 in0.0 mm
04:00 PM 97.3°F36.3°C 46.8°F8.2°C 18% 4.5 mph NW7.2 kmh NW 9.8 mph15.8 kmh 29.72 in1006.4 mb 0.00 in0.0 mm 0.00 in0.0 mm 0.00 in0.0 mm
04:01 PM 97.3°F36.3°C 46.8°F8.2°C 18% 3.8 mph NW6.1 kmh NW 9.8 mph15.8 kmh 29.72 in1006.4 mb 0.00 in0.0 mm 0.00 in0.0 mm 0.00 in0.0 mm
04:02 PM 97.2°F36.2°C 46.7°F8.2°C 18% 3.1 mph NW5.0 kmh NW 9.8 mph15.8 kmh 29.72 in1006.4 mb 0.00 in0.0 mm 0.00 in0.0 mm 0.00 in0.0 mm
04:03 PM 97.3°F36.3°C 46.8°F8.2°C 18% 3.1 mph NW5.0 kmh NW 9.8 mph15.8 kmh 29.72 in1006.4 mb 0.00 in0.0 mm 0.00 in0.0 mm 0.00 in0.0 mm
04:04 PM 97.5°F36.4°C 48.4°F9.1°C 19% 4.5 mph NW7.2 kmh NW 13.0 mph20.9 kmh 29.72 in1006.4 mb 0.00 in0.0 mm 0.00 in0.0 mm 0.00 in0.0 mm
04:05 PM 97.5°F36.4°C 47.0°F8.3°C 18% 3.8 mph NW6.1 kmh NW 13.0 mph20.9 kmh 29.72 in1006.4 mb 0.00 in0.0 mm 0.00 in0.0 mm 0.00 in0.0 mm
04:06 PM 97.5°F36.4°C 47.0°F8.3°C 18% 3.8 mph NW6.1 kmh NW 13.0 mph20.9 kmh 29.72 in1006.4 mb 0.00 in0.0 mm 0.00 in0.0 mm 0.00 in0.0 mm
04:07 PM 97.7°F36.5°C 48.5°F9.2°C 19% 3.8 mph NW6.1 kmh NW 13.0 mph20.9 kmh 29.72 in1006.4 mb 0.00 in0.0 mm 0.00 in0.0 mm 0.00 in0.0 mm
04:08 PM 97.5°F36.4°C 47.0°F8.3°C 18% 5.4 mph NNW8.7 kmh NNW 13.0 mph20.9 kmh 29.72 in1006.4 mb 0.00 in0.0 mm 0.00 in0.0 mm 0.00 in0.0 mm
04:09 PM 97.5°F36.4°C 47.0°F8.3°C 18% 7.6 mph NW12.2 kmh NW 13.0 mph20.9 kmh 29.71 in1006.1 mb 0.00 in0.0 mm 0.00 in0.0 mm 0.00 in0.0 mm
04:10 PM 97.5°F36.4°C 47.0°F8.3°C 18% 3.8 mph NW6.1 kmh NW 13.0 mph20.9 kmh 29.71 in1006.1 mb 0.00 in0.0 mm 0.00 in0.0 mm 0.00 in0.0 mm
04:11 PM 97.5°F36.4°C 47.0°F8.3°C 18% 4.5 mph NW7.2 kmh NW 13.0 mph20.9 kmh 29.72 in1006.4 mb 0.00 in0.0 mm 0.00 in0.0 mm 0.00 in0.0 mm
04:12 PM 97.5°F36.4°C 47.0°F8.3°C 18% 4.5 mph NW7.2 kmh NW 13.0 mph20.9 kmh 29.71 in1006.1 mb 0.00 in0.0 mm 0.00 in0.0 mm 0.00 in0.0 mm
04:13 PM 97.5°F36.4°C 47.0°F8.3°C 18% 3.8 mph NW6.1 kmh NW 13.0 mph20.9 kmh 29.71 in1006.1 mb 0.00 in0.0 mm 0.00 in0.0 mm 0.00 in0.0 mm
04:14 PM 97.5°F36.4°C 45.4°F7.4°C 17% 4.5 mph NW7.2 kmh NW 12.1 mph19.5 kmh 29.72 in1006.4 mb 0.00 in0.0 mm 0.00 in0.0 mm 0.00 in0.0 mm
04:15 PM 97.7°F36.5°C 45.6°F7.6°C 17% 4.5 mph NW7.2 kmh NW 12.1 mph19.5 kmh 29.72 in1006.4 mb 0.00 in0.0 mm 0.00 in0.0 mm 0.00 in0.0 mm
04:16 PM 97.7°F36.5°C 45.6°F7.6°C 17% 3.1 mph NW5.0 kmh NW 12.1 mph19.5 kmh 29.72 in1006.4 mb 0.00 in0.0 mm 0.00 in0.0 mm 0.00 in0.0 mm
04:17 PM 97.7°F36.5°C 45.6°F7.6°C 17% 6.0 mph WNW9.7 kmh WNW 12.1 mph19.5 kmh 29.72 in1006.4 mb 0.00 in0.0 mm 0.00 in0.0 mm 0.00 in0.0 mm
04:18 PM 97.7°F36.5°C 44.0°F6.7°C 16% 5.4 mph WNW8.7 kmh WNW 12.1 mph19.5 kmh 29.71 in1006.1 mb 0.00 in0.0 mm 0.00 in0.0 mm 0.00 in0.0 mm
04:19 PM 97.7°F36.5°C 44.0°F6.7°C 16% 3.8 mph NW6.1 kmh NW 10.7 mph17.2 kmh 29.71 in1006.1 mb 0.00 in0.0 mm 0.00 in0.0 mm 0.00 in0.0 mm
04:20 PM 97.9°F36.6°C 44.1°F6.7°C 16% 3.1 mph NW5.0 kmh NW 10.7 mph17.2 kmh 29.72 in1006.4 mb 0.00 in0.0 mm 0.00 in0.0 mm 0.00 in0.0 mm
04:21 PM 97.9°F36.6°C 45.7°F7.6°C 17% 3.1 mph WNW5.0 kmh WNW 10.7 mph17.2 kmh 29.71 in1006.1 mb 0.00 in0.0 mm 0.00 in0.0 mm 0.00 in0.0 mm
04:22 PM 97.9°F36.6°C 45.7°F7.6°C 17% 1.6 mph WNW2.6 kmh WNW 10.7 mph17.2 kmh 29.72 in1006.4 mb 0.00 in0.0 mm 0.00 in0.0 mm 0.00 in0.0 mm
04:23 PM 97.9°F36.6°C 45.7°F7.6°C 17% 3.1 mph WNW5.0 kmh WNW 10.7 mph17.2 kmh 29.71 in1006.1 mb 0.00 in0.0 mm 0.00 in0.0 mm 0.00 in0.0 mm
04:24 PM 97.9°F36.6°C 45.7°F7.6°C 17% 6.9 mph W11.1 kmh W 10.7 mph17.2 kmh 29.72 in1006.4 mb 0.00 in0.0 mm 0.00 in0.0 mm 0.00 in0.0 mm
04:25 PM 97.9°F36.6°C 44.1°F6.7°C 16% 3.1 mph W5.0 kmh W 10.7 mph17.2 kmh 29.71 in1006.1 mb 0.00 in0.0 mm 0.00 in0.0 mm 0.00 in0.0 mm
04:26 PM 97.9°F36.6°C 44.1°F6.7°C 16% 4.5 mph W7.2 kmh W 10.7 mph17.2 kmh 29.72 in1006.4 mb 0.00 in0.0 mm 0.00 in0.0 mm 0.00 in0.0 mm
04:27 PM 97.9°F36.6°C 45.7°F7.6°C 17% 6.0 mph W9.7 kmh W 9.8 mph15.8 kmh 29.71 in1006.1 mb 0.00 in0.0 mm 0.00 in0.0 mm 0.00 in0.0 mm
04:28 PM 97.7°F36.5°C 44.0°F6.7°C 16% 4.5 mph W7.2 kmh W 9.2 mph14.8 kmh 29.72 in1006.4 mb 0.00 in0.0 mm 0.00 in0.0 mm 0.00 in0.0 mm
04:29 PM 97.7°F36.5°C 45.6°F7.6°C 17% 8.3 mph W13.4 kmh W 11.4 mph18.3 kmh 29.72 in1006.4 mb 0.00 in0.0 mm 0.00 in0.0 mm 0.00 in0.0 mm
04:30 PM 97.5°F36.4°C 43.9°F6.6°C 16% 4.5 mph W7.2 kmh W 11.4 mph18.3 kmh 29.72 in1006.4 mb 0.00 in0.0 mm 0.00 in0.0 mm 0.00 in0.0 mm
04:31 PM 97.0°F36.1°C 43.4°F6.3°C 16% 4.5 mph W7.2 kmh W 11.4 mph18.3 kmh 29.71 in1006.1 mb 0.00 in0.0 mm 0.00 in0.0 mm 0.00 in0.0 mm
04:32 PM 97.0°F36.1°C 43.4°F6.3°C 16% 3.1 mph W5.0 kmh W 11.4 mph18.3 kmh 29.72 in1006.4 mb 0.00 in0.0 mm 0.00 in0.0 mm 0.00 in0.0 mm
04:33 PM 97.0°F36.1°C 43.4°F6.3°C 16% 5.4 mph W8.7 kmh W 11.4 mph18.3 kmh 29.71 in1006.1 mb 0.00 in0.0 mm 0.00 in0.0 mm 0.00 in0.0 mm
04:34 PM 97.0°F36.1°C 43.4°F6.3°C 16% 3.8 mph WNW6.1 kmh WNW 11.4 mph18.3 kmh 29.71 in1006.1 mb 0.00 in0.0 mm 0.00 in0.0 mm 0.00 in0.0 mm
04:35 PM 97.0°F36.1°C 43.4°F6.3°C 16% 3.1 mph NW5.0 kmh NW 11.4 mph18.3 kmh 29.71 in1006.1 mb 0.00 in0.0 mm 0.00 in0.0 mm 0.00 in0.0 mm
04:36 PM 97.0°F36.1°C 43.4°F6.3°C 16% 7.6 mph NW12.2 kmh NW 11.4 mph18.3 kmh 29.71 in1006.1 mb 0.00 in0.0 mm 0.00 in0.0 mm 0.00 in0.0 mm
04:37 PM 97.0°F36.1°C 43.4°F6.3°C 16% 4.5 mph NW7.2 kmh NW 11.4 mph18.3 kmh 29.72 in1006.4 mb 0.00 in0.0 mm 0.00 in0.0 mm 0.00 in0.0 mm
04:38 PM 97.0°F36.1°C 43.4°F6.3°C 16% 6.9 mph NW11.1 kmh NW 11.4 mph18.3 kmh 29.72 in1006.4 mb 0.00 in0.0 mm 0.00 in0.0 mm 0.00 in0.0 mm
04:39 PM 97.0°F36.1°C 41.7°F5.4°C 15% 3.8 mph NW6.1 kmh NW 10.7 mph17.2 kmh 29.71 in1006.1 mb 0.00 in0.0 mm 0.00 in0.0 mm 0.00 in0.0 mm
04:40 PM 97.0°F36.1°C 41.7°F5.4°C 15% 3.8 mph NW6.1 kmh NW 10.7 mph17.2 kmh 29.71 in1006.1 mb 0.00 in0.0 mm 0.00 in0.0 mm 0.00 in0.0 mm
04:41 PM 96.8°F36.0°C 41.6°F5.3°C 15% 0.7 mph NW1.1 kmh NW 10.7 mph17.2 kmh 29.71 in1006.1 mb 0.00 in0.0 mm 0.00 in0.0 mm 0.00 in0.0 mm
04:42 PM 97.0°F36.1°C 41.7°F5.4°C 15% 3.1 mph NW5.0 kmh NW 10.7 mph17.2 kmh 29.71 in1006.1 mb 0.00 in0.0 mm 0.00 in0.0 mm 0.00 in0.0 mm
04:43 PM 97.0°F36.1°C 41.7°F5.4°C 15% 4.5 mph NW7.2 kmh NW 10.7 mph17.2 kmh 29.71 in1006.1 mb 0.00 in0.0 mm 0.00 in0.0 mm 0.00 in0.0 mm
04:44 PM 97.2°F36.2°C 41.9°F5.5°C 15% 6.0 mph NW9.7 kmh NW 10.7 mph17.2 kmh 29.71 in1006.1 mb 0.00 in0.0 mm 0.00 in0.0 mm 0.00 in0.0 mm
04:45 PM 97.2°F36.2°C 41.9°F5.5°C 15% 3.8 mph WNW6.1 kmh WNW 10.7 mph17.2 kmh 29.72 in1006.4 mb 0.00 in0.0 mm 0.00 in0.0 mm 0.00 in0.0 mm
04:46 PM 97.0°F36.1°C 41.7°F5.4°C 15% 3.1 mph WNW5.0 kmh WNW 10.7 mph17.2 kmh 29.71 in1006.1 mb 0.00 in0.0 mm 0.00 in0.0 mm 0.00 in0.0 mm
04:47 PM 97.0°F36.1°C 43.4°F6.3°C 16% 3.8 mph W6.1 kmh W 10.7 mph17.2 kmh 29.71 in1006.1 mb 0.00 in0.0 mm 0.00 in0.0 mm 0.00 in0.0 mm
04:48 PM 97.0°F36.1°C 41.7°F5.4°C 15% 2.2 mph W3.5 kmh W 10.7 mph17.2 kmh 29.71 in1006.1 mb 0.00 in0.0 mm 0.00 in0.0 mm 0.00 in0.0 mm
04:49 PM 97.2°F36.2°C 41.9°F5.5°C 15% 2.2 mph W3.5 kmh W 10.7 mph17.2 kmh 29.72 in1006.4 mb 0.00 in0.0 mm 0.00 in0.0 mm 0.00 in0.0 mm
04:50 PM 97.3°F36.3°C 42.0°F5.6°C 15% 3.1 mph W5.0 kmh W 10.7 mph17.2 kmh 29.71 in1006.1 mb 0.00 in0.0 mm 0.00 in0.0 mm 0.00 in0.0 mm
04:51 PM 97.5°F36.4°C 42.2°F5.7°C 15% 4.5 mph W7.2 kmh W 10.7 mph17.2 kmh 29.71 in1006.1 mb 0.00 in0.0 mm 0.00 in0.0 mm 0.00 in0.0 mm
04:52 PM 97.5°F36.4°C 43.9°F6.6°C 16% 3.8 mph W6.1 kmh W 10.7 mph17.2 kmh 29.71 in1006.1 mb 0.00 in0.0 mm 0.00 in0.0 mm 0.00 in0.0 mm
04:53 PM 97.5°F36.4°C 43.9°F6.6°C 16% 4.5 mph W7.2 kmh W 9.2 mph14.8 kmh 29.71 in1006.1 mb 0.00 in0.0 mm 0.00 in0.0 mm 0.00 in0.0 mm
04:54 PM 97.5°F36.4°C 45.4°F7.4°C 17% 3.8 mph W6.1 kmh W 9.2 mph14.8 kmh 29.71 in1006.1 mb 0.00 in0.0 mm 0.00 in0.0 mm 0.00 in0.0 mm
04:55 PM 97.5°F36.4°C 45.4°F7.4°C 17% 3.8 mph W6.1 kmh W 8.3 mph13.4 kmh 29.71 in1006.1 mb 0.00 in0.0 mm 0.00 in0.0 mm 0.00 in0.0 mm
04:56 PM 97.3°F36.3°C 45.3°F7.4°C 17% 2.2 mph W3.5 kmh W 8.3 mph13.4 kmh 29.71 in1006.1 mb 0.00 in0.0 mm 0.00 in0.0 mm 0.00 in0.0 mm
04:57 PM 97.5°F36.4°C 45.4°F7.4°C 17% 2.2 mph W3.5 kmh W 8.3 mph13.4 kmh 29.71 in1006.1 mb 0.00 in0.0 mm 0.00 in0.0 mm 0.00 in0.0 mm
04:58 PM 97.5°F36.4°C 47.0°F8.3°C 18% 5.4 mph W8.7 kmh W 8.3 mph13.4 kmh 29.71 in1006.1 mb 0.00 in0.0 mm 0.00 in0.0 mm 0.00 in0.0 mm
04:59 PM 97.5°F36.4°C 45.4°F7.4°C 17% 1.6 mph W2.6 kmh W 8.3 mph13.4 kmh 29.71 in1006.1 mb 0.00 in0.0 mm 0.00 in0.0 mm 0.00 in0.0 mm
05:00 PM 97.7°F36.5°C 45.6°F7.6°C 17% 5.4 mph W8.7 kmh W 8.3 mph13.4 kmh 29.71 in1006.1 mb 0.00 in0.0 mm 0.00 in0.0 mm 0.00 in0.0 mm
05:01 PM 97.7°F36.5°C 47.1°F8.4°C 18% 6.0 mph WNW9.7 kmh WNW 8.3 mph13.4 kmh 29.71 in1006.1 mb 0.00 in0.0 mm 0.00 in0.0 mm 0.00 in0.0 mm
05:02 PM 97.7°F36.5°C 47.1°F8.4°C 18% 3.1 mph WNW5.0 kmh WNW 8.3 mph13.4 kmh 29.71 in1006.1 mb 0.00 in0.0 mm 0.00 in0.0 mm 0.00 in0.0 mm
05:03 PM 97.7°F36.5°C 47.1°F8.4°C 18% 4.5 mph NW7.2 kmh NW 8.3 mph13.4 kmh 29.71 in1006.1 mb 0.00 in0.0 mm 0.00 in0.0 mm 0.00 in0.0 mm
05:04 PM 97.5°F36.4°C 45.4°F7.4°C 17% 9.2 mph NW14.8 kmh NW 13.6 mph21.9 kmh 29.71 in1006.1 mb 0.00 in0.0 mm 0.00 in0.0 mm 0.00 in0.0 mm
05:05 PM 97.3°F36.3°C 45.3°F7.4°C 17% 3.8 mph WNW6.1 kmh WNW 13.6 mph21.9 kmh 29.71 in1006.1 mb 0.00 in0.0 mm 0.00 in0.0 mm 0.00 in0.0 mm
05:06 PM 97.2°F36.2°C 45.2°F7.3°C 17% 4.5 mph NW7.2 kmh NW 13.6 mph21.9 kmh 29.71 in1006.1 mb 0.00 in0.0 mm 0.00 in0.0 mm 0.00 in0.0 mm
05:07 PM 97.2°F36.2°C 46.7°F8.2°C 18% 9.2 mph NW14.8 kmh NW 13.6 mph21.9 kmh 29.71 in1006.1 mb 0.00 in0.0 mm 0.00 in0.0 mm 0.00 in0.0 mm
05:08 PM 97.2°F36.2°C 46.7°F8.2°C 18% 5.4 mph NW8.7 kmh NW 13.6 mph21.9 kmh 29.71 in1006.1 mb 0.00 in0.0 mm 0.00 in0.0 mm 0.00 in0.0 mm
05:09 PM 97.0°F36.1°C 45.0°F7.2°C 17% 3.1 mph NW5.0 kmh NW 13.6 mph21.9 kmh 29.71 in1006.1 mb 0.00 in0.0 mm 0.00 in0.0 mm 0.00 in0.0 mm
05:10 PM 97.0°F36.1°C 45.0°F7.2°C 17% 3.1 mph NW5.0 kmh NW 13.6 mph21.9 kmh 29.71 in1006.1 mb 0.00 in0.0 mm 0.00 in0.0 mm 0.00 in0.0 mm
05:11 PM 97.2°F36.2°C 45.2°F7.3°C 17% 0.7 mph NW1.1 kmh NW 13.6 mph21.9 kmh 29.71 in1006.1 mb 0.00 in0.0 mm 0.00 in0.0 mm 0.00 in0.0 mm
05:12 PM 97.3°F36.3°C 45.3°F7.4°C 17% 1.6 mph NW2.6 kmh NW 13.6 mph21.9 kmh 29.70 in1005.8 mb 0.00 in0.0 mm 0.00 in0.0 mm 0.00 in0.0 mm
05:13 PM 97.3°F36.3°C 46.8°F8.2°C 18% 3.8 mph NW6.1 kmh NW 13.6 mph21.9 kmh 29.71 in1006.1 mb 0.00 in0.0 mm 0.00 in0.0 mm 0.00 in0.0 mm
05:14 PM 97.5°F36.4°C 45.4°F7.4°C 17% 4.5 mph NW7.2 kmh NW 13.6 mph21.9 kmh 29.70 in1005.8 mb 0.00 in0.0 mm 0.00 in0.0 mm 0.00 in0.0 mm
05:15 PM 97.5°F36.4°C 43.9°F6.6°C 16% 7.6 mph NW12.2 kmh NW 11.4 mph18.3 kmh 29.70 in1005.8 mb 0.00 in0.0 mm 0.00 in0.0 mm 0.00 in0.0 mm
05:16 PM 97.3°F36.3°C 43.7°F6.5°C 16% 9.8 mph NNW15.8 kmh NNW 13.6 mph21.9 kmh 29.70 in1005.8 mb 0.00 in0.0 mm 0.00 in0.0 mm 0.00 in0.0 mm
05:17 PM 97.2°F36.2°C 43.6°F6.4°C 16% 9.2 mph NW14.8 kmh NW 13.6 mph21.9 kmh 29.70 in1005.8 mb 0.00 in0.0 mm 0.00 in0.0 mm 0.00 in0.0 mm
05:18 PM 97.0°F36.1°C 45.0°F7.2°C 17% 4.5 mph NW7.2 kmh NW 13.6 mph21.9 kmh 29.71 in1006.1 mb 0.00 in0.0 mm 0.00 in0.0 mm 0.00 in0.0 mm
05:19 PM 97.0°F36.1°C 45.0°F7.2°C 17% 3.8 mph NW6.1 kmh NW 13.6 mph21.9 kmh 29.71 in1006.1 mb 0.00 in0.0 mm 0.00 in0.0 mm 0.00 in0.0 mm
05:20 PM 97.0°F36.1°C 43.4°F6.3°C 16% 0.7 mph WNW1.1 kmh WNW 13.6 mph21.9 kmh 29.70 in1005.8 mb 0.00 in0.0 mm 0.00 in0.0 mm 0.00 in0.0 mm
05:21 PM 97.0°F36.1°C 43.4°F6.3°C 16% 1.6 mph WNW2.6 kmh WNW 13.6 mph21.9 kmh 29.70 in1005.8 mb 0.00 in0.0 mm 0.00 in0.0 mm 0.00 in0.0 mm
05:22 PM 97.2°F36.2°C 43.6°F6.4°C 16% Calm Calm 13.6 mph21.9 kmh 29.71 in1006.1 mb 0.00 in0.0 mm 0.00 in0.0 mm 0.00 in0.0 mm
05:23 PM 97.3°F36.3°C 42.0°F5.6°C 15% 0.7 mph WNW1.1 kmh WNW 13.6 mph21.9 kmh 29.70 in1005.8 mb 0.00 in0.0 mm 0.00 in0.0 mm 0.00 in0.0 mm
05:24 PM 97.7°F36.5°C 42.3°F5.7°C 15% 3.1 mph WNW5.0 kmh WNW 13.6 mph21.9 kmh 29.70 in1005.8 mb 0.00 in0.0 mm 0.00 in0.0 mm 0.00 in0.0 mm
05:25 PM 97.9°F36.6°C 42.5°F5.8°C 15% 6.0 mph W9.7 kmh W 13.6 mph21.9 kmh 29.70 in1005.8 mb 0.00 in0.0 mm 0.00 in0.0 mm 0.00 in0.0 mm
05:26 PM 97.9°F36.6°C 42.5°F5.8°C 15% 6.9 mph WSW11.1 kmh WSW 13.6 mph21.9 kmh 29.70 in1005.8 mb 0.00 in0.0 mm 0.00 in0.0 mm 0.00 in0.0 mm
05:27 PM 97.7°F36.5°C 40.5°F4.7°C 14% 5.4 mph SW8.7 kmh SW 12.1 mph19.5 kmh 29.71 in1006.1 mb 0.00 in0.0 mm 0.00 in0.0 mm 0.00 in0.0 mm
05:28 PM 97.7°F36.5°C 40.5°F4.7°C 14% 5.4 mph SW8.7 kmh SW 9.2 mph14.8 kmh 29.71 in1006.1 mb 0.00 in0.0 mm 0.00 in0.0 mm 0.00 in0.0 mm
05:29 PM 97.2°F36.2°C 40.1°F4.5°C 14% 5.4 mph SSW8.7 kmh SSW 13.0 mph20.9 kmh 29.70 in1005.8 mb 0.00 in0.0 mm 0.00 in0.0 mm 0.00 in0.0 mm
05:30 PM 97.0°F36.1°C 40.0°F4.4°C 14% 6.9 mph S11.1 kmh S 13.0 mph20.9 kmh 29.70 in1005.8 mb 0.00 in0.0 mm 0.00 in0.0 mm 0.00 in0.0 mm
05:31 PM 96.4°F35.8°C 41.3°F5.2°C 15% 3.8 mph S6.1 kmh S 13.0 mph20.9 kmh 29.71 in1006.1 mb 0.00 in0.0 mm 0.00 in0.0 mm 0.00 in0.0 mm
05:32 PM 96.4°F35.8°C 41.3°F5.2°C 15% 6.0 mph S9.7 kmh S 13.0 mph20.9 kmh 29.70 in1005.8 mb 0.00 in0.0 mm 0.00 in0.0 mm 0.00 in0.0 mm
05:33 PM 96.4°F35.8°C 41.3°F5.2°C 15% 6.9 mph S11.1 kmh S 13.0 mph20.9 kmh 29.71 in1006.1 mb 0.00 in0.0 mm 0.00 in0.0 mm 0.00 in0.0 mm
05:34 PM 96.4°F35.8°C 41.3°F5.2°C 15% 4.5 mph S7.2 kmh S 13.0 mph20.9 kmh 29.70 in1005.8 mb 0.00 in0.0 mm 0.00 in0.0 mm 0.00 in0.0 mm
05:35 PM 96.4°F35.8°C 43.0°F6.1°C 16% 3.1 mph SSW5.0 kmh SSW 13.0 mph20.9 kmh 29.71 in1006.1 mb 0.00 in0.0 mm 0.00 in0.0 mm 0.00 in0.0 mm
05:36 PM 96.4°F35.8°C 41.3°F5.2°C 15% 3.1 mph SSW5.0 kmh SSW 13.0 mph20.9 kmh 29.71 in1006.1 mb 0.00 in0.0 mm 0.00 in0.0 mm 0.00 in0.0 mm
05:37 PM 96.6°F35.9°C 41.5°F5.3°C 15% 3.1 mph SSW5.0 kmh SSW 13.0 mph20.9 kmh 29.70 in1005.8 mb 0.00 in0.0 mm 0.00 in0.0 mm 0.00 in0.0 mm
05:38 PM 96.6°F35.9°C 41.5°F5.3°C 15% 3.8 mph SSW6.1 kmh SSW 13.0 mph20.9 kmh 29.70 in1005.8 mb 0.00 in0.0 mm 0.00 in0.0 mm 0.00 in0.0 mm
05:39 PM 96.6°F35.9°C 41.5°F5.3°C 15% 3.1 mph SW5.0 kmh SW 9.8 mph15.8 kmh 29.70 in1005.8 mb 0.00 in0.0 mm 0.00 in0.0 mm 0.00 in0.0 mm
05:40 PM 96.6°F35.9°C 41.5°F5.3°C 15% 6.0 mph SW9.7 kmh SW 9.8 mph15.8 kmh 29.70 in1005.8 mb 0.00 in0.0 mm 0.00 in0.0 mm 0.00 in0.0 mm
05:41 PM 96.6°F35.9°C 43.1°F6.2°C 16% 2.2 mph WSW3.5 kmh WSW 9.8 mph15.8 kmh 29.70 in1005.8 mb 0.00 in0.0 mm 0.00 in0.0 mm 0.00 in0.0 mm
05:42 PM 96.8°F36.0°C 41.6°F5.3°C 15% 2.2 mph WSW3.5 kmh WSW 9.8 mph15.8 kmh 29.70 in1005.8 mb 0.00 in0.0 mm 0.00 in0.0 mm 0.00 in0.0 mm
05:43 PM 97.0°F36.1°C 41.7°F5.4°C 15% 6.0 mph WSW9.7 kmh WSW 9.8 mph15.8 kmh 29.70 in1005.8 mb 0.00 in0.0 mm 0.00 in0.0 mm 0.00 in0.0 mm
05:44 PM 97.2°F36.2°C 40.1°F4.5°C 14% 4.5 mph WSW7.2 kmh WSW 9.8 mph15.8 kmh 29.70 in1005.8 mb 0.00 in0.0 mm 0.00 in0.0 mm 0.00 in0.0 mm
05:45 PM 97.0°F36.1°C 40.0°F4.4°C 14% 4.5 mph WSW7.2 kmh WSW 9.8 mph15.8 kmh 29.70 in1005.8 mb 0.00 in0.0 mm 0.00 in0.0 mm 0.00 in0.0 mm
05:46 PM 97.0°F36.1°C 40.0°F4.4°C 14% 3.8 mph WSW6.1 kmh WSW 9.8 mph15.8 kmh 29.70 in1005.8 mb 0.00 in0.0 mm 0.00 in0.0 mm 0.00 in0.0 mm
05:47 PM 97.0°F36.1°C 40.0°F4.4°C 14% 3.8 mph SW6.1 kmh SW 9.8 mph15.8 kmh 29.70 in1005.8 mb 0.00 in0.0 mm 0.00 in0.0 mm 0.00 in0.0 mm
05:48 PM 97.0°F36.1°C 40.0°F4.4°C 14% 3.8 mph SW6.1 kmh SW 9.8 mph15.8 kmh 29.70 in1005.8 mb 0.00 in0.0 mm 0.00 in0.0 mm 0.00 in0.0 mm
05:49 PM 97.0°F36.1°C 40.0°F4.4°C 14% 4.5 mph SW7.2 kmh SW 9.2 mph14.8 kmh 29.70 in1005.8 mb 0.00 in0.0 mm 0.00 in0.0 mm 0.00 in0.0 mm
05:50 PM 97.0°F36.1°C 40.0°F4.4°C 14% 2.2 mph SW3.5 kmh SW 9.2 mph14.8 kmh 29.70 in1005.8 mb 0.00 in0.0 mm 0.00 in0.0 mm 0.00 in0.0 mm
05:51 PM 97.0°F36.1°C 41.7°F5.4°C 15% 3.1 mph SW5.0 kmh SW 8.3 mph13.4 kmh 29.71 in1006.1 mb 0.00 in0.0 mm 0.00 in0.0 mm 0.00 in0.0 mm
05:52 PM 97.0°F36.1°C 41.7°F5.4°C 15% 5.4 mph SW8.7 kmh SW 8.3 mph13.4 kmh 29.70 in1005.8 mb 0.00 in0.0 mm 0.00 in0.0 mm 0.00 in0.0 mm
05:53 PM 97.0°F36.1°C 40.0°F4.4°C 14% 3.8 mph SW6.1 kmh SW 8.3 mph13.4 kmh 29.70 in1005.8 mb 0.00 in0.0 mm 0.00 in0.0 mm 0.00 in0.0 mm
05:54 PM 97.0°F36.1°C 40.0°F4.4°C 14% 3.8 mph SW6.1 kmh SW 8.3 mph13.4 kmh 29.70 in1005.8 mb 0.00 in0.0 mm 0.00 in0.0 mm 0.00 in0.0 mm
05:55 PM 97.0°F36.1°C 40.0°F4.4°C 14% 4.5 mph SW7.2 kmh SW 8.3 mph13.4 kmh 29.70 in1005.8 mb 0.00 in0.0 mm 0.00 in0.0 mm 0.00 in0.0 mm
05:56 PM 97.0°F36.1°C 40.0°F4.4°C 14% 2.2 mph SW3.5 kmh SW 8.3 mph13.4 kmh 29.70 in1005.8 mb 0.00 in0.0 mm 0.00 in0.0 mm 0.00 in0.0 mm
05:57 PM 97.0°F36.1°C 40.0°F4.4°C 14% 4.5 mph SW7.2 kmh SW 7.6 mph12.2 kmh 29.70 in1005.8 mb 0.00 in0.0 mm 0.00 in0.0 mm 0.00 in0.0 mm
05:58 PM 96.8°F36.0°C 39.8°F4.3°C 14% 3.1 mph SW5.0 kmh SW 7.6 mph12.2 kmh 29.70 in1005.8 mb 0.00 in0.0 mm 0.00 in0.0 mm 0.00 in0.0 mm
05:59 PM 96.8°F36.0°C 39.8°F4.3°C 14% 2.2 mph SW3.5 kmh SW 7.6 mph12.2 kmh 29.70 in1005.8 mb 0.00 in0.0 mm 0.00 in0.0 mm 0.00 in0.0 mm
06:00 PM 97.0°F36.1°C 40.0°F4.4°C 14% 2.2 mph SW3.5 kmh SW 7.6 mph12.2 kmh 29.70 in1005.8 mb 0.00 in0.0 mm 0.00 in0.0 mm 0.00 in0.0 mm
06:01 PM 97.0°F36.1°C 40.0°F4.4°C 14% 2.2 mph SW3.5 kmh SW 7.6 mph12.2 kmh 29.70 in1005.8 mb 0.00 in0.0 mm 0.00 in0.0 mm 0.00 in0.0 mm
06:02 PM 97.2°F36.2°C 40.1°F4.5°C 14% 3.1 mph SW5.0 kmh SW 7.6 mph12.2 kmh 29.70 in1005.8 mb 0.00 in0.0 mm 0.00 in0.0 mm 0.00 in0.0 mm
06:03 PM 97.3°F36.3°C 40.2°F4.6°C 14% 3.1 mph SW5.0 kmh SW 7.6 mph12.2 kmh 29.70 in1005.8 mb 0.00 in0.0 mm 0.00 in0.0 mm 0.00 in0.0 mm
06:04 PM 97.5°F36.4°C 40.4°F4.7°C 14% 2.2 mph SW3.5 kmh SW 7.6 mph12.2 kmh 29.70 in1005.8 mb 0.00 in0.0 mm 0.00 in0.0 mm 0.00 in0.0 mm
06:05 PM 97.5°F36.4°C 40.4°F4.7°C 14% 3.1 mph SW5.0 kmh SW 6.9 mph11.1 kmh 29.70 in1005.8 mb 0.00 in0.0 mm 0.00 in0.0 mm 0.00 in0.0 mm
06:06 PM 97.5°F36.4°C 40.4°F4.7°C 14% 1.6 mph WSW2.6 kmh WSW 6.9 mph11.1 kmh 29.70 in1005.8 mb 0.00 in0.0 mm 0.00 in0.0 mm 0.00 in0.0 mm
06:07 PM 97.7°F36.5°C 40.5°F4.7°C 14% 3.1 mph WSW5.0 kmh WSW 6.9 mph11.1 kmh 29.70 in1005.8 mb 0.00 in0.0 mm 0.00 in0.0 mm 0.00 in0.0 mm
06:08 PM 97.7°F36.5°C 40.5°F4.7°C 14% 5.4 mph WSW8.7 kmh WSW 6.9 mph11.1 kmh 29.70 in1005.8 mb 0.00 in0.0 mm 0.00 in0.0 mm 0.00 in0.0 mm
06:09 PM 97.7°F36.5°C 40.5°F4.7°C 14% 3.8 mph WSW6.1 kmh WSW 6.9 mph11.1 kmh 29.70 in1005.8 mb 0.00 in0.0 mm 0.00 in0.0 mm 0.00 in0.0 mm
06:10 PM 97.5°F36.4°C 40.4°F4.7°C 14% 1.6 mph WSW2.6 kmh WSW 6.9 mph11.1 kmh 29.70 in1005.8 mb 0.00 in0.0 mm 0.00 in0.0 mm 0.00 in0.0 mm
06:11 PM 97.5°F36.4°C 40.4°F4.7°C 14% 2.2 mph WSW3.5 kmh WSW 7.6 mph12.2 kmh 29.70 in1005.8 mb 0.00 in0.0 mm 0.00 in0.0 mm 0.00 in0.0 mm
06:12 PM 97.3°F36.3°C 40.2°F4.6°C 14% 3.1 mph WSW5.0 kmh WSW 7.6 mph12.2 kmh 29.70 in1005.8 mb 0.00 in0.0 mm 0.00 in0.0 mm 0.00 in0.0 mm
06:13 PM 97.3°F36.3°C 40.2°F4.6°C 14% 5.4 mph WSW8.7 kmh WSW 7.6 mph12.2 kmh 29.70 in1005.8 mb 0.00 in0.0 mm 0.00 in0.0 mm 0.00 in0.0 mm
06:14 PM 97.3°F36.3°C 40.2°F4.6°C 14% 3.1 mph WSW5.0 kmh WSW 7.6 mph12.2 kmh 29.71 in1006.1 mb 0.00 in0.0 mm 0.00 in0.0 mm 0.00 in0.0 mm
06:15 PM 97.2°F36.2°C 40.1°F4.5°C 14% 3.8 mph WSW6.1 kmh WSW 7.6 mph12.2 kmh 29.70 in1005.8 mb 0.00 in0.0 mm 0.00 in0.0 mm 0.00 in0.0 mm
06:16 PM 97.0°F36.1°C 40.0°F4.4°C 14% 1.6 mph SW2.6 kmh SW 7.6 mph12.2 kmh 29.70 in1005.8 mb 0.00 in0.0 mm 0.00 in0.0 mm 0.00 in0.0 mm
06:17 PM 96.8°F36.0°C 39.8°F4.3°C 14% 0.7 mph SW1.1 kmh SW 7.6 mph12.2 kmh 29.70 in1005.8 mb 0.00 in0.0 mm 0.00 in0.0 mm 0.00 in0.0 mm
06:18 PM 96.8°F36.0°C 41.6°F5.3°C 15% 2.2 mph SW3.5 kmh SW 7.6 mph12.2 kmh 29.70 in1005.8 mb 0.00 in0.0 mm 0.00 in0.0 mm 0.00 in0.0 mm
06:19 PM 96.8°F36.0°C 41.6°F5.3°C 15% 2.2 mph WSW3.5 kmh WSW 7.6 mph12.2 kmh 29.70 in1005.8 mb 0.00 in0.0 mm 0.00 in0.0 mm 0.00 in0.0 mm
06:20 PM 96.8°F36.0°C 41.6°F5.3°C 15% 0.7 mph WSW1.1 kmh WSW 7.6 mph12.2 kmh 29.70 in1005.8 mb 0.00 in0.0 mm 0.00 in0.0 mm 0.00 in0.0 mm
06:21 PM 96.6°F35.9°C 43.1°F6.2°C 16% 1.6 mph WSW2.6 kmh WSW 6.0 mph9.7 kmh 29.70 in1005.8 mb 0.00 in0.0 mm 0.00 in0.0 mm 0.00 in0.0 mm
06:22 PM 96.6°F35.9°C 43.1°F6.2°C 16% 0.7 mph WSW1.1 kmh WSW 6.0 mph9.7 kmh 29.70 in1005.8 mb 0.00 in0.0 mm 0.00 in0.0 mm 0.00 in0.0 mm
06:23 PM 96.8°F36.0°C 41.6°F5.3°C 15% Calm Calm 6.0 mph9.7 kmh 29.70 in1005.8 mb 0.00 in0.0 mm 0.00 in0.0 mm 0.00 in0.0 mm
06:24 PM 97.0°F36.1°C 41.7°F5.4°C 15% 1.6 mph W2.6 kmh W 6.0 mph9.7 kmh 29.70 in1005.8 mb 0.00 in0.0 mm 0.00 in0.0 mm 0.00 in0.0 mm
06:25 PM 97.0°F36.1°C 41.7°F5.4°C 15% 1.6 mph WNW2.6 kmh WNW 6.0 mph9.7 kmh 29.70 in1005.8 mb 0.00 in0.0 mm 0.00 in0.0 mm 0.00 in0.0 mm
06:26 PM 97.0°F36.1°C 41.7°F5.4°C 15% 0.7 mph NW1.1 kmh NW 5.4 mph8.7 kmh 29.70 in1005.8 mb 0.00 in0.0 mm 0.00 in0.0 mm 0.00 in0.0 mm
06:27 PM 97.0°F36.1°C 43.4°F6.3°C 16% 3.8 mph NW6.1 kmh NW 6.0 mph9.7 kmh 29.70 in1005.8 mb 0.00 in0.0 mm 0.00 in0.0 mm 0.00 in0.0 mm
06:28 PM 97.2°F36.2°C 41.9°F5.5°C 15% 3.8 mph WNW6.1 kmh WNW 9.2 mph14.8 kmh 29.70 in1005.8 mb 0.00 in0.0 mm 0.00 in0.0 mm 0.00 in0.0 mm
06:29 PM 97.2°F36.2°C 41.9°F5.5°C 15% 5.4 mph W8.7 kmh W 9.2 mph14.8 kmh 29.70 in1005.8 mb 0.00 in0.0 mm 0.00 in0.0 mm 0.00 in0.0 mm
06:30 PM 97.0°F36.1°C 41.7°F5.4°C 15% 2.2 mph WSW3.5 kmh WSW 9.2 mph14.8 kmh 29.70 in1005.8 mb 0.00 in0.0 mm 0.00 in0.0 mm 0.00 in0.0 mm
06:31 PM 96.8°F36.0°C 41.6°F5.3°C 15% 3.1 mph WSW5.0 kmh WSW 9.2 mph14.8 kmh 29.70 in1005.8 mb 0.00 in0.0 mm 0.00 in0.0 mm 0.00 in0.0 mm
06:32 PM 96.8°F36.0°C 41.6°F5.3°C 15% 3.8 mph WSW6.1 kmh WSW 9.2 mph14.8 kmh 29.70 in1005.8 mb 0.00 in0.0 mm 0.00 in0.0 mm 0.00 in0.0 mm
06:33 PM 96.8°F36.0°C 41.6°F5.3°C 15% 3.8 mph WSW6.1 kmh WSW 9.2 mph14.8 kmh 29.70 in1005.8 mb 0.00 in0.0 mm 0.00 in0.0 mm 0.00 in0.0 mm
06:34 PM 96.8°F36.0°C 41.6°F5.3°C 15% 3.1 mph WSW5.0 kmh WSW 9.2 mph14.8 kmh 29.70 in1005.8 mb 0.00 in0.0 mm 0.00 in0.0 mm 0.00 in0.0 mm
06:35 PM 96.6°F35.9°C 43.1°F6.2°C 16% 3.8 mph SW6.1 kmh SW 9.2 mph14.8 kmh 29.70 in1005.8 mb 0.00 in0.0 mm 0.00 in0.0 mm 0.00 in0.0 mm
06:36 PM 96.6°F35.9°C 43.1°F6.2°C 16% 2.2 mph WSW3.5 kmh WSW 9.2 mph14.8 kmh 29.70 in1005.8 mb 0.00 in0.0 mm 0.00 in0.0 mm 0.00 in0.0 mm
06:37 PM 96.4°F35.8°C 43.0°F6.1°C 16% 2.2 mph WSW3.5 kmh WSW 9.2 mph14.8 kmh 29.70 in1005.8 mb 0.00 in0.0 mm 0.00 in0.0 mm 0.00 in0.0 mm
06:38 PM 96.4°F35.8°C 43.0°F6.1°C 16% 1.6 mph WSW2.6 kmh WSW 9.2 mph14.8 kmh 29.70 in1005.8 mb 0.00 in0.0 mm 0.00 in0.0 mm 0.00 in0.0 mm
06:39 PM 96.4°F35.8°C 43.0°F6.1°C 16% 0.7 mph WSW1.1 kmh WSW 7.6 mph12.2 kmh 29.70 in1005.8 mb 0.00 in0.0 mm 0.00 in0.0 mm 0.00 in0.0 mm
06:40 PM 96.4°F35.8°C 43.0°F6.1°C 16% 1.6 mph WSW2.6 kmh WSW 7.6 mph12.2 kmh 29.70 in1005.8 mb 0.00 in0.0 mm 0.00 in0.0 mm 0.00 in0.0 mm
06:41 PM 96.4°F35.8°C 43.0°F6.1°C 16% 1.6 mph WSW2.6 kmh WSW 7.6 mph12.2 kmh 29.70 in1005.8 mb 0.00 in0.0 mm 0.00 in0.0 mm 0.00 in0.0 mm
06:42 PM 96.6°F35.9°C 43.1°F6.2°C 16% 1.6 mph WSW2.6 kmh WSW 7.6 mph12.2 kmh 29.70 in1005.8 mb 0.00 in0.0 mm 0.00 in0.0 mm 0.00 in0.0 mm
06:43 PM 96.6°F35.9°C 43.1°F6.2°C 16% 2.2 mph WSW3.5 kmh WSW 7.6 mph12.2 kmh 29.70 in1005.8 mb 0.00 in0.0 mm 0.00 in0.0 mm 0.00 in0.0 mm
06:44 PM 96.6°F35.9°C 43.1°F6.2°C 16% 1.6 mph WSW2.6 kmh WSW 7.6 mph12.2 kmh 29.70 in1005.8 mb 0.00 in0.0 mm 0.00 in0.0 mm 0.00 in0.0 mm
06:45 PM 96.6°F35.9°C 43.1°F6.2°C 16% Calm Calm 7.6 mph12.2 kmh 29.70 in1005.8 mb 0.00 in0.0 mm 0.00 in0.0 mm 0.00 in0.0 mm
06:46 PM 96.6°F35.9°C 43.1°F6.2°C 16% 1.6 mph WSW2.6 kmh WSW 4.5 mph7.2 kmh 29.70 in1005.8 mb 0.00 in0.0 mm 0.00 in0.0 mm 0.00 in0.0 mm
06:47 PM 96.8°F36.0°C 43.3°F6.3°C 16% 1.6 mph W2.6 kmh W 4.5 mph7.2 kmh 29.70 in1005.8 mb 0.00 in0.0 mm 0.00 in0.0 mm 0.00 in0.0 mm
06:48 PM 96.8°F36.0°C 43.3°F6.3°C 16% 4.5 mph W7.2 kmh W 6.9 mph11.1 kmh 29.70 in1005.8 mb 0.00 in0.0 mm 0.00 in0.0 mm 0.00 in0.0 mm
06:49 PM 96.8°F36.0°C 43.3°F6.3°C 16% 3.8 mph W6.1 kmh W 6.9 mph11.1 kmh 29.70 in1005.8 mb 0.00 in0.0 mm 0.00 in0.0 mm 0.00 in0.0 mm
06:50 PM 96.6°F35.9°C 44.7°F7.1°C 17% 4.5 mph W7.2 kmh W 6.9 mph11.1 kmh 29.70 in1005.8 mb 0.00 in0.0 mm 0.00 in0.0 mm 0.00 in0.0 mm
06:51 PM 96.3°F35.7°C 44.4°F6.9°C 17% 3.1 mph W5.0 kmh W 6.9 mph11.1 kmh 29.70 in1005.8 mb 0.00 in0.0 mm 0.00 in0.0 mm 0.00 in0.0 mm
06:52 PM 96.1°F35.6°C 44.3°F6.8°C 17% 3.8 mph WNW6.1 kmh WNW 6.9 mph11.1 kmh 29.70 in1005.8 mb 0.00 in0.0 mm 0.00 in0.0 mm 0.00 in0.0 mm
06:53 PM 96.1°F35.6°C 44.3°F6.8°C 17% 4.5 mph WNW7.2 kmh WNW 7.6 mph12.2 kmh 29.70 in1005.8 mb 0.00 in0.0 mm 0.00 in0.0 mm 0.00 in0.0 mm
06:54 PM 95.9°F35.5°C 44.1°F6.7°C 17% 3.1 mph WNW5.0 kmh WNW 7.6 mph12.2 kmh 29.70 in1005.8 mb 0.00 in0.0 mm 0.00 in0.0 mm 0.00 in0.0 mm
06:55 PM 95.5°F35.3°C 45.4°F7.4°C 18% 4.5 mph WNW7.2 kmh WNW 7.6 mph12.2 kmh 29.70 in1005.8 mb 0.00 in0.0 mm 0.00 in0.0 mm 0.00 in0.0 mm
06:56 PM 95.5°F35.3°C 45.4°F7.4°C 18% 3.1 mph NW5.0 kmh NW 7.6 mph12.2 kmh 29.70 in1005.8 mb 0.00 in0.0 mm 0.00 in0.0 mm 0.00 in0.0 mm
06:57 PM 95.4°F35.2°C 43.7°F6.5°C 17% 3.1 mph NW5.0 kmh NW 7.6 mph12.2 kmh 29.70 in1005.8 mb 0.00 in0.0 mm 0.00 in0.0 mm 0.00 in0.0 mm
06:58 PM 95.4°F35.2°C 43.7°F6.5°C 17% 2.2 mph NW3.5 kmh NW 7.6 mph12.2 kmh 29.70 in1005.8 mb 0.00 in0.0 mm 0.00 in0.0 mm 0.00 in0.0 mm
06:59 PM 95.2°F35.1°C 45.1°F7.3°C 18% 3.8 mph NW6.1 kmh NW 7.6 mph12.2 kmh 29.70 in1005.8 mb 0.00 in0.0 mm 0.00 in0.0 mm 0.00 in0.0 mm
07:00 PM 95.2°F35.1°C 45.1°F7.3°C 18% 3.8 mph NW6.1 kmh NW 7.6 mph12.2 kmh 29.70 in1005.8 mb 0.00 in0.0 mm 0.00 in0.0 mm 0.00 in0.0 mm
07:01 PM 95.2°F35.1°C 45.1°F7.3°C 18% 0.7 mph NW1.1 kmh NW 7.6 mph12.2 kmh 29.70 in1005.8 mb 0.00 in0.0 mm 0.00 in0.0 mm 0.00 in0.0 mm
07:02 PM 95.2°F35.1°C 45.1°F7.3°C 18% 3.1 mph WNW5.0 kmh WNW 7.6 mph12.2 kmh 29.70 in1005.8 mb 0.00 in0.0 mm 0.00 in0.0 mm 0.00 in0.0 mm
07:03 PM 95.2°F35.1°C 45.1°F7.3°C 18% 4.5 mph WNW7.2 kmh WNW 7.6 mph12.2 kmh 29.70 in1005.8 mb 0.00 in0.0 mm 0.00 in0.0 mm 0.00 in0.0 mm
07:04 PM 95.2°F35.1°C 46.5°F8.1°C 19% 3.1 mph WNW5.0 kmh WNW 6.9 mph11.1 kmh 29.70 in1005.8 mb 0.00 in0.0 mm 0.00 in0.0 mm 0.00 in0.0 mm
07:05 PM 95.2°F35.1°C 46.5°F8.1°C 19% 2.2 mph WNW3.5 kmh WNW 6.9 mph11.1 kmh 29.70 in1005.8 mb 0.00 in0.0 mm 0.00 in0.0 mm 0.00 in0.0 mm
07:06 PM 95.2°F35.1°C 46.5°F8.1°C 19% 0.7 mph W1.1 kmh W 6.0 mph9.7 kmh 29.70 in1005.8 mb 0.00 in0.0 mm 0.00 in0.0 mm 0.00 in0.0 mm
07:07 PM 95.0°F35.0°C 46.3°F7.9°C 19% 2.2 mph W3.5 kmh W 6.0 mph9.7 kmh 29.70 in1005.8 mb 0.00 in0.0 mm 0.00 in0.0 mm 0.00 in0.0 mm
07:08 PM 95.0°F35.0°C 46.3°F7.9°C 19% 2.2 mph W3.5 kmh W 6.0 mph9.7 kmh 29.70 in1005.8 mb 0.00 in0.0 mm 0.00 in0.0 mm 0.00 in0.0 mm
07:09 PM 95.0°F35.0°C 46.3°F7.9°C 19% 2.2 mph W3.5 kmh W 6.0 mph9.7 kmh 29.70 in1005.8 mb 0.00 in0.0 mm 0.00 in0.0 mm 0.00 in0.0 mm
07:10 PM 95.0°F35.0°C 46.3°F7.9°C 19% 2.2 mph W3.5 kmh W 6.0 mph9.7 kmh 29.70 in1005.8 mb 0.00 in0.0 mm 0.00 in0.0 mm 0.00 in0.0 mm
07:11 PM 94.8°F34.9°C 46.2°F7.9°C 19% 3.1 mph W5.0 kmh W 6.0 mph9.7 kmh 29.70 in1005.8 mb 0.00 in0.0 mm 0.00 in0.0 mm 0.00 in0.0 mm
07:12 PM 94.6°F34.8°C 46.1°F7.8°C 19% 0.7 mph W1.1 kmh W 6.0 mph9.7 kmh 29.70 in1005.8 mb 0.00 in0.0 mm 0.00 in0.0 mm 0.00 in0.0 mm
07:13 PM 94.6°F34.8°C 46.1°F7.8°C 19% 1.6 mph WNW2.6 kmh WNW 4.5 mph7.2 kmh 29.70 in1005.8 mb 0.00 in0.0 mm 0.00 in0.0 mm 0.00 in0.0 mm
07:14 PM 94.6°F34.8°C 46.1°F7.8°C 19% 2.2 mph WNW3.5 kmh WNW 4.5 mph7.2 kmh 29.70 in1005.8 mb 0.00 in0.0 mm 0.00 in0.0 mm 0.00 in0.0 mm
07:15 PM 94.6°F34.8°C 46.1°F7.8°C 19% 1.6 mph WNW2.6 kmh WNW 4.5 mph7.2 kmh 29.70 in1005.8 mb 0.00 in0.0 mm 0.00 in0.0 mm 0.00 in0.0 mm
07:16 PM 94.6°F34.8°C 46.1°F7.8°C 19% 1.6 mph WNW2.6 kmh WNW 4.5 mph7.2 kmh 29.70 in1005.8 mb 0.00 in0.0 mm 0.00 in0.0 mm 0.00 in0.0 mm
07:17 PM 94.6°F34.8°C 47.4°F8.6°C 20% 1.6 mph NW2.6 kmh NW 4.5 mph7.2 kmh 29.70 in1005.8 mb 0.00 in0.0 mm 0.00 in0.0 mm 0.00 in0.0 mm
07:18 PM 94.5°F34.7°C 47.3°F8.5°C 20% 1.6 mph WNW2.6 kmh WNW 4.5 mph7.2 kmh 29.70 in1005.8 mb 0.00 in0.0 mm 0.00 in0.0 mm 0.00 in0.0 mm
07:19 PM 94.5°F34.7°C 47.3°F8.5°C 20% 1.6 mph NW2.6 kmh NW 4.5 mph7.2 kmh 29.70 in1005.8 mb 0.00 in0.0 mm 0.00 in0.0 mm 0.00 in0.0 mm
07:20 PM 94.3°F34.6°C 45.8°F7.7°C 19% 1.6 mph NW2.6 kmh NW 4.5 mph7.2 kmh 29.70 in1005.8 mb 0.00 in0.0 mm 0.00 in0.0 mm 0.00 in0.0 mm
07:21 PM 94.3°F34.6°C 45.8°F7.7°C 19% 1.6 mph NW2.6 kmh NW 3.8 mph6.1 kmh 29.70 in1005.8 mb 0.00 in0.0 mm 0.00 in0.0 mm 0.00 in0.0 mm
07:22 PM 94.3°F34.6°C 45.8°F7.7°C 19% 0.7 mph NW1.1 kmh NW 3.8 mph6.1 kmh 29.70 in1005.8 mb 0.00 in0.0 mm 0.00 in0.0 mm 0.00 in0.0 mm
07:23 PM 94.3°F34.6°C 45.8°F7.7°C 19% 0.7 mph NW1.1 kmh NW 3.8 mph6.1 kmh 29.70 in1005.8 mb 0.00 in0.0 mm 0.00 in0.0 mm 0.00 in0.0 mm
07:24 PM 94.1°F34.5°C 45.6°F7.6°C 19% 0.7 mph NW1.1 kmh NW 3.1 mph5.0 kmh 29.70 in1005.8 mb 0.00 in0.0 mm 0.00 in0.0 mm 0.00 in0.0 mm
07:25 PM 94.1°F34.5°C 47.0°F8.3°C 20% 0.7 mph NW1.1 kmh NW 3.1 mph5.0 kmh 29.70 in1005.8 mb 0.00 in0.0 mm 0.00 in0.0 mm 0.00 in0.0 mm
07:26 PM 94.1°F34.5°C 47.0°F8.3°C 20% Calm Calm 3.1 mph5.0 kmh 29.70 in1005.8 mb 0.00 in0.0 mm 0.00 in0.0 mm 0.00 in0.0 mm
07:27 PM 93.9°F34.4°C 46.8°F8.2°C 20% Calm Calm 3.1 mph5.0 kmh 29.70 in1005.8 mb 0.00 in0.0 mm 0.00 in0.0 mm 0.00 in0.0 mm
07:28 PM 93.9°F34.4°C 46.8°F8.2°C 20% Calm Calm 3.1 mph5.0 kmh 29.70 in1005.8 mb 0.00 in0.0 mm 0.00 in0.0 mm 0.00 in0.0 mm
07:29 PM 93.9°F34.4°C 46.8°F8.2°C 20% 1.6 mph NW2.6 kmh NW 3.1 mph5.0 kmh 29.70 in1005.8 mb 0.00 in0.0 mm 0.00 in0.0 mm 0.00 in0.0 mm
07:30 PM 93.9°F34.4°C 46.8°F8.2°C 20% 0.7 mph NW1.1 kmh NW 3.1 mph5.0 kmh 29.70 in1005.8 mb 0.00 in0.0 mm 0.00 in0.0 mm 0.00 in0.0 mm
07:31 PM 93.7°F34.3°C 46.7°F8.2°C 20% Calm Calm 3.1 mph5.0 kmh 29.70 in1005.8 mb 0.00 in0.0 mm 0.00 in0.0 mm 0.00 in0.0 mm
07:32 PM 93.7°F34.3°C 46.7°F8.2°C 20% 2.2 mph WNW3.5 kmh WNW 3.1 mph5.0 kmh 29.70 in1005.8 mb 0.00 in0.0 mm 0.00 in0.0 mm 0.00 in0.0 mm
07:33 PM 93.7°F34.3°C 48.0°F8.9°C 21% 1.6 mph WNW2.6 kmh WNW 3.1 mph5.0 kmh 29.70 in1005.8 mb 0.00 in0.0 mm 0.00 in0.0 mm 0.00 in0.0 mm
07:34 PM 93.6°F34.2°C 47.8°F8.8°C 21% 0.7 mph WNW1.1 kmh WNW 3.1 mph5.0 kmh 29.70 in1005.8 mb 0.00 in0.0 mm 0.00 in0.0 mm 0.00 in0.0 mm
07:35 PM 93.4°F34.1°C 47.7°F